<?xml version="1.0" encoding="UTF-8" standalone="no" ?>
<gpx xmlns="http://www.topografix.com/GPX/1/1" xmlns:xsi="http://www.w3.org/2001/XMLSchema-instance" xsi:schemaLocation="http://www.topografix.com/GPX/1/1 http://www.topografix.com/GPX/1/1/gpx.xsd" version="1.1" creator="VisuGPX - https://www.visugpx.com">
  <metadata>
    <name>83-Mj-2011-19-1-Agay, les Grues et le Pont Sarrazin</name>
    <desc><![CDATA[Agay, les Grues et le Pont Sarrazin]]></desc>
  </metadata>
  <trk>
    <name><![CDATA[2011-01-19-agay]]></name>
    <trkseg>
      <trkpt lat="43.48066" lon="6.91168">
        <ele>324.150452</ele>
        <time>2011-01-19T08:33:12Z</time>
      </trkpt>
      <trkpt lat="43.48066" lon="6.91168">
        <ele>324.187836</ele>
        <time>2011-01-19T08:33:13Z</time>
      </trkpt>
      <trkpt lat="43.48058" lon="6.91173">
        <ele>320.399994</ele>
        <time>2011-01-19T08:36:29Z</time>
      </trkpt>
      <trkpt lat="43.48046" lon="6.91179">
        <ele>317.799988</ele>
        <time>2011-01-19T08:37:16Z</time>
      </trkpt>
      <trkpt lat="43.48043" lon="6.91191">
        <ele>319.200012</ele>
        <time>2011-01-19T08:37:27Z</time>
      </trkpt>
      <trkpt lat="43.48052" lon="6.91189">
        <ele>319</ele>
        <time>2011-01-19T08:37:53Z</time>
      </trkpt>
      <trkpt lat="43.48053" lon="6.91188">
        <ele>319.200012</ele>
        <time>2011-01-19T08:37:54Z</time>
      </trkpt>
      <trkpt lat="43.4806" lon="6.91195">
        <ele>317.600006</ele>
        <time>2011-01-19T08:39:04Z</time>
      </trkpt>
      <trkpt lat="43.48073" lon="6.9118">
        <ele>326.799988</ele>
        <time>2011-01-19T08:39:41Z</time>
      </trkpt>
      <trkpt lat="43.48081" lon="6.91177">
        <ele>328.799988</ele>
        <time>2011-01-19T08:39:57Z</time>
      </trkpt>
      <trkpt lat="43.48089" lon="6.91179">
        <ele>329.799988</ele>
        <time>2011-01-19T08:40:14Z</time>
      </trkpt>
      <trkpt lat="43.4809" lon="6.91179">
        <ele>330.200012</ele>
        <time>2011-01-19T08:40:15Z</time>
      </trkpt>
      <trkpt lat="43.48106" lon="6.91179">
        <ele>335.399994</ele>
        <time>2011-01-19T08:40:48Z</time>
      </trkpt>
      <trkpt lat="43.48115" lon="6.91176">
        <ele>337.600006</ele>
        <time>2011-01-19T08:41:02Z</time>
      </trkpt>
      <trkpt lat="43.48123" lon="6.91178">
        <ele>339.899994</ele>
        <time>2011-01-19T08:41:18Z</time>
      </trkpt>
      <trkpt lat="43.48124" lon="6.91177">
        <ele>339.899994</ele>
        <time>2011-01-19T08:41:19Z</time>
      </trkpt>
      <trkpt lat="43.4814" lon="6.91179">
        <ele>344.299988</ele>
        <time>2011-01-19T08:41:46Z</time>
      </trkpt>
      <trkpt lat="43.48149" lon="6.91175">
        <ele>345.5</ele>
        <time>2011-01-19T08:42:06Z</time>
      </trkpt>
      <trkpt lat="43.48157" lon="6.91172">
        <ele>346.700012</ele>
        <time>2011-01-19T08:42:20Z</time>
      </trkpt>
      <trkpt lat="43.48157" lon="6.91172">
        <ele>346.799988</ele>
        <time>2011-01-19T08:42:21Z</time>
      </trkpt>
      <trkpt lat="43.48172" lon="6.91182">
        <ele>350</ele>
        <time>2011-01-19T08:42:45Z</time>
      </trkpt>
      <trkpt lat="43.48178" lon="6.9119">
        <ele>350.600006</ele>
        <time>2011-01-19T08:43:04Z</time>
      </trkpt>
      <trkpt lat="43.48184" lon="6.91199">
        <ele>350.799988</ele>
        <time>2011-01-19T08:43:13Z</time>
      </trkpt>
      <trkpt lat="43.48189" lon="6.91208">
        <ele>351.600006</ele>
        <time>2011-01-19T08:43:23Z</time>
      </trkpt>
      <trkpt lat="43.4819" lon="6.91209">
        <ele>351.600006</ele>
        <time>2011-01-19T08:43:24Z</time>
      </trkpt>
      <trkpt lat="43.48199" lon="6.91227">
        <ele>353.600006</ele>
        <time>2011-01-19T08:43:44Z</time>
      </trkpt>
      <trkpt lat="43.48198" lon="6.91239">
        <ele>355.399994</ele>
        <time>2011-01-19T08:43:55Z</time>
      </trkpt>
      <trkpt lat="43.48202" lon="6.91249">
        <ele>356.200012</ele>
        <time>2011-01-19T08:44:02Z</time>
      </trkpt>
      <trkpt lat="43.48209" lon="6.91257">
        <ele>356.799988</ele>
        <time>2011-01-19T08:44:09Z</time>
      </trkpt>
      <trkpt lat="43.48215" lon="6.91264">
        <ele>357.5</ele>
        <time>2011-01-19T08:44:17Z</time>
      </trkpt>
      <trkpt lat="43.48222" lon="6.91271">
        <ele>356.899994</ele>
        <time>2011-01-19T08:44:31Z</time>
      </trkpt>
      <trkpt lat="43.48223" lon="6.91271">
        <ele>356.700012</ele>
        <time>2011-01-19T08:44:32Z</time>
      </trkpt>
      <trkpt lat="43.48235" lon="6.91286">
        <ele>353.200012</ele>
        <time>2011-01-19T08:45:13Z</time>
      </trkpt>
      <trkpt lat="43.48242" lon="6.91293">
        <ele>350</ele>
        <time>2011-01-19T08:45:36Z</time>
      </trkpt>
      <trkpt lat="43.48243" lon="6.91294">
        <ele>349.799988</ele>
        <time>2011-01-19T08:45:37Z</time>
      </trkpt>
      <trkpt lat="43.4825" lon="6.91314">
        <ele>346.5</ele>
        <time>2011-01-19T08:46:05Z</time>
      </trkpt>
      <trkpt lat="43.48256" lon="6.91323">
        <ele>344.5</ele>
        <time>2011-01-19T08:46:17Z</time>
      </trkpt>
      <trkpt lat="43.48263" lon="6.9133">
        <ele>343.399994</ele>
        <time>2011-01-19T08:46:26Z</time>
      </trkpt>
      <trkpt lat="43.4827" lon="6.91337">
        <ele>342</ele>
        <time>2011-01-19T08:46:38Z</time>
      </trkpt>
      <trkpt lat="43.48271" lon="6.91338">
        <ele>342</ele>
        <time>2011-01-19T08:46:39Z</time>
      </trkpt>
      <trkpt lat="43.48285" lon="6.91348">
        <ele>342.899994</ele>
        <time>2011-01-19T08:47:03Z</time>
      </trkpt>
      <trkpt lat="43.4829" lon="6.91358">
        <ele>343.600006</ele>
        <time>2011-01-19T08:47:16Z</time>
      </trkpt>
      <trkpt lat="43.48296" lon="6.91365">
        <ele>343.600006</ele>
        <time>2011-01-19T08:47:32Z</time>
      </trkpt>
      <trkpt lat="43.48305" lon="6.91368">
        <ele>344.799988</ele>
        <time>2011-01-19T08:47:45Z</time>
      </trkpt>
      <trkpt lat="43.48306" lon="6.91368">
        <ele>345</ele>
        <time>2011-01-19T08:47:46Z</time>
      </trkpt>
      <trkpt lat="43.4832" lon="6.91359">
        <ele>344.100006</ele>
        <time>2011-01-19T08:48:05Z</time>
      </trkpt>
      <trkpt lat="43.48328" lon="6.91358">
        <ele>343.799988</ele>
        <time>2011-01-19T08:48:13Z</time>
      </trkpt>
      <trkpt lat="43.48337" lon="6.91359">
        <ele>342.799988</ele>
        <time>2011-01-19T08:48:29Z</time>
      </trkpt>
      <trkpt lat="43.48345" lon="6.91364">
        <ele>344.399994</ele>
        <time>2011-01-19T08:50:48Z</time>
      </trkpt>
      <trkpt lat="43.48345" lon="6.91364">
        <ele>344.5</ele>
        <time>2011-01-19T08:50:49Z</time>
      </trkpt>
      <trkpt lat="43.48354" lon="6.91364">
        <ele>338.5</ele>
        <time>2011-01-19T08:52:29Z</time>
      </trkpt>
      <trkpt lat="43.48371" lon="6.91369">
        <ele>332.100006</ele>
        <time>2011-01-19T08:53:03Z</time>
      </trkpt>
      <trkpt lat="43.48378" lon="6.91373">
        <ele>331.200012</ele>
        <time>2011-01-19T08:53:10Z</time>
      </trkpt>
      <trkpt lat="43.48386" lon="6.91376">
        <ele>331.100006</ele>
        <time>2011-01-19T08:53:17Z</time>
      </trkpt>
      <trkpt lat="43.48394" lon="6.91372">
        <ele>332.5</ele>
        <time>2011-01-19T08:53:39Z</time>
      </trkpt>
      <trkpt lat="43.48395" lon="6.91372">
        <ele>332.799988</ele>
        <time>2011-01-19T08:53:40Z</time>
      </trkpt>
      <trkpt lat="43.48411" lon="6.91379">
        <ele>337.600006</ele>
        <time>2011-01-19T08:54:46Z</time>
      </trkpt>
      <trkpt lat="43.48411" lon="6.9138">
        <ele>337.5</ele>
        <time>2011-01-19T08:54:47Z</time>
      </trkpt>
      <trkpt lat="43.48428" lon="6.91376">
        <ele>340.600006</ele>
        <time>2011-01-19T08:55:24Z</time>
      </trkpt>
      <trkpt lat="43.48436" lon="6.91376">
        <ele>341.100006</ele>
        <time>2011-01-19T08:55:37Z</time>
      </trkpt>
      <trkpt lat="43.48444" lon="6.91372">
        <ele>340.700012</ele>
        <time>2011-01-19T08:55:46Z</time>
      </trkpt>
      <trkpt lat="43.48452" lon="6.91367">
        <ele>339.700012</ele>
        <time>2011-01-19T08:55:56Z</time>
      </trkpt>
      <trkpt lat="43.48452" lon="6.91367">
        <ele>339.600006</ele>
        <time>2011-01-19T08:55:57Z</time>
      </trkpt>
      <trkpt lat="43.48466" lon="6.91357">
        <ele>339.600006</ele>
        <time>2011-01-19T08:56:13Z</time>
      </trkpt>
      <trkpt lat="43.48474" lon="6.91353">
        <ele>340.200012</ele>
        <time>2011-01-19T08:56:22Z</time>
      </trkpt>
      <trkpt lat="43.48481" lon="6.91347">
        <ele>340.100006</ele>
        <time>2011-01-19T08:56:32Z</time>
      </trkpt>
      <trkpt lat="43.48489" lon="6.91343">
        <ele>340.399994</ele>
        <time>2011-01-19T08:56:40Z</time>
      </trkpt>
      <trkpt lat="43.48496" lon="6.91336">
        <ele>340.200012</ele>
        <time>2011-01-19T08:56:47Z</time>
      </trkpt>
      <trkpt lat="43.48504" lon="6.91332">
        <ele>340.600006</ele>
        <time>2011-01-19T08:56:55Z</time>
      </trkpt>
      <trkpt lat="43.48512" lon="6.91327">
        <ele>341.399994</ele>
        <time>2011-01-19T08:57:05Z</time>
      </trkpt>
      <trkpt lat="43.48513" lon="6.91326">
        <ele>341.5</ele>
        <time>2011-01-19T08:57:06Z</time>
      </trkpt>
      <trkpt lat="43.48528" lon="6.91317">
        <ele>343.899994</ele>
        <time>2011-01-19T08:57:23Z</time>
      </trkpt>
      <trkpt lat="43.48536" lon="6.91313">
        <ele>345.399994</ele>
        <time>2011-01-19T08:57:36Z</time>
      </trkpt>
      <trkpt lat="43.48543" lon="6.91308">
        <ele>346.899994</ele>
        <time>2011-01-19T08:57:54Z</time>
      </trkpt>
      <trkpt lat="43.48551" lon="6.91302">
        <ele>348.600006</ele>
        <time>2011-01-19T08:58:07Z</time>
      </trkpt>
      <trkpt lat="43.48552" lon="6.91303">
        <ele>348.899994</ele>
        <time>2011-01-19T08:58:08Z</time>
      </trkpt>
      <trkpt lat="43.48568" lon="6.91298">
        <ele>353.899994</ele>
        <time>2011-01-19T08:58:59Z</time>
      </trkpt>
      <trkpt lat="43.48576" lon="6.91292">
        <ele>356.700012</ele>
        <time>2011-01-19T08:59:16Z</time>
      </trkpt>
      <trkpt lat="43.48576" lon="6.91292">
        <ele>356.899994</ele>
        <time>2011-01-19T08:59:17Z</time>
      </trkpt>
      <trkpt lat="43.48592" lon="6.91284">
        <ele>362.100006</ele>
        <time>2011-01-19T08:59:57Z</time>
      </trkpt>
      <trkpt lat="43.48601" lon="6.91283">
        <ele>366</ele>
        <time>2011-01-19T09:00:21Z</time>
      </trkpt>
      <trkpt lat="43.48601" lon="6.91283">
        <ele>365.899994</ele>
        <time>2011-01-19T09:00:22Z</time>
      </trkpt>
      <trkpt lat="43.48617" lon="6.91276">
        <ele>371.200012</ele>
        <time>2011-01-19T09:01:09Z</time>
      </trkpt>
      <trkpt lat="43.48625" lon="6.91274">
        <ele>373.700012</ele>
        <time>2011-01-19T09:01:50Z</time>
      </trkpt>
      <trkpt lat="43.48626" lon="6.91273">
        <ele>373.600006</ele>
        <time>2011-01-19T09:01:51Z</time>
      </trkpt>
      <trkpt lat="43.48634" lon="6.91275">
        <ele>377.899994</ele>
        <time>2011-01-19T09:02:52Z</time>
      </trkpt>
      <trkpt lat="43.48651" lon="6.91272">
        <ele>386.700012</ele>
        <time>2011-01-19T09:03:54Z</time>
      </trkpt>
      <trkpt lat="43.48652" lon="6.91272">
        <ele>387</ele>
        <time>2011-01-19T09:03:55Z</time>
      </trkpt>
      <trkpt lat="43.48668" lon="6.91264">
        <ele>394.100006</ele>
        <time>2011-01-19T09:06:00Z</time>
      </trkpt>
      <trkpt lat="43.48669" lon="6.91264">
        <ele>394.299988</ele>
        <time>2011-01-19T09:06:01Z</time>
      </trkpt>
      <trkpt lat="43.48684" lon="6.9127">
        <ele>405</ele>
        <time>2011-01-19T09:06:59Z</time>
      </trkpt>
      <trkpt lat="43.48692" lon="6.91275">
        <ele>407.700012</ele>
        <time>2011-01-19T09:07:18Z</time>
      </trkpt>
      <trkpt lat="43.48692" lon="6.91276">
        <ele>407.700012</ele>
        <time>2011-01-19T09:07:19Z</time>
      </trkpt>
      <trkpt lat="43.48709" lon="6.91281">
        <ele>412</ele>
        <time>2011-01-19T09:07:47Z</time>
      </trkpt>
      <trkpt lat="43.48717" lon="6.91282">
        <ele>412.399994</ele>
        <time>2011-01-19T09:07:55Z</time>
      </trkpt>
      <trkpt lat="43.48725" lon="6.91284">
        <ele>413.200012</ele>
        <time>2011-01-19T09:08:04Z</time>
      </trkpt>
      <trkpt lat="43.48731" lon="6.91292">
        <ele>413.5</ele>
        <time>2011-01-19T09:09:26Z</time>
      </trkpt>
      <trkpt lat="43.48731" lon="6.91293">
        <ele>413.399994</ele>
        <time>2011-01-19T09:09:27Z</time>
      </trkpt>
      <trkpt lat="43.48739" lon="6.91285">
        <ele>412.799988</ele>
        <time>2011-01-19T09:12:41Z</time>
      </trkpt>
      <trkpt lat="43.48755" lon="6.91278">
        <ele>407.5</ele>
        <time>2011-01-19T09:13:54Z</time>
      </trkpt>
      <trkpt lat="43.48755" lon="6.91278">
        <ele>407.399994</ele>
        <time>2011-01-19T09:13:55Z</time>
      </trkpt>
      <trkpt lat="43.48768" lon="6.91262">
        <ele>399.600006</ele>
        <time>2011-01-19T09:14:42Z</time>
      </trkpt>
      <trkpt lat="43.48775" lon="6.91256">
        <ele>396.899994</ele>
        <time>2011-01-19T09:14:58Z</time>
      </trkpt>
      <trkpt lat="43.48776" lon="6.91256">
        <ele>396.700012</ele>
        <time>2011-01-19T09:14:59Z</time>
      </trkpt>
      <trkpt lat="43.48788" lon="6.9124">
        <ele>391.700012</ele>
        <time>2011-01-19T09:15:30Z</time>
      </trkpt>
      <trkpt lat="43.48796" lon="6.91234">
        <ele>389.600006</ele>
        <time>2011-01-19T09:15:44Z</time>
      </trkpt>
      <trkpt lat="43.48802" lon="6.91225">
        <ele>389.399994</ele>
        <time>2011-01-19T09:15:54Z</time>
      </trkpt>
      <trkpt lat="43.48809" lon="6.9122">
        <ele>388.399994</ele>
        <time>2011-01-19T09:16:02Z</time>
      </trkpt>
      <trkpt lat="43.48809" lon="6.91219">
        <ele>388.399994</ele>
        <time>2011-01-19T09:16:03Z</time>
      </trkpt>
      <trkpt lat="43.48821" lon="6.91204">
        <ele>388.700012</ele>
        <time>2011-01-19T09:16:20Z</time>
      </trkpt>
      <trkpt lat="43.48827" lon="6.91197">
        <ele>389.299988</ele>
        <time>2011-01-19T09:16:27Z</time>
      </trkpt>
      <trkpt lat="43.48835" lon="6.91191">
        <ele>388.200012</ele>
        <time>2011-01-19T09:16:35Z</time>
      </trkpt>
      <trkpt lat="43.48841" lon="6.91183">
        <ele>387.100006</ele>
        <time>2011-01-19T09:16:42Z</time>
      </trkpt>
      <trkpt lat="43.48848" lon="6.91176">
        <ele>385.399994</ele>
        <time>2011-01-19T09:16:52Z</time>
      </trkpt>
      <trkpt lat="43.48857" lon="6.91175">
        <ele>384.799988</ele>
        <time>2011-01-19T09:17:00Z</time>
      </trkpt>
      <trkpt lat="43.48864" lon="6.91169">
        <ele>384.899994</ele>
        <time>2011-01-19T09:17:10Z</time>
      </trkpt>
      <trkpt lat="43.48865" lon="6.91169">
        <ele>384.799988</ele>
        <time>2011-01-19T09:17:11Z</time>
      </trkpt>
      <trkpt lat="43.48881" lon="6.9117">
        <ele>384.200012</ele>
        <time>2011-01-19T09:17:28Z</time>
      </trkpt>
      <trkpt lat="43.4889" lon="6.91169">
        <ele>382.899994</ele>
        <time>2011-01-19T09:17:37Z</time>
      </trkpt>
      <trkpt lat="43.48898" lon="6.91168">
        <ele>380.700012</ele>
        <time>2011-01-19T09:17:46Z</time>
      </trkpt>
      <trkpt lat="43.48906" lon="6.91163">
        <ele>379.200012</ele>
        <time>2011-01-19T09:17:57Z</time>
      </trkpt>
      <trkpt lat="43.48915" lon="6.9116">
        <ele>375.700012</ele>
        <time>2011-01-19T09:18:30Z</time>
      </trkpt>
      <trkpt lat="43.48915" lon="6.91159">
        <ele>375.799988</ele>
        <time>2011-01-19T09:18:31Z</time>
      </trkpt>
      <trkpt lat="43.48932" lon="6.91159">
        <ele>369.399994</ele>
        <time>2011-01-19T09:19:30Z</time>
      </trkpt>
      <trkpt lat="43.4894" lon="6.91164">
        <ele>364.700012</ele>
        <time>2011-01-19T09:19:50Z</time>
      </trkpt>
      <trkpt lat="43.48941" lon="6.91165">
        <ele>364.200012</ele>
        <time>2011-01-19T09:19:51Z</time>
      </trkpt>
      <trkpt lat="43.48956" lon="6.91172">
        <ele>357.100006</ele>
        <time>2011-01-19T09:20:25Z</time>
      </trkpt>
      <trkpt lat="43.48964" lon="6.91175">
        <ele>353.799988</ele>
        <time>2011-01-19T09:20:51Z</time>
      </trkpt>
      <trkpt lat="43.48965" lon="6.91175">
        <ele>353.799988</ele>
        <time>2011-01-19T09:20:52Z</time>
      </trkpt>
      <trkpt lat="43.48981" lon="6.91178">
        <ele>349.700012</ele>
        <time>2011-01-19T09:21:47Z</time>
      </trkpt>
      <trkpt lat="43.48989" lon="6.91184">
        <ele>347.200012</ele>
        <time>2011-01-19T09:22:07Z</time>
      </trkpt>
      <trkpt lat="43.48989" lon="6.91185">
        <ele>347.200012</ele>
        <time>2011-01-19T09:22:08Z</time>
      </trkpt>
      <trkpt lat="43.49003" lon="6.9119">
        <ele>345.299988</ele>
        <time>2011-01-19T09:22:41Z</time>
      </trkpt>
      <trkpt lat="43.49012" lon="6.91192">
        <ele>341.700012</ele>
        <time>2011-01-19T09:23:02Z</time>
      </trkpt>
      <trkpt lat="43.49021" lon="6.91194">
        <ele>339.299988</ele>
        <time>2011-01-19T09:23:22Z</time>
      </trkpt>
      <trkpt lat="43.49021" lon="6.91194">
        <ele>339.100006</ele>
        <time>2011-01-19T09:23:23Z</time>
      </trkpt>
      <trkpt lat="43.49037" lon="6.91201">
        <ele>334.299988</ele>
        <time>2011-01-19T09:24:20Z</time>
      </trkpt>
      <trkpt lat="43.49044" lon="6.91206">
        <ele>330.799988</ele>
        <time>2011-01-19T09:24:32Z</time>
      </trkpt>
      <trkpt lat="43.49046" lon="6.91206">
        <ele>330.5</ele>
        <time>2011-01-19T09:24:33Z</time>
      </trkpt>
      <trkpt lat="43.49061" lon="6.91215">
        <ele>328</ele>
        <time>2011-01-19T09:24:50Z</time>
      </trkpt>
      <trkpt lat="43.49069" lon="6.91218">
        <ele>328</ele>
        <time>2011-01-19T09:24:58Z</time>
      </trkpt>
      <trkpt lat="43.49078" lon="6.91219">
        <ele>328.399994</ele>
        <time>2011-01-19T09:25:07Z</time>
      </trkpt>
      <trkpt lat="43.49086" lon="6.91223">
        <ele>328.899994</ele>
        <time>2011-01-19T09:25:17Z</time>
      </trkpt>
      <trkpt lat="43.49094" lon="6.91224">
        <ele>329.100006</ele>
        <time>2011-01-19T09:25:24Z</time>
      </trkpt>
      <trkpt lat="43.49102" lon="6.91227">
        <ele>330</ele>
        <time>2011-01-19T09:25:33Z</time>
      </trkpt>
      <trkpt lat="43.49103" lon="6.91228">
        <ele>330.100006</ele>
        <time>2011-01-19T09:25:34Z</time>
      </trkpt>
      <trkpt lat="43.49118" lon="6.91231">
        <ele>332.100006</ele>
        <time>2011-01-19T09:25:51Z</time>
      </trkpt>
      <trkpt lat="43.49126" lon="6.91231">
        <ele>333.700012</ele>
        <time>2011-01-19T09:26:03Z</time>
      </trkpt>
      <trkpt lat="43.49135" lon="6.91235">
        <ele>335.899994</ele>
        <time>2011-01-19T09:26:15Z</time>
      </trkpt>
      <trkpt lat="43.49144" lon="6.91236">
        <ele>338.200012</ele>
        <time>2011-01-19T09:26:30Z</time>
      </trkpt>
      <trkpt lat="43.49152" lon="6.91237">
        <ele>341.799988</ele>
        <time>2011-01-19T09:26:55Z</time>
      </trkpt>
      <trkpt lat="43.49153" lon="6.91237">
        <ele>342</ele>
        <time>2011-01-19T09:26:56Z</time>
      </trkpt>
      <trkpt lat="43.4917" lon="6.91235">
        <ele>345.899994</ele>
        <time>2011-01-19T09:27:33Z</time>
      </trkpt>
      <trkpt lat="43.49179" lon="6.91237">
        <ele>348.299988</ele>
        <time>2011-01-19T09:27:54Z</time>
      </trkpt>
      <trkpt lat="43.49187" lon="6.91237">
        <ele>351.5</ele>
        <time>2011-01-19T09:28:17Z</time>
      </trkpt>
      <trkpt lat="43.49188" lon="6.91238">
        <ele>351.799988</ele>
        <time>2011-01-19T09:28:18Z</time>
      </trkpt>
      <trkpt lat="43.49205" lon="6.9124">
        <ele>359.299988</ele>
        <time>2011-01-19T09:29:23Z</time>
      </trkpt>
      <trkpt lat="43.49205" lon="6.9124">
        <ele>359.299988</ele>
        <time>2011-01-19T09:29:24Z</time>
      </trkpt>
      <trkpt lat="43.49222" lon="6.91242">
        <ele>367.600006</ele>
        <time>2011-01-19T09:30:26Z</time>
      </trkpt>
      <trkpt lat="43.49223" lon="6.91242">
        <ele>367.700012</ele>
        <time>2011-01-19T09:30:27Z</time>
      </trkpt>
      <trkpt lat="43.49239" lon="6.91237">
        <ele>376.100006</ele>
        <time>2011-01-19T09:31:23Z</time>
      </trkpt>
      <trkpt lat="43.49248" lon="6.91237">
        <ele>380.5</ele>
        <time>2011-01-19T09:31:55Z</time>
      </trkpt>
      <trkpt lat="43.49249" lon="6.91236">
        <ele>380.700012</ele>
        <time>2011-01-19T09:31:56Z</time>
      </trkpt>
      <trkpt lat="43.49265" lon="6.91233">
        <ele>387.5</ele>
        <time>2011-01-19T09:32:40Z</time>
      </trkpt>
      <trkpt lat="43.49274" lon="6.91232">
        <ele>392.799988</ele>
        <time>2011-01-19T09:33:22Z</time>
      </trkpt>
      <trkpt lat="43.49274" lon="6.91232">
        <ele>392.899994</ele>
        <time>2011-01-19T09:33:23Z</time>
      </trkpt>
      <trkpt lat="43.49291" lon="6.91231">
        <ele>401.5</ele>
        <time>2011-01-19T09:36:07Z</time>
      </trkpt>
      <trkpt lat="43.49291" lon="6.91231">
        <ele>401.700012</ele>
        <time>2011-01-19T09:36:08Z</time>
      </trkpt>
      <trkpt lat="43.49308" lon="6.9123">
        <ele>410.600006</ele>
        <time>2011-01-19T09:38:05Z</time>
      </trkpt>
      <trkpt lat="43.49308" lon="6.91231">
        <ele>410.600006</ele>
        <time>2011-01-19T09:38:06Z</time>
      </trkpt>
      <trkpt lat="43.49317" lon="6.91232">
        <ele>412.100006</ele>
        <time>2011-01-19T09:41:57Z</time>
      </trkpt>
      <trkpt lat="43.49334" lon="6.91233">
        <ele>422.799988</ele>
        <time>2011-01-19T09:42:58Z</time>
      </trkpt>
      <trkpt lat="43.49334" lon="6.91232">
        <ele>423</ele>
        <time>2011-01-19T09:42:59Z</time>
      </trkpt>
      <trkpt lat="43.49352" lon="6.91234">
        <ele>431.5</ele>
        <time>2011-01-19T09:44:21Z</time>
      </trkpt>
      <trkpt lat="43.49352" lon="6.91234">
        <ele>431.299988</ele>
        <time>2011-01-19T09:44:22Z</time>
      </trkpt>
      <trkpt lat="43.49369" lon="6.91238">
        <ele>437.5</ele>
        <time>2011-01-19T09:45:14Z</time>
      </trkpt>
      <trkpt lat="43.49378" lon="6.91238">
        <ele>440.899994</ele>
        <time>2011-01-19T09:45:34Z</time>
      </trkpt>
      <trkpt lat="43.49379" lon="6.91238">
        <ele>441.100006</ele>
        <time>2011-01-19T09:45:35Z</time>
      </trkpt>
      <trkpt lat="43.4939" lon="6.9122">
        <ele>441.299988</ele>
        <time>2011-01-19T09:55:31Z</time>
      </trkpt>
      <trkpt lat="43.4939" lon="6.91219">
        <ele>441.299988</ele>
        <time>2011-01-19T09:55:32Z</time>
      </trkpt>
      <trkpt lat="43.49393" lon="6.91197">
        <ele>437.600006</ele>
        <time>2011-01-19T09:55:51Z</time>
      </trkpt>
      <trkpt lat="43.49396" lon="6.91186">
        <ele>435.100006</ele>
        <time>2011-01-19T09:56:02Z</time>
      </trkpt>
      <trkpt lat="43.49399" lon="6.91175">
        <ele>432.200012</ele>
        <time>2011-01-19T09:56:13Z</time>
      </trkpt>
      <trkpt lat="43.49402" lon="6.91164">
        <ele>429.200012</ele>
        <time>2011-01-19T09:56:27Z</time>
      </trkpt>
      <trkpt lat="43.49404" lon="6.91152">
        <ele>426.899994</ele>
        <time>2011-01-19T09:56:38Z</time>
      </trkpt>
      <trkpt lat="43.49404" lon="6.91151">
        <ele>426.600006</ele>
        <time>2011-01-19T09:56:39Z</time>
      </trkpt>
      <trkpt lat="43.4941" lon="6.9113">
        <ele>423</ele>
        <time>2011-01-19T09:56:57Z</time>
      </trkpt>
      <trkpt lat="43.49413" lon="6.91119">
        <ele>420.799988</ele>
        <time>2011-01-19T09:57:09Z</time>
      </trkpt>
      <trkpt lat="43.49416" lon="6.91108">
        <ele>417.799988</ele>
        <time>2011-01-19T09:57:25Z</time>
      </trkpt>
      <trkpt lat="43.49417" lon="6.91096">
        <ele>416.299988</ele>
        <time>2011-01-19T09:57:48Z</time>
      </trkpt>
      <trkpt lat="43.49418" lon="6.91095">
        <ele>416.200012</ele>
        <time>2011-01-19T09:57:49Z</time>
      </trkpt>
      <trkpt lat="43.49426" lon="6.91075">
        <ele>411.799988</ele>
        <time>2011-01-19T09:58:21Z</time>
      </trkpt>
      <trkpt lat="43.4943" lon="6.91064">
        <ele>408.100006</ele>
        <time>2011-01-19T09:58:42Z</time>
      </trkpt>
      <trkpt lat="43.49435" lon="6.91056">
        <ele>405.200012</ele>
        <time>2011-01-19T09:58:59Z</time>
      </trkpt>
      <trkpt lat="43.49436" lon="6.91056">
        <ele>404.899994</ele>
        <time>2011-01-19T09:59:00Z</time>
      </trkpt>
      <trkpt lat="43.49444" lon="6.91035">
        <ele>399.700012</ele>
        <time>2011-01-19T09:59:33Z</time>
      </trkpt>
      <trkpt lat="43.49448" lon="6.91024">
        <ele>395.899994</ele>
        <time>2011-01-19T09:59:51Z</time>
      </trkpt>
      <trkpt lat="43.49453" lon="6.91015">
        <ele>392.899994</ele>
        <time>2011-01-19T10:00:07Z</time>
      </trkpt>
      <trkpt lat="43.49453" lon="6.91014">
        <ele>392.899994</ele>
        <time>2011-01-19T10:00:08Z</time>
      </trkpt>
      <trkpt lat="43.49463" lon="6.90995">
        <ele>386.399994</ele>
        <time>2011-01-19T10:00:51Z</time>
      </trkpt>
      <trkpt lat="43.49469" lon="6.90986">
        <ele>382.399994</ele>
        <time>2011-01-19T10:01:09Z</time>
      </trkpt>
      <trkpt lat="43.49469" lon="6.90985">
        <ele>382.100006</ele>
        <time>2011-01-19T10:01:10Z</time>
      </trkpt>
      <trkpt lat="43.49478" lon="6.90966">
        <ele>376.299988</ele>
        <time>2011-01-19T10:01:58Z</time>
      </trkpt>
      <trkpt lat="43.49484" lon="6.90957">
        <ele>374.399994</ele>
        <time>2011-01-19T10:02:18Z</time>
      </trkpt>
      <trkpt lat="43.49484" lon="6.90957">
        <ele>374.299988</ele>
        <time>2011-01-19T10:02:19Z</time>
      </trkpt>
      <trkpt lat="43.49497" lon="6.9094">
        <ele>369.299988</ele>
        <time>2011-01-19T10:02:46Z</time>
      </trkpt>
      <trkpt lat="43.49499" lon="6.90928">
        <ele>367.700012</ele>
        <time>2011-01-19T10:02:58Z</time>
      </trkpt>
      <trkpt lat="43.495" lon="6.90916">
        <ele>365.600006</ele>
        <time>2011-01-19T10:03:11Z</time>
      </trkpt>
      <trkpt lat="43.495" lon="6.90904">
        <ele>363.299988</ele>
        <time>2011-01-19T10:03:27Z</time>
      </trkpt>
      <trkpt lat="43.49499" lon="6.90903">
        <ele>363.100006</ele>
        <time>2011-01-19T10:03:28Z</time>
      </trkpt>
      <trkpt lat="43.49499" lon="6.9088">
        <ele>357.299988</ele>
        <time>2011-01-19T10:04:33Z</time>
      </trkpt>
      <trkpt lat="43.49499" lon="6.90879">
        <ele>357.299988</ele>
        <time>2011-01-19T10:04:34Z</time>
      </trkpt>
      <trkpt lat="43.49487" lon="6.90864">
        <ele>349.399994</ele>
        <time>2011-01-19T10:05:47Z</time>
      </trkpt>
      <trkpt lat="43.49487" lon="6.90863">
        <ele>349.200012</ele>
        <time>2011-01-19T10:05:48Z</time>
      </trkpt>
      <trkpt lat="43.49488" lon="6.9084">
        <ele>343.100006</ele>
        <time>2011-01-19T10:07:47Z</time>
      </trkpt>
      <trkpt lat="43.49487" lon="6.9084">
        <ele>343</ele>
        <time>2011-01-19T10:07:48Z</time>
      </trkpt>
      <trkpt lat="43.49489" lon="6.90817">
        <ele>335</ele>
        <time>2011-01-19T10:08:44Z</time>
      </trkpt>
      <trkpt lat="43.49489" lon="6.90805">
        <ele>331.899994</ele>
        <time>2011-01-19T10:09:04Z</time>
      </trkpt>
      <trkpt lat="43.49489" lon="6.90804">
        <ele>331.899994</ele>
        <time>2011-01-19T10:09:05Z</time>
      </trkpt>
      <trkpt lat="43.49472" lon="6.90807">
        <ele>327.600006</ele>
        <time>2011-01-19T10:09:34Z</time>
      </trkpt>
      <trkpt lat="43.49464" lon="6.90809">
        <ele>325.5</ele>
        <time>2011-01-19T10:09:45Z</time>
      </trkpt>
      <trkpt lat="43.49456" lon="6.90813">
        <ele>323.700012</ele>
        <time>2011-01-19T10:09:55Z</time>
      </trkpt>
      <trkpt lat="43.49458" lon="6.90801">
        <ele>319.5</ele>
        <time>2011-01-19T10:10:19Z</time>
      </trkpt>
      <trkpt lat="43.49458" lon="6.90801">
        <ele>319.399994</ele>
        <time>2011-01-19T10:10:20Z</time>
      </trkpt>
      <trkpt lat="43.49468" lon="6.90782">
        <ele>316.700012</ele>
        <time>2011-01-19T10:10:39Z</time>
      </trkpt>
      <trkpt lat="43.49474" lon="6.90773">
        <ele>314.899994</ele>
        <time>2011-01-19T10:10:49Z</time>
      </trkpt>
      <trkpt lat="43.49479" lon="6.90764">
        <ele>313</ele>
        <time>2011-01-19T10:11:00Z</time>
      </trkpt>
      <trkpt lat="43.49473" lon="6.90754">
        <ele>309.700012</ele>
        <time>2011-01-19T10:11:20Z</time>
      </trkpt>
      <trkpt lat="43.49472" lon="6.90755">
        <ele>309.600006</ele>
        <time>2011-01-19T10:11:21Z</time>
      </trkpt>
      <trkpt lat="43.49457" lon="6.90761">
        <ele>308.200012</ele>
        <time>2011-01-19T10:11:40Z</time>
      </trkpt>
      <trkpt lat="43.49448" lon="6.90763">
        <ele>306.799988</ele>
        <time>2011-01-19T10:11:53Z</time>
      </trkpt>
      <trkpt lat="43.49452" lon="6.90752">
        <ele>302.600006</ele>
        <time>2011-01-19T10:12:13Z</time>
      </trkpt>
      <trkpt lat="43.49457" lon="6.90743">
        <ele>300.899994</ele>
        <time>2011-01-19T10:12:23Z</time>
      </trkpt>
      <trkpt lat="43.49458" lon="6.90742">
        <ele>300.899994</ele>
        <time>2011-01-19T10:12:24Z</time>
      </trkpt>
      <trkpt lat="43.49469" lon="6.90727">
        <ele>297.700012</ele>
        <time>2011-01-19T10:12:38Z</time>
      </trkpt>
      <trkpt lat="43.49474" lon="6.90718">
        <ele>296</ele>
        <time>2011-01-19T10:12:47Z</time>
      </trkpt>
      <trkpt lat="43.49467" lon="6.90712">
        <ele>294.100006</ele>
        <time>2011-01-19T10:13:07Z</time>
      </trkpt>
      <trkpt lat="43.49459" lon="6.90717">
        <ele>294.600006</ele>
        <time>2011-01-19T10:13:15Z</time>
      </trkpt>
      <trkpt lat="43.49451" lon="6.90722">
        <ele>293.600006</ele>
        <time>2011-01-19T10:13:24Z</time>
      </trkpt>
      <trkpt lat="43.49451" lon="6.90722">
        <ele>293.200012</ele>
        <time>2011-01-19T10:13:25Z</time>
      </trkpt>
      <trkpt lat="43.49455" lon="6.907">
        <ele>284.799988</ele>
        <time>2011-01-19T10:14:08Z</time>
      </trkpt>
      <trkpt lat="43.49459" lon="6.90689">
        <ele>283.100006</ele>
        <time>2011-01-19T10:14:16Z</time>
      </trkpt>
      <trkpt lat="43.49464" lon="6.9068">
        <ele>281.700012</ele>
        <time>2011-01-19T10:14:25Z</time>
      </trkpt>
      <trkpt lat="43.49465" lon="6.90678">
        <ele>281.799988</ele>
        <time>2011-01-19T10:14:26Z</time>
      </trkpt>
      <trkpt lat="43.49472" lon="6.9066">
        <ele>278.5</ele>
        <time>2011-01-19T10:14:44Z</time>
      </trkpt>
      <trkpt lat="43.49472" lon="6.90648">
        <ele>275.600006</ele>
        <time>2011-01-19T10:14:58Z</time>
      </trkpt>
      <trkpt lat="43.49472" lon="6.90636">
        <ele>272.5</ele>
        <time>2011-01-19T10:15:13Z</time>
      </trkpt>
      <trkpt lat="43.49471" lon="6.90624">
        <ele>270.200012</ele>
        <time>2011-01-19T10:15:26Z</time>
      </trkpt>
      <trkpt lat="43.49471" lon="6.90623">
        <ele>270.100006</ele>
        <time>2011-01-19T10:15:27Z</time>
      </trkpt>
      <trkpt lat="43.4947" lon="6.90602">
        <ele>267.799988</ele>
        <time>2011-01-19T10:15:45Z</time>
      </trkpt>
      <trkpt lat="43.49469" lon="6.90591">
        <ele>266.399994</ele>
        <time>2011-01-19T10:15:54Z</time>
      </trkpt>
      <trkpt lat="43.49467" lon="6.90579">
        <ele>265.100006</ele>
        <time>2011-01-19T10:16:02Z</time>
      </trkpt>
      <trkpt lat="43.49466" lon="6.90567">
        <ele>264</ele>
        <time>2011-01-19T10:16:10Z</time>
      </trkpt>
      <trkpt lat="43.49465" lon="6.90556">
        <ele>262.5</ele>
        <time>2011-01-19T10:16:20Z</time>
      </trkpt>
      <trkpt lat="43.49466" lon="6.90544">
        <ele>261</ele>
        <time>2011-01-19T10:16:30Z</time>
      </trkpt>
      <trkpt lat="43.49466" lon="6.90543">
        <ele>260.700012</ele>
        <time>2011-01-19T10:16:31Z</time>
      </trkpt>
      <trkpt lat="43.49472" lon="6.90522">
        <ele>256.700012</ele>
        <time>2011-01-19T10:17:07Z</time>
      </trkpt>
      <trkpt lat="43.49478" lon="6.90514">
        <ele>254.600006</ele>
        <time>2011-01-19T10:17:17Z</time>
      </trkpt>
      <trkpt lat="43.49481" lon="6.90503">
        <ele>252.800003</ele>
        <time>2011-01-19T10:17:25Z</time>
      </trkpt>
      <trkpt lat="43.49486" lon="6.90493">
        <ele>250.899994</ele>
        <time>2011-01-19T10:17:35Z</time>
      </trkpt>
      <trkpt lat="43.49487" lon="6.90492">
        <ele>250.800003</ele>
        <time>2011-01-19T10:17:36Z</time>
      </trkpt>
      <trkpt lat="43.49492" lon="6.90472">
        <ele>249.699997</ele>
        <time>2011-01-19T10:17:47Z</time>
      </trkpt>
      <trkpt lat="43.49494" lon="6.90462">
        <ele>249</ele>
        <time>2011-01-19T10:17:54Z</time>
      </trkpt>
      <trkpt lat="43.49495" lon="6.90451">
        <ele>248.199997</ele>
        <time>2011-01-19T10:18:02Z</time>
      </trkpt>
      <trkpt lat="43.49498" lon="6.9044">
        <ele>247.199997</ele>
        <time>2011-01-19T10:18:09Z</time>
      </trkpt>
      <trkpt lat="43.495" lon="6.90428">
        <ele>246.600006</ele>
        <time>2011-01-19T10:18:16Z</time>
      </trkpt>
      <trkpt lat="43.495" lon="6.90415">
        <ele>246</ele>
        <time>2011-01-19T10:19:09Z</time>
      </trkpt>
      <trkpt lat="43.49501" lon="6.90413">
        <ele>245.5</ele>
        <time>2011-01-19T10:19:13Z</time>
      </trkpt>
      <trkpt lat="43.49503" lon="6.90392">
        <ele>245.199997</ele>
        <time>2011-01-19T10:19:40Z</time>
      </trkpt>
      <trkpt lat="43.49497" lon="6.90401">
        <ele>245</ele>
        <time>2011-01-19T10:22:38Z</time>
      </trkpt>
      <trkpt lat="43.49497" lon="6.90401">
        <ele>244.899994</ele>
        <time>2011-01-19T10:22:39Z</time>
      </trkpt>
      <trkpt lat="43.495" lon="6.90379">
        <ele>244.399994</ele>
        <time>2011-01-19T10:23:06Z</time>
      </trkpt>
      <trkpt lat="43.49505" lon="6.90369">
        <ele>244.600006</ele>
        <time>2011-01-19T10:23:15Z</time>
      </trkpt>
      <trkpt lat="43.4951" lon="6.90359">
        <ele>245.5</ele>
        <time>2011-01-19T10:23:25Z</time>
      </trkpt>
      <trkpt lat="43.49514" lon="6.90349">
        <ele>246.300003</ele>
        <time>2011-01-19T10:23:33Z</time>
      </trkpt>
      <trkpt lat="43.49521" lon="6.90344">
        <ele>246.5</ele>
        <time>2011-01-19T10:23:41Z</time>
      </trkpt>
      <trkpt lat="43.49522" lon="6.90343">
        <ele>246.5</ele>
        <time>2011-01-19T10:23:42Z</time>
      </trkpt>
      <trkpt lat="43.49531" lon="6.90324">
        <ele>248.699997</ele>
        <time>2011-01-19T10:23:56Z</time>
      </trkpt>
      <trkpt lat="43.49534" lon="6.90312">
        <ele>248.699997</ele>
        <time>2011-01-19T10:24:04Z</time>
      </trkpt>
      <trkpt lat="43.4954" lon="6.90303">
        <ele>251.399994</ele>
        <time>2011-01-19T10:24:15Z</time>
      </trkpt>
      <trkpt lat="43.49546" lon="6.90296">
        <ele>253</ele>
        <time>2011-01-19T10:24:34Z</time>
      </trkpt>
      <trkpt lat="43.49553" lon="6.90289">
        <ele>253.600006</ele>
        <time>2011-01-19T10:24:41Z</time>
      </trkpt>
      <trkpt lat="43.4956" lon="6.90284">
        <ele>255</ele>
        <time>2011-01-19T10:24:50Z</time>
      </trkpt>
      <trkpt lat="43.49561" lon="6.90284">
        <ele>255.5</ele>
        <time>2011-01-19T10:24:51Z</time>
      </trkpt>
      <trkpt lat="43.49577" lon="6.9028">
        <ele>258</ele>
        <time>2011-01-19T10:25:09Z</time>
      </trkpt>
      <trkpt lat="43.49585" lon="6.90283">
        <ele>259.399994</ele>
        <time>2011-01-19T10:25:17Z</time>
      </trkpt>
      <trkpt lat="43.49593" lon="6.90281">
        <ele>259.600006</ele>
        <time>2011-01-19T10:25:24Z</time>
      </trkpt>
      <trkpt lat="43.49601" lon="6.90279">
        <ele>260.200012</ele>
        <time>2011-01-19T10:25:30Z</time>
      </trkpt>
      <trkpt lat="43.49609" lon="6.90277">
        <ele>261.700012</ele>
        <time>2011-01-19T10:25:38Z</time>
      </trkpt>
      <trkpt lat="43.49617" lon="6.90275">
        <ele>263</ele>
        <time>2011-01-19T10:25:47Z</time>
      </trkpt>
      <trkpt lat="43.49626" lon="6.90272">
        <ele>264.399994</ele>
        <time>2011-01-19T10:25:56Z</time>
      </trkpt>
      <trkpt lat="43.49627" lon="6.90271">
        <ele>264.700012</ele>
        <time>2011-01-19T10:25:57Z</time>
      </trkpt>
      <trkpt lat="43.49638" lon="6.90257">
        <ele>266.200012</ele>
        <time>2011-01-19T10:26:10Z</time>
      </trkpt>
      <trkpt lat="43.49637" lon="6.90245">
        <ele>267</ele>
        <time>2011-01-19T10:26:18Z</time>
      </trkpt>
      <trkpt lat="43.49636" lon="6.90233">
        <ele>268.399994</ele>
        <time>2011-01-19T10:26:29Z</time>
      </trkpt>
      <trkpt lat="43.49634" lon="6.90222">
        <ele>268.899994</ele>
        <time>2011-01-19T10:26:38Z</time>
      </trkpt>
      <trkpt lat="43.4963" lon="6.90211">
        <ele>270.399994</ele>
        <time>2011-01-19T10:26:48Z</time>
      </trkpt>
      <trkpt lat="43.49626" lon="6.902">
        <ele>271.200012</ele>
        <time>2011-01-19T10:26:59Z</time>
      </trkpt>
      <trkpt lat="43.49625" lon="6.902">
        <ele>271.200012</ele>
        <time>2011-01-19T10:27:00Z</time>
      </trkpt>
      <trkpt lat="43.49617" lon="6.9018">
        <ele>274</ele>
        <time>2011-01-19T10:27:21Z</time>
      </trkpt>
      <trkpt lat="43.49613" lon="6.90169">
        <ele>274.399994</ele>
        <time>2011-01-19T10:27:31Z</time>
      </trkpt>
      <trkpt lat="43.49611" lon="6.90158">
        <ele>275.899994</ele>
        <time>2011-01-19T10:27:38Z</time>
      </trkpt>
      <trkpt lat="43.49609" lon="6.90147">
        <ele>276.899994</ele>
        <time>2011-01-19T10:27:45Z</time>
      </trkpt>
      <trkpt lat="43.49609" lon="6.90135">
        <ele>278.100006</ele>
        <time>2011-01-19T10:27:54Z</time>
      </trkpt>
      <trkpt lat="43.49608" lon="6.90123">
        <ele>279.600006</ele>
        <time>2011-01-19T10:28:04Z</time>
      </trkpt>
      <trkpt lat="43.49608" lon="6.90122">
        <ele>279.799988</ele>
        <time>2011-01-19T10:28:05Z</time>
      </trkpt>
      <trkpt lat="43.49609" lon="6.90099">
        <ele>281.700012</ele>
        <time>2011-01-19T10:28:26Z</time>
      </trkpt>
      <trkpt lat="43.49609" lon="6.90086">
        <ele>283.200012</ele>
        <time>2011-01-19T10:28:35Z</time>
      </trkpt>
      <trkpt lat="43.4961" lon="6.90074">
        <ele>285</ele>
        <time>2011-01-19T10:28:44Z</time>
      </trkpt>
      <trkpt lat="43.49609" lon="6.90063">
        <ele>286</ele>
        <time>2011-01-19T10:28:54Z</time>
      </trkpt>
      <trkpt lat="43.49607" lon="6.90051">
        <ele>286.600006</ele>
        <time>2011-01-19T10:29:03Z</time>
      </trkpt>
      <trkpt lat="43.49607" lon="6.90039">
        <ele>287.200012</ele>
        <time>2011-01-19T10:29:12Z</time>
      </trkpt>
      <trkpt lat="43.49607" lon="6.90037">
        <ele>287.399994</ele>
        <time>2011-01-19T10:29:13Z</time>
      </trkpt>
      <trkpt lat="43.49613" lon="6.90016">
        <ele>290.700012</ele>
        <time>2011-01-19T10:29:34Z</time>
      </trkpt>
      <trkpt lat="43.49618" lon="6.90007">
        <ele>291.399994</ele>
        <time>2011-01-19T10:29:47Z</time>
      </trkpt>
      <trkpt lat="43.49624" lon="6.89999">
        <ele>292.799988</ele>
        <time>2011-01-19T10:29:59Z</time>
      </trkpt>
      <trkpt lat="43.4963" lon="6.8999">
        <ele>292.899994</ele>
        <time>2011-01-19T10:30:08Z</time>
      </trkpt>
      <trkpt lat="43.49636" lon="6.89981">
        <ele>293.299988</ele>
        <time>2011-01-19T10:30:18Z</time>
      </trkpt>
      <trkpt lat="43.49636" lon="6.8998">
        <ele>293.299988</ele>
        <time>2011-01-19T10:30:19Z</time>
      </trkpt>
      <trkpt lat="43.49648" lon="6.89964">
        <ele>295.899994</ele>
        <time>2011-01-19T10:30:39Z</time>
      </trkpt>
      <trkpt lat="43.49656" lon="6.89958">
        <ele>297.200012</ele>
        <time>2011-01-19T10:30:48Z</time>
      </trkpt>
      <trkpt lat="43.49664" lon="6.89953">
        <ele>298</ele>
        <time>2011-01-19T10:30:58Z</time>
      </trkpt>
      <trkpt lat="43.49672" lon="6.8995">
        <ele>298.899994</ele>
        <time>2011-01-19T10:31:08Z</time>
      </trkpt>
      <trkpt lat="43.4968" lon="6.89945">
        <ele>299.600006</ele>
        <time>2011-01-19T10:31:16Z</time>
      </trkpt>
      <trkpt lat="43.49687" lon="6.89939">
        <ele>300</ele>
        <time>2011-01-19T10:31:26Z</time>
      </trkpt>
      <trkpt lat="43.49688" lon="6.89938">
        <ele>300.100006</ele>
        <time>2011-01-19T10:31:27Z</time>
      </trkpt>
      <trkpt lat="43.497" lon="6.89925">
        <ele>299.700012</ele>
        <time>2011-01-19T10:31:42Z</time>
      </trkpt>
      <trkpt lat="43.49707" lon="6.89917">
        <ele>299</ele>
        <time>2011-01-19T10:31:51Z</time>
      </trkpt>
      <trkpt lat="43.49713" lon="6.8991">
        <ele>298.700012</ele>
        <time>2011-01-19T10:31:58Z</time>
      </trkpt>
      <trkpt lat="43.49718" lon="6.89901">
        <ele>298.200012</ele>
        <time>2011-01-19T10:32:06Z</time>
      </trkpt>
      <trkpt lat="43.49723" lon="6.89892">
        <ele>298.399994</ele>
        <time>2011-01-19T10:32:14Z</time>
      </trkpt>
      <trkpt lat="43.49729" lon="6.89883">
        <ele>299</ele>
        <time>2011-01-19T10:32:22Z</time>
      </trkpt>
      <trkpt lat="43.49735" lon="6.89875">
        <ele>298.399994</ele>
        <time>2011-01-19T10:32:30Z</time>
      </trkpt>
      <trkpt lat="43.49735" lon="6.89873">
        <ele>298.399994</ele>
        <time>2011-01-19T10:32:31Z</time>
      </trkpt>
      <trkpt lat="43.49745" lon="6.89856">
        <ele>299.299988</ele>
        <time>2011-01-19T10:32:46Z</time>
      </trkpt>
      <trkpt lat="43.49751" lon="6.89847">
        <ele>300.600006</ele>
        <time>2011-01-19T10:32:56Z</time>
      </trkpt>
      <trkpt lat="43.49757" lon="6.89839">
        <ele>301.600006</ele>
        <time>2011-01-19T10:33:05Z</time>
      </trkpt>
      <trkpt lat="43.49763" lon="6.89832">
        <ele>302.899994</ele>
        <time>2011-01-19T10:33:23Z</time>
      </trkpt>
      <trkpt lat="43.4977" lon="6.89826">
        <ele>304.200012</ele>
        <time>2011-01-19T10:33:33Z</time>
      </trkpt>
      <trkpt lat="43.49771" lon="6.89825">
        <ele>304.100006</ele>
        <time>2011-01-19T10:33:34Z</time>
      </trkpt>
      <trkpt lat="43.49786" lon="6.89815">
        <ele>306.299988</ele>
        <time>2011-01-19T10:33:53Z</time>
      </trkpt>
      <trkpt lat="43.49794" lon="6.89811">
        <ele>306.600006</ele>
        <time>2011-01-19T10:34:02Z</time>
      </trkpt>
      <trkpt lat="43.49802" lon="6.89805">
        <ele>307.5</ele>
        <time>2011-01-19T10:34:11Z</time>
      </trkpt>
      <trkpt lat="43.49809" lon="6.89799">
        <ele>308.600006</ele>
        <time>2011-01-19T10:34:20Z</time>
      </trkpt>
      <trkpt lat="43.49817" lon="6.89796">
        <ele>309.700012</ele>
        <time>2011-01-19T10:34:30Z</time>
      </trkpt>
      <trkpt lat="43.49825" lon="6.89792">
        <ele>310.799988</ele>
        <time>2011-01-19T10:34:38Z</time>
      </trkpt>
      <trkpt lat="43.49826" lon="6.89791">
        <ele>310.899994</ele>
        <time>2011-01-19T10:34:39Z</time>
      </trkpt>
      <trkpt lat="43.49839" lon="6.89779">
        <ele>313.100006</ele>
        <time>2011-01-19T10:34:59Z</time>
      </trkpt>
      <trkpt lat="43.49845" lon="6.89772">
        <ele>314</ele>
        <time>2011-01-19T10:35:08Z</time>
      </trkpt>
      <trkpt lat="43.49853" lon="6.8977">
        <ele>314.600006</ele>
        <time>2011-01-19T10:35:17Z</time>
      </trkpt>
      <trkpt lat="43.49862" lon="6.8977">
        <ele>315.600006</ele>
        <time>2011-01-19T10:35:27Z</time>
      </trkpt>
      <trkpt lat="43.4987" lon="6.89771">
        <ele>316.100006</ele>
        <time>2011-01-19T10:35:36Z</time>
      </trkpt>
      <trkpt lat="43.49878" lon="6.89775">
        <ele>317.299988</ele>
        <time>2011-01-19T10:35:46Z</time>
      </trkpt>
      <trkpt lat="43.49879" lon="6.89775">
        <ele>317.5</ele>
        <time>2011-01-19T10:35:47Z</time>
      </trkpt>
      <trkpt lat="43.49894" lon="6.89784">
        <ele>320.200012</ele>
        <time>2011-01-19T10:36:35Z</time>
      </trkpt>
      <trkpt lat="43.49901" lon="6.89791">
        <ele>321.299988</ele>
        <time>2011-01-19T10:36:44Z</time>
      </trkpt>
      <trkpt lat="43.49909" lon="6.89798">
        <ele>322.700012</ele>
        <time>2011-01-19T10:36:52Z</time>
      </trkpt>
      <trkpt lat="43.4991" lon="6.89798">
        <ele>322.899994</ele>
        <time>2011-01-19T10:36:53Z</time>
      </trkpt>
      <trkpt lat="43.49923" lon="6.8981">
        <ele>324.899994</ele>
        <time>2011-01-19T10:37:08Z</time>
      </trkpt>
      <trkpt lat="43.4993" lon="6.89817">
        <ele>325.200012</ele>
        <time>2011-01-19T10:37:16Z</time>
      </trkpt>
      <trkpt lat="43.49938" lon="6.89822">
        <ele>326</ele>
        <time>2011-01-19T10:37:24Z</time>
      </trkpt>
      <trkpt lat="43.49947" lon="6.89824">
        <ele>326.799988</ele>
        <time>2011-01-19T10:37:33Z</time>
      </trkpt>
      <trkpt lat="43.49954" lon="6.89819">
        <ele>327.5</ele>
        <time>2011-01-19T10:37:41Z</time>
      </trkpt>
      <trkpt lat="43.49957" lon="6.89809">
        <ele>328.200012</ele>
        <time>2011-01-19T10:37:49Z</time>
      </trkpt>
      <trkpt lat="43.49958" lon="6.89798">
        <ele>329.200012</ele>
        <time>2011-01-19T10:37:57Z</time>
      </trkpt>
      <trkpt lat="43.49958" lon="6.89796">
        <ele>329.200012</ele>
        <time>2011-01-19T10:37:58Z</time>
      </trkpt>
      <trkpt lat="43.49958" lon="6.89774">
        <ele>330.700012</ele>
        <time>2011-01-19T10:38:14Z</time>
      </trkpt>
      <trkpt lat="43.49959" lon="6.89763">
        <ele>331.899994</ele>
        <time>2011-01-19T10:38:23Z</time>
      </trkpt>
      <trkpt lat="43.49963" lon="6.89752">
        <ele>332.700012</ele>
        <time>2011-01-19T10:38:32Z</time>
      </trkpt>
      <trkpt lat="43.49967" lon="6.89742">
        <ele>334.299988</ele>
        <time>2011-01-19T10:38:42Z</time>
      </trkpt>
      <trkpt lat="43.49971" lon="6.89731">
        <ele>335.299988</ele>
        <time>2011-01-19T10:38:52Z</time>
      </trkpt>
      <trkpt lat="43.49975" lon="6.89719">
        <ele>337</ele>
        <time>2011-01-19T10:39:02Z</time>
      </trkpt>
      <trkpt lat="43.49975" lon="6.89718">
        <ele>337.100006</ele>
        <time>2011-01-19T10:39:03Z</time>
      </trkpt>
      <trkpt lat="43.49976" lon="6.89696">
        <ele>338.700012</ele>
        <time>2011-01-19T10:39:20Z</time>
      </trkpt>
      <trkpt lat="43.49975" lon="6.89685">
        <ele>339.899994</ele>
        <time>2011-01-19T10:39:29Z</time>
      </trkpt>
      <trkpt lat="43.49976" lon="6.89673">
        <ele>340.799988</ele>
        <time>2011-01-19T10:39:40Z</time>
      </trkpt>
      <trkpt lat="43.49974" lon="6.89662">
        <ele>341.700012</ele>
        <time>2011-01-19T10:39:50Z</time>
      </trkpt>
      <trkpt lat="43.49973" lon="6.8965">
        <ele>342.899994</ele>
        <time>2011-01-19T10:40:01Z</time>
      </trkpt>
      <trkpt lat="43.49971" lon="6.89639">
        <ele>344</ele>
        <time>2011-01-19T10:40:11Z</time>
      </trkpt>
      <trkpt lat="43.49971" lon="6.89638">
        <ele>344</ele>
        <time>2011-01-19T10:40:12Z</time>
      </trkpt>
      <trkpt lat="43.49971" lon="6.89616">
        <ele>345.600006</ele>
        <time>2011-01-19T10:40:33Z</time>
      </trkpt>
      <trkpt lat="43.49971" lon="6.89603">
        <ele>345.600006</ele>
        <time>2011-01-19T10:40:45Z</time>
      </trkpt>
      <trkpt lat="43.49971" lon="6.89592">
        <ele>346.799988</ele>
        <time>2011-01-19T10:40:55Z</time>
      </trkpt>
      <trkpt lat="43.49971" lon="6.8958">
        <ele>348.100006</ele>
        <time>2011-01-19T10:41:05Z</time>
      </trkpt>
      <trkpt lat="43.49971" lon="6.89568">
        <ele>349.100006</ele>
        <time>2011-01-19T10:41:15Z</time>
      </trkpt>
      <trkpt lat="43.49972" lon="6.89567">
        <ele>349.399994</ele>
        <time>2011-01-19T10:41:16Z</time>
      </trkpt>
      <trkpt lat="43.49971" lon="6.89545">
        <ele>351.200012</ele>
        <time>2011-01-19T10:41:39Z</time>
      </trkpt>
      <trkpt lat="43.49972" lon="6.89533">
        <ele>352.100006</ele>
        <time>2011-01-19T10:41:47Z</time>
      </trkpt>
      <trkpt lat="43.49975" lon="6.89521">
        <ele>353.299988</ele>
        <time>2011-01-19T10:41:57Z</time>
      </trkpt>
      <trkpt lat="43.49975" lon="6.8951">
        <ele>354.299988</ele>
        <time>2011-01-19T10:42:44Z</time>
      </trkpt>
      <trkpt lat="43.49975" lon="6.89509">
        <ele>354.399994</ele>
        <time>2011-01-19T10:42:45Z</time>
      </trkpt>
      <trkpt lat="43.49983" lon="6.8949">
        <ele>355.799988</ele>
        <time>2011-01-19T10:42:59Z</time>
      </trkpt>
      <trkpt lat="43.49986" lon="6.89479">
        <ele>356.5</ele>
        <time>2011-01-19T10:43:06Z</time>
      </trkpt>
      <trkpt lat="43.4999" lon="6.8947">
        <ele>356.5</ele>
        <time>2011-01-19T10:43:13Z</time>
      </trkpt>
      <trkpt lat="43.49995" lon="6.8946">
        <ele>356.5</ele>
        <time>2011-01-19T10:43:20Z</time>
      </trkpt>
      <trkpt lat="43.5" lon="6.8945">
        <ele>356.899994</ele>
        <time>2011-01-19T10:43:28Z</time>
      </trkpt>
      <trkpt lat="43.50005" lon="6.89441">
        <ele>356.600006</ele>
        <time>2011-01-19T10:43:35Z</time>
      </trkpt>
      <trkpt lat="43.5001" lon="6.89431">
        <ele>357</ele>
        <time>2011-01-19T10:43:50Z</time>
      </trkpt>
      <trkpt lat="43.5001" lon="6.8943">
        <ele>357.100006</ele>
        <time>2011-01-19T10:43:51Z</time>
      </trkpt>
      <trkpt lat="43.50014" lon="6.89409">
        <ele>358.200012</ele>
        <time>2011-01-19T10:44:10Z</time>
      </trkpt>
      <trkpt lat="43.50013" lon="6.89397">
        <ele>358.399994</ele>
        <time>2011-01-19T10:44:17Z</time>
      </trkpt>
      <trkpt lat="43.50021" lon="6.89399">
        <ele>359.100006</ele>
        <time>2011-01-19T10:44:42Z</time>
      </trkpt>
      <trkpt lat="43.50028" lon="6.89406">
        <ele>358.600006</ele>
        <time>2011-01-19T10:47:55Z</time>
      </trkpt>
      <trkpt lat="43.50029" lon="6.89406">
        <ele>358.799988</ele>
        <time>2011-01-19T10:47:56Z</time>
      </trkpt>
      <trkpt lat="43.50045" lon="6.89402">
        <ele>359.700012</ele>
        <time>2011-01-19T10:48:11Z</time>
      </trkpt>
      <trkpt lat="43.50054" lon="6.89403">
        <ele>360</ele>
        <time>2011-01-19T10:48:39Z</time>
      </trkpt>
      <trkpt lat="43.50063" lon="6.89403">
        <ele>360.299988</ele>
        <time>2011-01-19T10:48:53Z</time>
      </trkpt>
      <trkpt lat="43.50072" lon="6.89402">
        <ele>361</ele>
        <time>2011-01-19T10:49:02Z</time>
      </trkpt>
      <trkpt lat="43.50073" lon="6.89403">
        <ele>361</ele>
        <time>2011-01-19T10:49:03Z</time>
      </trkpt>
      <trkpt lat="43.50088" lon="6.89402">
        <ele>362.100006</ele>
        <time>2011-01-19T10:49:17Z</time>
      </trkpt>
      <trkpt lat="43.50097" lon="6.89398">
        <ele>362.299988</ele>
        <time>2011-01-19T10:49:25Z</time>
      </trkpt>
      <trkpt lat="43.50104" lon="6.89394">
        <ele>362.899994</ele>
        <time>2011-01-19T10:49:33Z</time>
      </trkpt>
      <trkpt lat="43.50112" lon="6.89389">
        <ele>363.600006</ele>
        <time>2011-01-19T10:49:41Z</time>
      </trkpt>
      <trkpt lat="43.50119" lon="6.89383">
        <ele>363.899994</ele>
        <time>2011-01-19T10:49:48Z</time>
      </trkpt>
      <trkpt lat="43.50126" lon="6.89375">
        <ele>364.299988</ele>
        <time>2011-01-19T10:49:55Z</time>
      </trkpt>
      <trkpt lat="43.50131" lon="6.89367">
        <ele>364.5</ele>
        <time>2011-01-19T10:50:02Z</time>
      </trkpt>
      <trkpt lat="43.50137" lon="6.8936">
        <ele>364.600006</ele>
        <time>2011-01-19T10:50:09Z</time>
      </trkpt>
      <trkpt lat="43.50138" lon="6.89359">
        <ele>364.5</ele>
        <time>2011-01-19T10:50:10Z</time>
      </trkpt>
      <trkpt lat="43.5015" lon="6.89344">
        <ele>364.700012</ele>
        <time>2011-01-19T10:50:23Z</time>
      </trkpt>
      <trkpt lat="43.50156" lon="6.89336">
        <ele>364.700012</ele>
        <time>2011-01-19T10:50:31Z</time>
      </trkpt>
      <trkpt lat="43.50164" lon="6.89331">
        <ele>364.899994</ele>
        <time>2011-01-19T10:50:38Z</time>
      </trkpt>
      <trkpt lat="43.50172" lon="6.89327">
        <ele>364.799988</ele>
        <time>2011-01-19T10:50:45Z</time>
      </trkpt>
      <trkpt lat="43.5018" lon="6.89326">
        <ele>364</ele>
        <time>2011-01-19T10:50:52Z</time>
      </trkpt>
      <trkpt lat="43.50189" lon="6.89325">
        <ele>363.799988</ele>
        <time>2011-01-19T10:50:59Z</time>
      </trkpt>
      <trkpt lat="43.50196" lon="6.89326">
        <ele>363.399994</ele>
        <time>2011-01-19T10:51:05Z</time>
      </trkpt>
      <trkpt lat="43.50204" lon="6.89327">
        <ele>362.700012</ele>
        <time>2011-01-19T10:51:11Z</time>
      </trkpt>
      <trkpt lat="43.50206" lon="6.89327">
        <ele>362.5</ele>
        <time>2011-01-19T10:51:12Z</time>
      </trkpt>
      <trkpt lat="43.50219" lon="6.89335">
        <ele>361.5</ele>
        <time>2011-01-19T10:51:25Z</time>
      </trkpt>
      <trkpt lat="43.50227" lon="6.89341">
        <ele>360.600006</ele>
        <time>2011-01-19T10:51:33Z</time>
      </trkpt>
      <trkpt lat="43.50233" lon="6.89349">
        <ele>359.700012</ele>
        <time>2011-01-19T10:51:41Z</time>
      </trkpt>
      <trkpt lat="43.50239" lon="6.89358">
        <ele>359</ele>
        <time>2011-01-19T10:51:49Z</time>
      </trkpt>
      <trkpt lat="43.50246" lon="6.89365">
        <ele>358</ele>
        <time>2011-01-19T10:51:56Z</time>
      </trkpt>
      <trkpt lat="43.50253" lon="6.89371">
        <ele>357.399994</ele>
        <time>2011-01-19T10:52:04Z</time>
      </trkpt>
      <trkpt lat="43.5026" lon="6.89378">
        <ele>356.799988</ele>
        <time>2011-01-19T10:52:12Z</time>
      </trkpt>
      <trkpt lat="43.50261" lon="6.89379">
        <ele>356.600006</ele>
        <time>2011-01-19T10:52:13Z</time>
      </trkpt>
      <trkpt lat="43.50273" lon="6.89391">
        <ele>355.100006</ele>
        <time>2011-01-19T10:52:26Z</time>
      </trkpt>
      <trkpt lat="43.50281" lon="6.89398">
        <ele>353.899994</ele>
        <time>2011-01-19T10:52:34Z</time>
      </trkpt>
      <trkpt lat="43.50287" lon="6.89404">
        <ele>353.100006</ele>
        <time>2011-01-19T10:52:41Z</time>
      </trkpt>
      <trkpt lat="43.50294" lon="6.89411">
        <ele>351.899994</ele>
        <time>2011-01-19T10:52:49Z</time>
      </trkpt>
      <trkpt lat="43.50299" lon="6.89419">
        <ele>351.700012</ele>
        <time>2011-01-19T10:52:57Z</time>
      </trkpt>
      <trkpt lat="43.50304" lon="6.89429">
        <ele>350.600006</ele>
        <time>2011-01-19T10:53:05Z</time>
      </trkpt>
      <trkpt lat="43.50308" lon="6.8944">
        <ele>349.399994</ele>
        <time>2011-01-19T10:53:13Z</time>
      </trkpt>
      <trkpt lat="43.50308" lon="6.89441">
        <ele>349.399994</ele>
        <time>2011-01-19T10:53:14Z</time>
      </trkpt>
      <trkpt lat="43.50315" lon="6.8946">
        <ele>346.899994</ele>
        <time>2011-01-19T10:53:29Z</time>
      </trkpt>
      <trkpt lat="43.5032" lon="6.89469">
        <ele>346.600006</ele>
        <time>2011-01-19T10:53:37Z</time>
      </trkpt>
      <trkpt lat="43.50325" lon="6.89478">
        <ele>345.799988</ele>
        <time>2011-01-19T10:53:45Z</time>
      </trkpt>
      <trkpt lat="43.5033" lon="6.89487">
        <ele>345.399994</ele>
        <time>2011-01-19T10:53:53Z</time>
      </trkpt>
      <trkpt lat="43.50335" lon="6.89497">
        <ele>344.799988</ele>
        <time>2011-01-19T10:54:01Z</time>
      </trkpt>
      <trkpt lat="43.50341" lon="6.89505">
        <ele>343.399994</ele>
        <time>2011-01-19T10:54:08Z</time>
      </trkpt>
      <trkpt lat="43.50346" lon="6.89514">
        <ele>343</ele>
        <time>2011-01-19T10:54:15Z</time>
      </trkpt>
      <trkpt lat="43.50346" lon="6.89515">
        <ele>342.899994</ele>
        <time>2011-01-19T10:54:16Z</time>
      </trkpt>
      <trkpt lat="43.50357" lon="6.89532">
        <ele>341</ele>
        <time>2011-01-19T10:54:30Z</time>
      </trkpt>
      <trkpt lat="43.50363" lon="6.8954">
        <ele>340.299988</ele>
        <time>2011-01-19T10:54:37Z</time>
      </trkpt>
      <trkpt lat="43.5037" lon="6.89546">
        <ele>340.399994</ele>
        <time>2011-01-19T10:54:44Z</time>
      </trkpt>
      <trkpt lat="43.50377" lon="6.89553">
        <ele>340.399994</ele>
        <time>2011-01-19T10:54:51Z</time>
      </trkpt>
      <trkpt lat="43.50384" lon="6.8956">
        <ele>340.200012</ele>
        <time>2011-01-19T10:54:57Z</time>
      </trkpt>
      <trkpt lat="43.5039" lon="6.89567">
        <ele>340.399994</ele>
        <time>2011-01-19T10:55:03Z</time>
      </trkpt>
      <trkpt lat="43.50396" lon="6.89575">
        <ele>340.200012</ele>
        <time>2011-01-19T10:55:10Z</time>
      </trkpt>
      <trkpt lat="43.50402" lon="6.89582">
        <ele>340.399994</ele>
        <time>2011-01-19T10:55:17Z</time>
      </trkpt>
      <trkpt lat="43.50404" lon="6.89582">
        <ele>340.299988</ele>
        <time>2011-01-19T10:55:18Z</time>
      </trkpt>
      <trkpt lat="43.50415" lon="6.89596">
        <ele>340.700012</ele>
        <time>2011-01-19T10:55:30Z</time>
      </trkpt>
      <trkpt lat="43.5042" lon="6.89606">
        <ele>340.700012</ele>
        <time>2011-01-19T10:55:37Z</time>
      </trkpt>
      <trkpt lat="43.50423" lon="6.89617">
        <ele>340.600006</ele>
        <time>2011-01-19T10:55:44Z</time>
      </trkpt>
      <trkpt lat="43.50427" lon="6.89627">
        <ele>340.200012</ele>
        <time>2011-01-19T10:55:51Z</time>
      </trkpt>
      <trkpt lat="43.50432" lon="6.89635">
        <ele>339.200012</ele>
        <time>2011-01-19T10:55:58Z</time>
      </trkpt>
      <trkpt lat="43.50439" lon="6.89643">
        <ele>338.200012</ele>
        <time>2011-01-19T10:56:06Z</time>
      </trkpt>
      <trkpt lat="43.50445" lon="6.8965">
        <ele>337.299988</ele>
        <time>2011-01-19T10:56:13Z</time>
      </trkpt>
      <trkpt lat="43.50453" lon="6.89654">
        <ele>336.100006</ele>
        <time>2011-01-19T10:56:21Z</time>
      </trkpt>
      <trkpt lat="43.50454" lon="6.89655">
        <ele>336.100006</ele>
        <time>2011-01-19T10:56:22Z</time>
      </trkpt>
      <trkpt lat="43.50467" lon="6.89667">
        <ele>334.600006</ele>
        <time>2011-01-19T10:56:36Z</time>
      </trkpt>
      <trkpt lat="43.50473" lon="6.89676">
        <ele>333.299988</ele>
        <time>2011-01-19T10:56:44Z</time>
      </trkpt>
      <trkpt lat="43.50478" lon="6.89686">
        <ele>331.399994</ele>
        <time>2011-01-19T10:56:53Z</time>
      </trkpt>
      <trkpt lat="43.50476" lon="6.89697">
        <ele>328.799988</ele>
        <time>2011-01-19T10:57:09Z</time>
      </trkpt>
      <trkpt lat="43.50475" lon="6.89709">
        <ele>326.899994</ele>
        <time>2011-01-19T10:57:29Z</time>
      </trkpt>
      <trkpt lat="43.50475" lon="6.8971">
        <ele>326.700012</ele>
        <time>2011-01-19T10:57:30Z</time>
      </trkpt>
      <trkpt lat="43.50467" lon="6.8973">
        <ele>320.799988</ele>
        <time>2011-01-19T10:58:19Z</time>
      </trkpt>
      <trkpt lat="43.50466" lon="6.89741">
        <ele>318.299988</ele>
        <time>2011-01-19T10:58:34Z</time>
      </trkpt>
      <trkpt lat="43.50466" lon="6.89742">
        <ele>318.100006</ele>
        <time>2011-01-19T10:58:35Z</time>
      </trkpt>
      <trkpt lat="43.50465" lon="6.89765">
        <ele>313.700012</ele>
        <time>2011-01-19T10:59:03Z</time>
      </trkpt>
      <trkpt lat="43.50463" lon="6.89777">
        <ele>310.5</ele>
        <time>2011-01-19T10:59:25Z</time>
      </trkpt>
      <trkpt lat="43.50465" lon="6.89789">
        <ele>308.5</ele>
        <time>2011-01-19T10:59:38Z</time>
      </trkpt>
      <trkpt lat="43.50465" lon="6.8979">
        <ele>308.399994</ele>
        <time>2011-01-19T10:59:39Z</time>
      </trkpt>
      <trkpt lat="43.50466" lon="6.89812">
        <ele>304.899994</ele>
        <time>2011-01-19T11:00:03Z</time>
      </trkpt>
      <trkpt lat="43.50466" lon="6.89825">
        <ele>302.200012</ele>
        <time>2011-01-19T11:00:21Z</time>
      </trkpt>
      <trkpt lat="43.50466" lon="6.89836">
        <ele>300.899994</ele>
        <time>2011-01-19T11:00:33Z</time>
      </trkpt>
      <trkpt lat="43.50466" lon="6.89848">
        <ele>299.100006</ele>
        <time>2011-01-19T11:00:46Z</time>
      </trkpt>
      <trkpt lat="43.50465" lon="6.89849">
        <ele>299.200012</ele>
        <time>2011-01-19T11:00:47Z</time>
      </trkpt>
      <trkpt lat="43.50465" lon="6.89872">
        <ele>294.700012</ele>
        <time>2011-01-19T11:01:17Z</time>
      </trkpt>
      <trkpt lat="43.50465" lon="6.89883">
        <ele>293.299988</ele>
        <time>2011-01-19T11:01:34Z</time>
      </trkpt>
      <trkpt lat="43.50465" lon="6.89895">
        <ele>292.200012</ele>
        <time>2011-01-19T11:01:45Z</time>
      </trkpt>
      <trkpt lat="43.50465" lon="6.89907">
        <ele>291.299988</ele>
        <time>2011-01-19T11:01:58Z</time>
      </trkpt>
      <trkpt lat="43.50464" lon="6.89908">
        <ele>291</ele>
        <time>2011-01-19T11:01:59Z</time>
      </trkpt>
      <trkpt lat="43.50454" lon="6.89927">
        <ele>290.799988</ele>
        <time>2011-01-19T11:02:20Z</time>
      </trkpt>
      <trkpt lat="43.50451" lon="6.89939">
        <ele>290.200012</ele>
        <time>2011-01-19T11:02:29Z</time>
      </trkpt>
      <trkpt lat="43.50452" lon="6.89951">
        <ele>289.299988</ele>
        <time>2011-01-19T11:02:41Z</time>
      </trkpt>
      <trkpt lat="43.50454" lon="6.89962">
        <ele>287.200012</ele>
        <time>2011-01-19T11:02:52Z</time>
      </trkpt>
      <trkpt lat="43.5046" lon="6.89972">
        <ele>286</ele>
        <time>2011-01-19T11:03:04Z</time>
      </trkpt>
      <trkpt lat="43.5046" lon="6.89972">
        <ele>285.899994</ele>
        <time>2011-01-19T11:03:05Z</time>
      </trkpt>
      <trkpt lat="43.50471" lon="6.8999">
        <ele>279.899994</ele>
        <time>2011-01-19T11:03:41Z</time>
      </trkpt>
      <trkpt lat="43.50469" lon="6.90002">
        <ele>275.799988</ele>
        <time>2011-01-19T11:04:03Z</time>
      </trkpt>
      <trkpt lat="43.50472" lon="6.90013">
        <ele>273.700012</ele>
        <time>2011-01-19T11:04:17Z</time>
      </trkpt>
      <trkpt lat="43.50472" lon="6.90014">
        <ele>273.5</ele>
        <time>2011-01-19T11:04:18Z</time>
      </trkpt>
      <trkpt lat="43.50478" lon="6.90034">
        <ele>271.5</ele>
        <time>2011-01-19T11:04:35Z</time>
      </trkpt>
      <trkpt lat="43.50482" lon="6.90044">
        <ele>271.399994</ele>
        <time>2011-01-19T11:04:45Z</time>
      </trkpt>
      <trkpt lat="43.50487" lon="6.90055">
        <ele>270.200012</ele>
        <time>2011-01-19T11:04:58Z</time>
      </trkpt>
      <trkpt lat="43.50491" lon="6.90066">
        <ele>267.600006</ele>
        <time>2011-01-19T11:05:14Z</time>
      </trkpt>
      <trkpt lat="43.50496" lon="6.90076">
        <ele>264.299988</ele>
        <time>2011-01-19T11:05:35Z</time>
      </trkpt>
      <trkpt lat="43.50496" lon="6.90076">
        <ele>264.399994</ele>
        <time>2011-01-19T11:05:36Z</time>
      </trkpt>
      <trkpt lat="43.505" lon="6.90087">
        <ele>262.799988</ele>
        <time>2011-01-19T11:07:20Z</time>
      </trkpt>
      <trkpt lat="43.50508" lon="6.90107">
        <ele>255.199997</ele>
        <time>2011-01-19T11:07:44Z</time>
      </trkpt>
      <trkpt lat="43.50512" lon="6.90118">
        <ele>251.100006</ele>
        <time>2011-01-19T11:07:55Z</time>
      </trkpt>
      <trkpt lat="43.50518" lon="6.90126">
        <ele>247.800003</ele>
        <time>2011-01-19T11:08:04Z</time>
      </trkpt>
      <trkpt lat="43.5052" lon="6.90138">
        <ele>243.899994</ele>
        <time>2011-01-19T11:08:15Z</time>
      </trkpt>
      <trkpt lat="43.50522" lon="6.90149">
        <ele>241.300003</ele>
        <time>2011-01-19T11:08:22Z</time>
      </trkpt>
      <trkpt lat="43.50522" lon="6.90151">
        <ele>240.899994</ele>
        <time>2011-01-19T11:08:23Z</time>
      </trkpt>
      <trkpt lat="43.50528" lon="6.90171">
        <ele>239.199997</ele>
        <time>2011-01-19T11:08:35Z</time>
      </trkpt>
      <trkpt lat="43.50531" lon="6.90182">
        <ele>239.899994</ele>
        <time>2011-01-19T11:08:44Z</time>
      </trkpt>
      <trkpt lat="43.50532" lon="6.90193">
        <ele>241.199997</ele>
        <time>2011-01-19T11:08:55Z</time>
      </trkpt>
      <trkpt lat="43.50535" lon="6.90204">
        <ele>242.399994</ele>
        <time>2011-01-19T11:09:05Z</time>
      </trkpt>
      <trkpt lat="43.50539" lon="6.90215">
        <ele>243.5</ele>
        <time>2011-01-19T11:09:16Z</time>
      </trkpt>
      <trkpt lat="43.50542" lon="6.90226">
        <ele>244.5</ele>
        <time>2011-01-19T11:09:27Z</time>
      </trkpt>
      <trkpt lat="43.50543" lon="6.90227">
        <ele>244.5</ele>
        <time>2011-01-19T11:09:28Z</time>
      </trkpt>
      <trkpt lat="43.50548" lon="6.90248">
        <ele>245.699997</ele>
        <time>2011-01-19T11:09:46Z</time>
      </trkpt>
      <trkpt lat="43.5055" lon="6.90259">
        <ele>245.800003</ele>
        <time>2011-01-19T11:09:59Z</time>
      </trkpt>
      <trkpt lat="43.50554" lon="6.90269">
        <ele>247.100006</ele>
        <time>2011-01-19T11:10:09Z</time>
      </trkpt>
      <trkpt lat="43.50557" lon="6.9028">
        <ele>249.300003</ele>
        <time>2011-01-19T11:10:22Z</time>
      </trkpt>
      <trkpt lat="43.50559" lon="6.90291">
        <ele>250.899994</ele>
        <time>2011-01-19T11:10:36Z</time>
      </trkpt>
      <trkpt lat="43.50559" lon="6.90292">
        <ele>251</ele>
        <time>2011-01-19T11:10:37Z</time>
      </trkpt>
      <trkpt lat="43.50566" lon="6.90313">
        <ele>256.899994</ele>
        <time>2011-01-19T11:11:16Z</time>
      </trkpt>
      <trkpt lat="43.50569" lon="6.90325">
        <ele>260.100006</ele>
        <time>2011-01-19T11:11:46Z</time>
      </trkpt>
      <trkpt lat="43.50568" lon="6.90325">
        <ele>260.100006</ele>
        <time>2011-01-19T11:11:47Z</time>
      </trkpt>
      <trkpt lat="43.50572" lon="6.90349">
        <ele>266.5</ele>
        <time>2011-01-19T11:12:39Z</time>
      </trkpt>
      <trkpt lat="43.50578" lon="6.90359">
        <ele>269</ele>
        <time>2011-01-19T11:13:09Z</time>
      </trkpt>
      <trkpt lat="43.50578" lon="6.90359">
        <ele>269.200012</ele>
        <time>2011-01-19T11:13:10Z</time>
      </trkpt>
      <trkpt lat="43.50585" lon="6.90378">
        <ele>272.600006</ele>
        <time>2011-01-19T11:14:26Z</time>
      </trkpt>
      <trkpt lat="43.50585" lon="6.90378">
        <ele>272.899994</ele>
        <time>2011-01-19T11:14:27Z</time>
      </trkpt>
      <trkpt lat="43.50583" lon="6.90401">
        <ele>277.100006</ele>
        <time>2011-01-19T11:15:34Z</time>
      </trkpt>
      <trkpt lat="43.50583" lon="6.90401">
        <ele>277.299988</ele>
        <time>2011-01-19T11:15:35Z</time>
      </trkpt>
      <trkpt lat="43.50573" lon="6.9042">
        <ele>280.600006</ele>
        <time>2011-01-19T11:16:40Z</time>
      </trkpt>
      <trkpt lat="43.50573" lon="6.90421">
        <ele>280.700012</ele>
        <time>2011-01-19T11:16:41Z</time>
      </trkpt>
      <trkpt lat="43.50567" lon="6.90442">
        <ele>281.799988</ele>
        <time>2011-01-19T11:17:14Z</time>
      </trkpt>
      <trkpt lat="43.50564" lon="6.90453">
        <ele>282.299988</ele>
        <time>2011-01-19T11:17:33Z</time>
      </trkpt>
      <trkpt lat="43.50568" lon="6.90444">
        <ele>281.700012</ele>
        <time>2011-01-19T11:19:19Z</time>
      </trkpt>
      <trkpt lat="43.50568" lon="6.90442">
        <ele>281.799988</ele>
        <time>2011-01-19T11:19:20Z</time>
      </trkpt>
      <trkpt lat="43.50561" lon="6.90423">
        <ele>286.799988</ele>
        <time>2011-01-19T11:20:39Z</time>
      </trkpt>
      <trkpt lat="43.5056" lon="6.90422">
        <ele>286.700012</ele>
        <time>2011-01-19T11:20:40Z</time>
      </trkpt>
      <trkpt lat="43.5056" lon="6.90434">
        <ele>284.399994</ele>
        <time>2011-01-19T11:21:42Z</time>
      </trkpt>
      <trkpt lat="43.50561" lon="6.90434">
        <ele>284.200012</ele>
        <time>2011-01-19T11:21:43Z</time>
      </trkpt>
      <trkpt lat="43.50564" lon="6.90452">
        <ele>282.200012</ele>
        <time>2011-01-19T11:23:15Z</time>
      </trkpt>
      <trkpt lat="43.50564" lon="6.90452">
        <ele>282.299988</ele>
        <time>2011-01-19T11:23:16Z</time>
      </trkpt>
      <trkpt lat="43.50563" lon="6.90474">
        <ele>284.399994</ele>
        <time>2011-01-19T11:24:05Z</time>
      </trkpt>
      <trkpt lat="43.50567" lon="6.90484">
        <ele>282.899994</ele>
        <time>2011-01-19T11:24:26Z</time>
      </trkpt>
      <trkpt lat="43.50568" lon="6.90485">
        <ele>282.5</ele>
        <time>2011-01-19T11:24:27Z</time>
      </trkpt>
      <trkpt lat="43.50579" lon="6.90502">
        <ele>280.200012</ele>
        <time>2011-01-19T11:25:11Z</time>
      </trkpt>
      <trkpt lat="43.50577" lon="6.90514">
        <ele>281.100006</ele>
        <time>2011-01-19T11:25:48Z</time>
      </trkpt>
      <trkpt lat="43.50577" lon="6.90515">
        <ele>281.200012</ele>
        <time>2011-01-19T11:25:49Z</time>
      </trkpt>
      <trkpt lat="43.50577" lon="6.90539">
        <ele>281.700012</ele>
        <time>2011-01-19T11:31:05Z</time>
      </trkpt>
      <trkpt lat="43.50577" lon="6.90539">
        <ele>281.799988</ele>
        <time>2011-01-19T11:31:06Z</time>
      </trkpt>
      <trkpt lat="43.50576" lon="6.90526">
        <ele>282.200012</ele>
        <time>2011-01-19T11:32:23Z</time>
      </trkpt>
      <trkpt lat="43.50584" lon="6.90508">
        <ele>281.200012</ele>
        <time>2011-01-19T11:33:03Z</time>
      </trkpt>
      <trkpt lat="43.50581" lon="6.90497">
        <ele>281</ele>
        <time>2011-01-19T11:33:16Z</time>
      </trkpt>
      <trkpt lat="43.50587" lon="6.90489">
        <ele>281.100006</ele>
        <time>2011-01-19T11:34:22Z</time>
      </trkpt>
      <trkpt lat="43.50588" lon="6.90488">
        <ele>281.100006</ele>
        <time>2011-01-19T11:34:23Z</time>
      </trkpt>
      <trkpt lat="43.50582" lon="6.9051">
        <ele>281.700012</ele>
        <time>2011-01-19T11:34:48Z</time>
      </trkpt>
      <trkpt lat="43.50578" lon="6.90521">
        <ele>282.399994</ele>
        <time>2011-01-19T11:35:02Z</time>
      </trkpt>
      <trkpt lat="43.50576" lon="6.90533">
        <ele>282</ele>
        <time>2011-01-19T11:35:15Z</time>
      </trkpt>
      <trkpt lat="43.50571" lon="6.90543">
        <ele>281.899994</ele>
        <time>2011-01-19T11:35:37Z</time>
      </trkpt>
      <trkpt lat="43.50571" lon="6.90543">
        <ele>282</ele>
        <time>2011-01-19T11:35:38Z</time>
      </trkpt>
      <trkpt lat="43.50577" lon="6.90533">
        <ele>281.799988</ele>
        <time>2011-01-19T11:37:43Z</time>
      </trkpt>
      <trkpt lat="43.50578" lon="6.90521">
        <ele>283.5</ele>
        <time>2011-01-19T11:40:51Z</time>
      </trkpt>
      <trkpt lat="43.50578" lon="6.90534">
        <ele>285.299988</ele>
        <time>2011-01-19T11:56:05Z</time>
      </trkpt>
      <trkpt lat="43.50585" lon="6.90526">
        <ele>286.399994</ele>
        <time>2011-01-19T12:03:43Z</time>
      </trkpt>
      <trkpt lat="43.50577" lon="6.90521">
        <ele>285.799988</ele>
        <time>2011-01-19T12:07:24Z</time>
      </trkpt>
      <trkpt lat="43.50575" lon="6.90534">
        <ele>286.5</ele>
        <time>2011-01-19T12:11:38Z</time>
      </trkpt>
      <trkpt lat="43.50573" lon="6.90546">
        <ele>286.799988</ele>
        <time>2011-01-19T12:15:40Z</time>
      </trkpt>
      <trkpt lat="43.50568" lon="6.90566">
        <ele>286.600006</ele>
        <time>2011-01-19T12:16:33Z</time>
      </trkpt>
      <trkpt lat="43.50566" lon="6.90577">
        <ele>286.799988</ele>
        <time>2011-01-19T12:16:39Z</time>
      </trkpt>
      <trkpt lat="43.50566" lon="6.90565">
        <ele>287.200012</ele>
        <time>2011-01-19T12:17:07Z</time>
      </trkpt>
      <trkpt lat="43.50567" lon="6.90564">
        <ele>287.200012</ele>
        <time>2011-01-19T12:17:08Z</time>
      </trkpt>
      <trkpt lat="43.50568" lon="6.90544">
        <ele>286.899994</ele>
        <time>2011-01-19T12:18:43Z</time>
      </trkpt>
      <trkpt lat="43.50569" lon="6.90542">
        <ele>286.899994</ele>
        <time>2011-01-19T12:18:44Z</time>
      </trkpt>
      <trkpt lat="43.50581" lon="6.90524">
        <ele>287.700012</ele>
        <time>2011-01-19T12:22:26Z</time>
      </trkpt>
      <trkpt lat="43.50582" lon="6.90523">
        <ele>288.100006</ele>
        <time>2011-01-19T12:22:27Z</time>
      </trkpt>
      <trkpt lat="43.50582" lon="6.90501">
        <ele>286.399994</ele>
        <time>2011-01-19T12:23:03Z</time>
      </trkpt>
      <trkpt lat="43.50581" lon="6.90489">
        <ele>286.600006</ele>
        <time>2011-01-19T12:23:14Z</time>
      </trkpt>
      <trkpt lat="43.50584" lon="6.90478">
        <ele>285.899994</ele>
        <time>2011-01-19T12:23:32Z</time>
      </trkpt>
      <trkpt lat="43.50585" lon="6.90476">
        <ele>285.799988</ele>
        <time>2011-01-19T12:23:33Z</time>
      </trkpt>
      <trkpt lat="43.50581" lon="6.90461">
        <ele>284.200012</ele>
        <time>2011-01-19T12:24:08Z</time>
      </trkpt>
      <trkpt lat="43.50574" lon="6.90454">
        <ele>286.700012</ele>
        <time>2011-01-19T12:25:03Z</time>
      </trkpt>
      <trkpt lat="43.50574" lon="6.90453">
        <ele>286.899994</ele>
        <time>2011-01-19T12:25:04Z</time>
      </trkpt>
      <trkpt lat="43.50576" lon="6.90429">
        <ele>287.5</ele>
        <time>2011-01-19T12:25:33Z</time>
      </trkpt>
      <trkpt lat="43.50579" lon="6.90418">
        <ele>288</ele>
        <time>2011-01-19T12:25:46Z</time>
      </trkpt>
      <trkpt lat="43.50581" lon="6.90407">
        <ele>286.5</ele>
        <time>2011-01-19T12:26:25Z</time>
      </trkpt>
      <trkpt lat="43.50581" lon="6.90406">
        <ele>286.399994</ele>
        <time>2011-01-19T12:26:26Z</time>
      </trkpt>
      <trkpt lat="43.5059" lon="6.90386">
        <ele>280.299988</ele>
        <time>2011-01-19T12:27:05Z</time>
      </trkpt>
      <trkpt lat="43.50586" lon="6.90375">
        <ele>279.200012</ele>
        <time>2011-01-19T12:27:15Z</time>
      </trkpt>
      <trkpt lat="43.50585" lon="6.90363">
        <ele>277.5</ele>
        <time>2011-01-19T12:27:37Z</time>
      </trkpt>
      <trkpt lat="43.50584" lon="6.90363">
        <ele>277.5</ele>
        <time>2011-01-19T12:27:38Z</time>
      </trkpt>
      <trkpt lat="43.50575" lon="6.90345">
        <ele>272.799988</ele>
        <time>2011-01-19T12:28:08Z</time>
      </trkpt>
      <trkpt lat="43.50573" lon="6.90333">
        <ele>270.799988</ele>
        <time>2011-01-19T12:28:15Z</time>
      </trkpt>
      <trkpt lat="43.50573" lon="6.90321">
        <ele>267.799988</ele>
        <time>2011-01-19T12:28:27Z</time>
      </trkpt>
      <trkpt lat="43.50574" lon="6.90309">
        <ele>265.5</ele>
        <time>2011-01-19T12:28:48Z</time>
      </trkpt>
      <trkpt lat="43.50574" lon="6.90307">
        <ele>265.299988</ele>
        <time>2011-01-19T12:28:49Z</time>
      </trkpt>
      <trkpt lat="43.50566" lon="6.90289">
        <ele>260.399994</ele>
        <time>2011-01-19T12:29:07Z</time>
      </trkpt>
      <trkpt lat="43.50562" lon="6.90278">
        <ele>258.700012</ele>
        <time>2011-01-19T12:29:18Z</time>
      </trkpt>
      <trkpt lat="43.5056" lon="6.90267">
        <ele>256.899994</ele>
        <time>2011-01-19T12:29:28Z</time>
      </trkpt>
      <trkpt lat="43.50555" lon="6.90257">
        <ele>256</ele>
        <time>2011-01-19T12:29:38Z</time>
      </trkpt>
      <trkpt lat="43.50554" lon="6.90246">
        <ele>255.699997</ele>
        <time>2011-01-19T12:29:48Z</time>
      </trkpt>
      <trkpt lat="43.50551" lon="6.90236">
        <ele>255.199997</ele>
        <time>2011-01-19T12:29:57Z</time>
      </trkpt>
      <trkpt lat="43.5055" lon="6.90235">
        <ele>255.199997</ele>
        <time>2011-01-19T12:29:58Z</time>
      </trkpt>
      <trkpt lat="43.50544" lon="6.90214">
        <ele>253.300003</ele>
        <time>2011-01-19T12:30:15Z</time>
      </trkpt>
      <trkpt lat="43.50541" lon="6.90203">
        <ele>252.199997</ele>
        <time>2011-01-19T12:30:25Z</time>
      </trkpt>
      <trkpt lat="43.50539" lon="6.90191">
        <ele>250</ele>
        <time>2011-01-19T12:30:39Z</time>
      </trkpt>
      <trkpt lat="43.50532" lon="6.90185">
        <ele>249</ele>
        <time>2011-01-19T12:30:50Z</time>
      </trkpt>
      <trkpt lat="43.50523" lon="6.90188">
        <ele>246.800003</ele>
        <time>2011-01-19T12:33:51Z</time>
      </trkpt>
      <trkpt lat="43.50523" lon="6.90189">
        <ele>246.899994</ele>
        <time>2011-01-19T12:33:52Z</time>
      </trkpt>
      <trkpt lat="43.50514" lon="6.90191">
        <ele>243.199997</ele>
        <time>2011-01-19T12:34:17Z</time>
      </trkpt>
      <trkpt lat="43.50508" lon="6.90183">
        <ele>241.300003</ele>
        <time>2011-01-19T12:34:27Z</time>
      </trkpt>
      <trkpt lat="43.505" lon="6.90179">
        <ele>240.100006</ele>
        <time>2011-01-19T12:34:35Z</time>
      </trkpt>
      <trkpt lat="43.50491" lon="6.90178">
        <ele>239</ele>
        <time>2011-01-19T12:34:43Z</time>
      </trkpt>
      <trkpt lat="43.50483" lon="6.90177">
        <ele>238.100006</ele>
        <time>2011-01-19T12:34:51Z</time>
      </trkpt>
      <trkpt lat="43.50482" lon="6.90177">
        <ele>237.899994</ele>
        <time>2011-01-19T12:34:52Z</time>
      </trkpt>
      <trkpt lat="43.50466" lon="6.90178">
        <ele>235.300003</ele>
        <time>2011-01-19T12:35:06Z</time>
      </trkpt>
      <trkpt lat="43.50458" lon="6.90173">
        <ele>233.600006</ele>
        <time>2011-01-19T12:35:17Z</time>
      </trkpt>
      <trkpt lat="43.50452" lon="6.90167">
        <ele>233.100006</ele>
        <time>2011-01-19T12:35:23Z</time>
      </trkpt>
      <trkpt lat="43.50444" lon="6.90161">
        <ele>231.5</ele>
        <time>2011-01-19T12:35:31Z</time>
      </trkpt>
      <trkpt lat="43.50439" lon="6.90151">
        <ele>231.100006</ele>
        <time>2011-01-19T12:35:39Z</time>
      </trkpt>
      <trkpt lat="43.50434" lon="6.90143">
        <ele>230</ele>
        <time>2011-01-19T12:35:47Z</time>
      </trkpt>
      <trkpt lat="43.50429" lon="6.90132">
        <ele>229.699997</ele>
        <time>2011-01-19T12:35:56Z</time>
      </trkpt>
      <trkpt lat="43.50428" lon="6.90132">
        <ele>229.800003</ele>
        <time>2011-01-19T12:35:57Z</time>
      </trkpt>
      <trkpt lat="43.50419" lon="6.90113">
        <ele>228.800003</ele>
        <time>2011-01-19T12:36:13Z</time>
      </trkpt>
      <trkpt lat="43.50415" lon="6.90103">
        <ele>228.5</ele>
        <time>2011-01-19T12:36:21Z</time>
      </trkpt>
      <trkpt lat="43.50412" lon="6.90092">
        <ele>228.600006</ele>
        <time>2011-01-19T12:36:28Z</time>
      </trkpt>
      <trkpt lat="43.50408" lon="6.90081">
        <ele>228.100006</ele>
        <time>2011-01-19T12:36:36Z</time>
      </trkpt>
      <trkpt lat="43.50405" lon="6.9007">
        <ele>228.199997</ele>
        <time>2011-01-19T12:36:44Z</time>
      </trkpt>
      <trkpt lat="43.50401" lon="6.9006">
        <ele>227.800003</ele>
        <time>2011-01-19T12:36:53Z</time>
      </trkpt>
      <trkpt lat="43.504" lon="6.90049">
        <ele>228.199997</ele>
        <time>2011-01-19T12:37:00Z</time>
      </trkpt>
      <trkpt lat="43.50399" lon="6.90048">
        <ele>228.399994</ele>
        <time>2011-01-19T12:37:01Z</time>
      </trkpt>
      <trkpt lat="43.50392" lon="6.90029">
        <ele>227.600006</ele>
        <time>2011-01-19T12:37:18Z</time>
      </trkpt>
      <trkpt lat="43.50387" lon="6.90019">
        <ele>227.699997</ele>
        <time>2011-01-19T12:37:26Z</time>
      </trkpt>
      <trkpt lat="43.5038" lon="6.90012">
        <ele>227</ele>
        <time>2011-01-19T12:37:33Z</time>
      </trkpt>
      <trkpt lat="43.50371" lon="6.9001">
        <ele>226.699997</ele>
        <time>2011-01-19T12:37:40Z</time>
      </trkpt>
      <trkpt lat="43.50363" lon="6.90006">
        <ele>225.899994</ele>
        <time>2011-01-19T12:37:47Z</time>
      </trkpt>
      <trkpt lat="43.50355" lon="6.90001">
        <ele>224.800003</ele>
        <time>2011-01-19T12:37:54Z</time>
      </trkpt>
      <trkpt lat="43.50346" lon="6.89999">
        <ele>223.600006</ele>
        <time>2011-01-19T12:38:01Z</time>
      </trkpt>
      <trkpt lat="43.50345" lon="6.89999">
        <ele>223.300003</ele>
        <time>2011-01-19T12:38:02Z</time>
      </trkpt>
      <trkpt lat="43.50332" lon="6.89986">
        <ele>223.399994</ele>
        <time>2011-01-19T12:38:18Z</time>
      </trkpt>
      <trkpt lat="43.50325" lon="6.89978">
        <ele>221.899994</ele>
        <time>2011-01-19T12:38:27Z</time>
      </trkpt>
      <trkpt lat="43.5032" lon="6.89969">
        <ele>221.899994</ele>
        <time>2011-01-19T12:38:36Z</time>
      </trkpt>
      <trkpt lat="43.50314" lon="6.8996">
        <ele>220.800003</ele>
        <time>2011-01-19T12:38:45Z</time>
      </trkpt>
      <trkpt lat="43.50306" lon="6.89962">
        <ele>218.899994</ele>
        <time>2011-01-19T12:39:00Z</time>
      </trkpt>
      <trkpt lat="43.50305" lon="6.89974">
        <ele>218.100006</ele>
        <time>2011-01-19T12:39:14Z</time>
      </trkpt>
      <trkpt lat="43.50305" lon="6.89975">
        <ele>218</ele>
        <time>2011-01-19T12:39:15Z</time>
      </trkpt>
      <trkpt lat="43.50313" lon="6.89991">
        <ele>217.300003</ele>
        <time>2011-01-19T12:39:41Z</time>
      </trkpt>
      <trkpt lat="43.5032" lon="6.89999">
        <ele>217</ele>
        <time>2011-01-19T12:39:49Z</time>
      </trkpt>
      <trkpt lat="43.50325" lon="6.90008">
        <ele>215.399994</ele>
        <time>2011-01-19T12:40:00Z</time>
      </trkpt>
      <trkpt lat="43.50321" lon="6.90019">
        <ele>212.899994</ele>
        <time>2011-01-19T12:40:11Z</time>
      </trkpt>
      <trkpt lat="43.5032" lon="6.90031">
        <ele>212</ele>
        <time>2011-01-19T12:40:24Z</time>
      </trkpt>
      <trkpt lat="43.5032" lon="6.90032">
        <ele>212.100006</ele>
        <time>2011-01-19T12:40:25Z</time>
      </trkpt>
      <trkpt lat="43.50323" lon="6.90054">
        <ele>209.699997</ele>
        <time>2011-01-19T12:40:40Z</time>
      </trkpt>
      <trkpt lat="43.50326" lon="6.90064">
        <ele>208.899994</ele>
        <time>2011-01-19T12:40:47Z</time>
      </trkpt>
      <trkpt lat="43.50326" lon="6.90075">
        <ele>208.300003</ele>
        <time>2011-01-19T12:40:54Z</time>
      </trkpt>
      <trkpt lat="43.50325" lon="6.90086">
        <ele>207.699997</ele>
        <time>2011-01-19T12:41:04Z</time>
      </trkpt>
      <trkpt lat="43.50325" lon="6.90098">
        <ele>207.399994</ele>
        <time>2011-01-19T12:41:13Z</time>
      </trkpt>
      <trkpt lat="43.50324" lon="6.9011">
        <ele>205.399994</ele>
        <time>2011-01-19T12:41:24Z</time>
      </trkpt>
      <trkpt lat="43.50321" lon="6.9012">
        <ele>202.5</ele>
        <time>2011-01-19T12:41:35Z</time>
      </trkpt>
      <trkpt lat="43.50321" lon="6.90122">
        <ele>202.5</ele>
        <time>2011-01-19T12:41:36Z</time>
      </trkpt>
      <trkpt lat="43.50321" lon="6.90144">
        <ele>201</ele>
        <time>2011-01-19T12:41:53Z</time>
      </trkpt>
      <trkpt lat="43.50322" lon="6.90156">
        <ele>199.600006</ele>
        <time>2011-01-19T12:42:01Z</time>
      </trkpt>
      <trkpt lat="43.50324" lon="6.90168">
        <ele>199.5</ele>
        <time>2011-01-19T12:42:19Z</time>
      </trkpt>
      <trkpt lat="43.50328" lon="6.90179">
        <ele>199.100006</ele>
        <time>2011-01-19T12:42:35Z</time>
      </trkpt>
      <trkpt lat="43.5033" lon="6.90189">
        <ele>197.699997</ele>
        <time>2011-01-19T12:42:44Z</time>
      </trkpt>
      <trkpt lat="43.50331" lon="6.90191">
        <ele>197.5</ele>
        <time>2011-01-19T12:42:45Z</time>
      </trkpt>
      <trkpt lat="43.50336" lon="6.90211">
        <ele>194.199997</ele>
        <time>2011-01-19T12:43:06Z</time>
      </trkpt>
      <trkpt lat="43.50339" lon="6.90222">
        <ele>192.600006</ele>
        <time>2011-01-19T12:43:21Z</time>
      </trkpt>
      <trkpt lat="43.50336" lon="6.90234">
        <ele>191.5</ele>
        <time>2011-01-19T12:43:32Z</time>
      </trkpt>
      <trkpt lat="43.50337" lon="6.90246">
        <ele>190.100006</ele>
        <time>2011-01-19T12:43:55Z</time>
      </trkpt>
      <trkpt lat="43.50338" lon="6.90247">
        <ele>189.800003</ele>
        <time>2011-01-19T12:43:56Z</time>
      </trkpt>
      <trkpt lat="43.50346" lon="6.90265">
        <ele>188</ele>
        <time>2011-01-19T12:44:08Z</time>
      </trkpt>
      <trkpt lat="43.5035" lon="6.90275">
        <ele>187.800003</ele>
        <time>2011-01-19T12:44:14Z</time>
      </trkpt>
      <trkpt lat="43.50353" lon="6.90285">
        <ele>187.100006</ele>
        <time>2011-01-19T12:44:20Z</time>
      </trkpt>
      <trkpt lat="43.50353" lon="6.90297">
        <ele>185.300003</ele>
        <time>2011-01-19T12:44:27Z</time>
      </trkpt>
      <trkpt lat="43.5035" lon="6.90309">
        <ele>183.699997</ele>
        <time>2011-01-19T12:44:37Z</time>
      </trkpt>
      <trkpt lat="43.50348" lon="6.90319">
        <ele>181.399994</ele>
        <time>2011-01-19T12:44:45Z</time>
      </trkpt>
      <trkpt lat="43.50356" lon="6.90317">
        <ele>179.399994</ele>
        <time>2011-01-19T12:45:01Z</time>
      </trkpt>
      <trkpt lat="43.50358" lon="6.90316">
        <ele>179.300003</ele>
        <time>2011-01-19T12:45:02Z</time>
      </trkpt>
      <trkpt lat="43.5037" lon="6.90304">
        <ele>177.100006</ele>
        <time>2011-01-19T12:45:16Z</time>
      </trkpt>
      <trkpt lat="43.50379" lon="6.90304">
        <ele>175</ele>
        <time>2011-01-19T12:45:25Z</time>
      </trkpt>
      <trkpt lat="43.50383" lon="6.90313">
        <ele>174</ele>
        <time>2011-01-19T12:45:33Z</time>
      </trkpt>
      <trkpt lat="43.50384" lon="6.90326">
        <ele>172.699997</ele>
        <time>2011-01-19T12:45:42Z</time>
      </trkpt>
      <trkpt lat="43.50381" lon="6.90336">
        <ele>170.399994</ele>
        <time>2011-01-19T12:45:52Z</time>
      </trkpt>
      <trkpt lat="43.5038" lon="6.90348">
        <ele>168.699997</ele>
        <time>2011-01-19T12:46:00Z</time>
      </trkpt>
      <trkpt lat="43.50378" lon="6.90358">
        <ele>167</ele>
        <time>2011-01-19T12:46:07Z</time>
      </trkpt>
      <trkpt lat="43.50378" lon="6.9036">
        <ele>166.699997</ele>
        <time>2011-01-19T12:46:08Z</time>
      </trkpt>
      <trkpt lat="43.5037" lon="6.90378">
        <ele>163.600006</ele>
        <time>2011-01-19T12:46:24Z</time>
      </trkpt>
      <trkpt lat="43.50367" lon="6.90389">
        <ele>161.899994</ele>
        <time>2011-01-19T12:46:33Z</time>
      </trkpt>
      <trkpt lat="43.50364" lon="6.904">
        <ele>158.800003</ele>
        <time>2011-01-19T12:46:44Z</time>
      </trkpt>
      <trkpt lat="43.50359" lon="6.9041">
        <ele>157.399994</ele>
        <time>2011-01-19T12:46:53Z</time>
      </trkpt>
      <trkpt lat="43.50354" lon="6.90419">
        <ele>156.199997</ele>
        <time>2011-01-19T12:47:09Z</time>
      </trkpt>
      <trkpt lat="43.50353" lon="6.9042">
        <ele>156.399994</ele>
        <time>2011-01-19T12:47:10Z</time>
      </trkpt>
      <trkpt lat="43.50342" lon="6.90435">
        <ele>156.800003</ele>
        <time>2011-01-19T12:47:26Z</time>
      </trkpt>
      <trkpt lat="43.50338" lon="6.90445">
        <ele>156.199997</ele>
        <time>2011-01-19T12:47:33Z</time>
      </trkpt>
      <trkpt lat="43.50334" lon="6.90454">
        <ele>156</ele>
        <time>2011-01-19T12:47:41Z</time>
      </trkpt>
      <trkpt lat="43.50331" lon="6.90466">
        <ele>155.300003</ele>
        <time>2011-01-19T12:47:47Z</time>
      </trkpt>
      <trkpt lat="43.50329" lon="6.90476">
        <ele>154.600006</ele>
        <time>2011-01-19T12:47:52Z</time>
      </trkpt>
      <trkpt lat="43.50328" lon="6.90488">
        <ele>153.899994</ele>
        <time>2011-01-19T12:47:59Z</time>
      </trkpt>
      <trkpt lat="43.50327" lon="6.905">
        <ele>153.600006</ele>
        <time>2011-01-19T12:48:05Z</time>
      </trkpt>
      <trkpt lat="43.50326" lon="6.90511">
        <ele>153.199997</ele>
        <time>2011-01-19T12:48:13Z</time>
      </trkpt>
      <trkpt lat="43.50325" lon="6.90513">
        <ele>152.899994</ele>
        <time>2011-01-19T12:48:14Z</time>
      </trkpt>
      <trkpt lat="43.50322" lon="6.90534">
        <ele>152.5</ele>
        <time>2011-01-19T12:48:26Z</time>
      </trkpt>
      <trkpt lat="43.5032" lon="6.90546">
        <ele>152.699997</ele>
        <time>2011-01-19T12:48:33Z</time>
      </trkpt>
      <trkpt lat="43.50319" lon="6.90557">
        <ele>153</ele>
        <time>2011-01-19T12:48:39Z</time>
      </trkpt>
      <trkpt lat="43.50318" lon="6.90568">
        <ele>153.800003</ele>
        <time>2011-01-19T12:48:46Z</time>
      </trkpt>
      <trkpt lat="43.50316" lon="6.9058">
        <ele>154.399994</ele>
        <time>2011-01-19T12:48:53Z</time>
      </trkpt>
      <trkpt lat="43.50315" lon="6.90591">
        <ele>155.100006</ele>
        <time>2011-01-19T12:48:59Z</time>
      </trkpt>
      <trkpt lat="43.50313" lon="6.90602">
        <ele>156</ele>
        <time>2011-01-19T12:49:07Z</time>
      </trkpt>
      <trkpt lat="43.50317" lon="6.90613">
        <ele>156.899994</ele>
        <time>2011-01-19T12:49:17Z</time>
      </trkpt>
      <trkpt lat="43.50317" lon="6.90615">
        <ele>157</ele>
        <time>2011-01-19T12:49:18Z</time>
      </trkpt>
      <trkpt lat="43.50324" lon="6.90634">
        <ele>158.5</ele>
        <time>2011-01-19T12:49:33Z</time>
      </trkpt>
      <trkpt lat="43.50326" lon="6.90645">
        <ele>159.100006</ele>
        <time>2011-01-19T12:49:42Z</time>
      </trkpt>
      <trkpt lat="43.50327" lon="6.90658">
        <ele>160.199997</ele>
        <time>2011-01-19T12:49:52Z</time>
      </trkpt>
      <trkpt lat="43.5033" lon="6.90668">
        <ele>161</ele>
        <time>2011-01-19T12:50:00Z</time>
      </trkpt>
      <trkpt lat="43.50333" lon="6.9068">
        <ele>161.600006</ele>
        <time>2011-01-19T12:50:08Z</time>
      </trkpt>
      <trkpt lat="43.50337" lon="6.9069">
        <ele>162.199997</ele>
        <time>2011-01-19T12:50:17Z</time>
      </trkpt>
      <trkpt lat="43.50339" lon="6.90701">
        <ele>163.5</ele>
        <time>2011-01-19T12:50:25Z</time>
      </trkpt>
      <trkpt lat="43.50339" lon="6.90703">
        <ele>163.699997</ele>
        <time>2011-01-19T12:50:26Z</time>
      </trkpt>
      <trkpt lat="43.50345" lon="6.9072">
        <ele>164.199997</ele>
        <time>2011-01-19T12:50:38Z</time>
      </trkpt>
      <trkpt lat="43.50352" lon="6.90727">
        <ele>164.5</ele>
        <time>2011-01-19T12:50:45Z</time>
      </trkpt>
      <trkpt lat="43.5036" lon="6.90732">
        <ele>164.800003</ele>
        <time>2011-01-19T12:50:53Z</time>
      </trkpt>
      <trkpt lat="43.50367" lon="6.90738">
        <ele>164.399994</ele>
        <time>2011-01-19T12:51:00Z</time>
      </trkpt>
      <trkpt lat="43.50373" lon="6.90746">
        <ele>164</ele>
        <time>2011-01-19T12:51:08Z</time>
      </trkpt>
      <trkpt lat="43.50379" lon="6.90755">
        <ele>163.800003</ele>
        <time>2011-01-19T12:51:17Z</time>
      </trkpt>
      <trkpt lat="43.50385" lon="6.90763">
        <ele>163.600006</ele>
        <time>2011-01-19T12:51:25Z</time>
      </trkpt>
      <trkpt lat="43.50389" lon="6.90773">
        <ele>163.699997</ele>
        <time>2011-01-19T12:51:33Z</time>
      </trkpt>
      <trkpt lat="43.5039" lon="6.90774">
        <ele>163.699997</ele>
        <time>2011-01-19T12:51:34Z</time>
      </trkpt>
      <trkpt lat="43.50395" lon="6.90794">
        <ele>163.100006</ele>
        <time>2011-01-19T12:51:47Z</time>
      </trkpt>
      <trkpt lat="43.50399" lon="6.90804">
        <ele>162.100006</ele>
        <time>2011-01-19T12:51:55Z</time>
      </trkpt>
      <trkpt lat="43.50404" lon="6.90814">
        <ele>160.899994</ele>
        <time>2011-01-19T12:52:03Z</time>
      </trkpt>
      <trkpt lat="43.5041" lon="6.90822">
        <ele>159.399994</ele>
        <time>2011-01-19T12:52:12Z</time>
      </trkpt>
      <trkpt lat="43.50416" lon="6.90829">
        <ele>158.100006</ele>
        <time>2011-01-19T12:52:20Z</time>
      </trkpt>
      <trkpt lat="43.50423" lon="6.90836">
        <ele>157</ele>
        <time>2011-01-19T12:52:27Z</time>
      </trkpt>
      <trkpt lat="43.50432" lon="6.90839">
        <ele>155.600006</ele>
        <time>2011-01-19T12:52:37Z</time>
      </trkpt>
      <trkpt lat="43.50432" lon="6.90839">
        <ele>155.199997</ele>
        <time>2011-01-19T12:52:38Z</time>
      </trkpt>
      <trkpt lat="43.50448" lon="6.90845">
        <ele>152.100006</ele>
        <time>2011-01-19T12:52:54Z</time>
      </trkpt>
      <trkpt lat="43.50455" lon="6.9085">
        <ele>150.199997</ele>
        <time>2011-01-19T12:53:02Z</time>
      </trkpt>
      <trkpt lat="43.50463" lon="6.90857">
        <ele>148.899994</ele>
        <time>2011-01-19T12:53:10Z</time>
      </trkpt>
      <trkpt lat="43.5047" lon="6.90862">
        <ele>147.5</ele>
        <time>2011-01-19T12:53:17Z</time>
      </trkpt>
      <trkpt lat="43.50478" lon="6.90867">
        <ele>145.5</ele>
        <time>2011-01-19T12:53:26Z</time>
      </trkpt>
      <trkpt lat="43.50485" lon="6.90872">
        <ele>144.100006</ele>
        <time>2011-01-19T12:53:34Z</time>
      </trkpt>
      <trkpt lat="43.50492" lon="6.90878">
        <ele>143.399994</ele>
        <time>2011-01-19T12:53:41Z</time>
      </trkpt>
      <trkpt lat="43.50493" lon="6.90879">
        <ele>143.300003</ele>
        <time>2011-01-19T12:53:42Z</time>
      </trkpt>
      <trkpt lat="43.50505" lon="6.9089">
        <ele>141.300003</ele>
        <time>2011-01-19T12:53:57Z</time>
      </trkpt>
      <trkpt lat="43.50512" lon="6.90896">
        <ele>140.399994</ele>
        <time>2011-01-19T12:54:04Z</time>
      </trkpt>
      <trkpt lat="43.5052" lon="6.909">
        <ele>139.199997</ele>
        <time>2011-01-19T12:54:10Z</time>
      </trkpt>
      <trkpt lat="43.50528" lon="6.90903">
        <ele>138.100006</ele>
        <time>2011-01-19T12:54:16Z</time>
      </trkpt>
      <trkpt lat="43.50536" lon="6.90904">
        <ele>136.800003</ele>
        <time>2011-01-19T12:54:25Z</time>
      </trkpt>
      <trkpt lat="43.50544" lon="6.90905">
        <ele>136.100006</ele>
        <time>2011-01-19T12:54:33Z</time>
      </trkpt>
      <trkpt lat="43.50553" lon="6.90905">
        <ele>135.399994</ele>
        <time>2011-01-19T12:54:39Z</time>
      </trkpt>
      <trkpt lat="43.50561" lon="6.90903">
        <ele>134</ele>
        <time>2011-01-19T12:54:45Z</time>
      </trkpt>
      <trkpt lat="43.50562" lon="6.90902">
        <ele>133.699997</ele>
        <time>2011-01-19T12:54:46Z</time>
      </trkpt>
      <trkpt lat="43.50576" lon="6.90895">
        <ele>131.600006</ele>
        <time>2011-01-19T12:55:00Z</time>
      </trkpt>
      <trkpt lat="43.50584" lon="6.90892">
        <ele>130.199997</ele>
        <time>2011-01-19T12:55:07Z</time>
      </trkpt>
      <trkpt lat="43.50591" lon="6.90887">
        <ele>129.399994</ele>
        <time>2011-01-19T12:55:13Z</time>
      </trkpt>
      <trkpt lat="43.50599" lon="6.90883">
        <ele>129.100006</ele>
        <time>2011-01-19T12:55:19Z</time>
      </trkpt>
      <trkpt lat="43.50606" lon="6.90877">
        <ele>127.900002</ele>
        <time>2011-01-19T12:55:28Z</time>
      </trkpt>
      <trkpt lat="43.50614" lon="6.90882">
        <ele>124.699997</ele>
        <time>2011-01-19T12:55:47Z</time>
      </trkpt>
      <trkpt lat="43.50614" lon="6.90883">
        <ele>124.599998</ele>
        <time>2011-01-19T12:55:48Z</time>
      </trkpt>
      <trkpt lat="43.50628" lon="6.90893">
        <ele>122.699997</ele>
        <time>2011-01-19T12:56:04Z</time>
      </trkpt>
      <trkpt lat="43.50636" lon="6.90898">
        <ele>121.800003</ele>
        <time>2011-01-19T12:56:10Z</time>
      </trkpt>
      <trkpt lat="43.50643" lon="6.90903">
        <ele>121.300003</ele>
        <time>2011-01-19T12:56:17Z</time>
      </trkpt>
      <trkpt lat="43.50652" lon="6.90905">
        <ele>120.300003</ele>
        <time>2011-01-19T12:56:24Z</time>
      </trkpt>
      <trkpt lat="43.50659" lon="6.9091">
        <ele>120</ele>
        <time>2011-01-19T12:56:30Z</time>
      </trkpt>
      <trkpt lat="43.50668" lon="6.9091">
        <ele>119.5</ele>
        <time>2011-01-19T12:56:37Z</time>
      </trkpt>
      <trkpt lat="43.50675" lon="6.90905">
        <ele>119.5</ele>
        <time>2011-01-19T12:56:51Z</time>
      </trkpt>
      <trkpt lat="43.50676" lon="6.90904">
        <ele>119.5</ele>
        <time>2011-01-19T12:56:52Z</time>
      </trkpt>
      <trkpt lat="43.50692" lon="6.90901">
        <ele>116.599998</ele>
        <time>2011-01-19T12:57:11Z</time>
      </trkpt>
      <trkpt lat="43.507" lon="6.909">
        <ele>115.099998</ele>
        <time>2011-01-19T12:57:18Z</time>
      </trkpt>
      <trkpt lat="43.50708" lon="6.90901">
        <ele>113.800003</ele>
        <time>2011-01-19T12:57:27Z</time>
      </trkpt>
      <trkpt lat="43.50716" lon="6.90903">
        <ele>113.099998</ele>
        <time>2011-01-19T12:57:35Z</time>
      </trkpt>
      <trkpt lat="43.50725" lon="6.90903">
        <ele>112.5</ele>
        <time>2011-01-19T12:57:43Z</time>
      </trkpt>
      <trkpt lat="43.50734" lon="6.90905">
        <ele>111.800003</ele>
        <time>2011-01-19T12:57:51Z</time>
      </trkpt>
      <trkpt lat="43.50741" lon="6.90906">
        <ele>110.199997</ele>
        <time>2011-01-19T12:58:00Z</time>
      </trkpt>
      <trkpt lat="43.50743" lon="6.90906">
        <ele>110.099998</ele>
        <time>2011-01-19T12:58:01Z</time>
      </trkpt>
      <trkpt lat="43.50758" lon="6.90912">
        <ele>109.400002</ele>
        <time>2011-01-19T12:58:14Z</time>
      </trkpt>
      <trkpt lat="43.50765" lon="6.90919">
        <ele>108.800003</ele>
        <time>2011-01-19T12:58:22Z</time>
      </trkpt>
      <trkpt lat="43.50773" lon="6.90922">
        <ele>108.099998</ele>
        <time>2011-01-19T12:58:30Z</time>
      </trkpt>
      <trkpt lat="43.50782" lon="6.90923">
        <ele>107.400002</ele>
        <time>2011-01-19T12:58:37Z</time>
      </trkpt>
      <trkpt lat="43.5079" lon="6.9092">
        <ele>106.5</ele>
        <time>2011-01-19T12:58:44Z</time>
      </trkpt>
      <trkpt lat="43.50799" lon="6.90922">
        <ele>105.699997</ele>
        <time>2011-01-19T12:58:51Z</time>
      </trkpt>
      <trkpt lat="43.50807" lon="6.90921">
        <ele>103.800003</ele>
        <time>2011-01-19T12:59:01Z</time>
      </trkpt>
      <trkpt lat="43.50808" lon="6.90921">
        <ele>103.699997</ele>
        <time>2011-01-19T12:59:02Z</time>
      </trkpt>
      <trkpt lat="43.50823" lon="6.90925">
        <ele>100.400002</ele>
        <time>2011-01-19T12:59:19Z</time>
      </trkpt>
      <trkpt lat="43.50832" lon="6.90927">
        <ele>99.199997</ele>
        <time>2011-01-19T12:59:29Z</time>
      </trkpt>
      <trkpt lat="43.50834" lon="6.90939">
        <ele>96.599998</ele>
        <time>2011-01-19T12:59:42Z</time>
      </trkpt>
      <trkpt lat="43.50837" lon="6.9095">
        <ele>94.5</ele>
        <time>2011-01-19T12:59:54Z</time>
      </trkpt>
      <trkpt lat="43.50838" lon="6.90961">
        <ele>92.300003</ele>
        <time>2011-01-19T13:00:04Z</time>
      </trkpt>
      <trkpt lat="43.50838" lon="6.90963">
        <ele>92.199997</ele>
        <time>2011-01-19T13:00:05Z</time>
      </trkpt>
      <trkpt lat="43.50849" lon="6.9098">
        <ele>89.699997</ele>
        <time>2011-01-19T13:00:22Z</time>
      </trkpt>
      <trkpt lat="43.50848" lon="6.90992">
        <ele>87.300003</ele>
        <time>2011-01-19T13:00:38Z</time>
      </trkpt>
      <trkpt lat="43.5084" lon="6.90997">
        <ele>85.800003</ele>
        <time>2011-01-19T13:00:50Z</time>
      </trkpt>
      <trkpt lat="43.50833" lon="6.91003">
        <ele>84.599998</ele>
        <time>2011-01-19T13:01:01Z</time>
      </trkpt>
      <trkpt lat="43.50833" lon="6.91015">
        <ele>82.900002</ele>
        <time>2011-01-19T13:01:20Z</time>
      </trkpt>
      <trkpt lat="43.50833" lon="6.91016">
        <ele>82.900002</ele>
        <time>2011-01-19T13:01:21Z</time>
      </trkpt>
      <trkpt lat="43.50835" lon="6.91038">
        <ele>80</ele>
        <time>2011-01-19T13:02:04Z</time>
      </trkpt>
      <trkpt lat="43.50838" lon="6.9105">
        <ele>80.199997</ele>
        <time>2011-01-19T13:02:14Z</time>
      </trkpt>
      <trkpt lat="43.50846" lon="6.91051">
        <ele>79.300003</ele>
        <time>2011-01-19T13:02:30Z</time>
      </trkpt>
      <trkpt lat="43.50847" lon="6.91052">
        <ele>79.199997</ele>
        <time>2011-01-19T13:02:31Z</time>
      </trkpt>
      <trkpt lat="43.50863" lon="6.91046">
        <ele>76.699997</ele>
        <time>2011-01-19T13:03:16Z</time>
      </trkpt>
      <trkpt lat="43.50871" lon="6.91044">
        <ele>76.199997</ele>
        <time>2011-01-19T13:03:36Z</time>
      </trkpt>
      <trkpt lat="43.50872" lon="6.91043">
        <ele>76.199997</ele>
        <time>2011-01-19T13:03:37Z</time>
      </trkpt>
      <trkpt lat="43.50857" lon="6.91041">
        <ele>78</ele>
        <time>2011-01-19T13:04:35Z</time>
      </trkpt>
      <trkpt lat="43.5085" lon="6.91047">
        <ele>79.199997</ele>
        <time>2011-01-19T13:04:46Z</time>
      </trkpt>
      <trkpt lat="43.50849" lon="6.91047">
        <ele>79.400002</ele>
        <time>2011-01-19T13:04:47Z</time>
      </trkpt>
      <trkpt lat="43.50835" lon="6.91059">
        <ele>82.5</ele>
        <time>2011-01-19T13:05:11Z</time>
      </trkpt>
      <trkpt lat="43.50827" lon="6.91059">
        <ele>83.199997</ele>
        <time>2011-01-19T13:05:19Z</time>
      </trkpt>
      <trkpt lat="43.50818" lon="6.91057">
        <ele>83.5</ele>
        <time>2011-01-19T13:05:32Z</time>
      </trkpt>
      <trkpt lat="43.5081" lon="6.9106">
        <ele>84.800003</ele>
        <time>2011-01-19T13:05:41Z</time>
      </trkpt>
      <trkpt lat="43.50802" lon="6.91063">
        <ele>85</ele>
        <time>2011-01-19T13:05:54Z</time>
      </trkpt>
      <trkpt lat="43.50801" lon="6.91064">
        <ele>85</ele>
        <time>2011-01-19T13:05:55Z</time>
      </trkpt>
      <trkpt lat="43.50787" lon="6.91073">
        <ele>85.900002</ele>
        <time>2011-01-19T13:06:09Z</time>
      </trkpt>
      <trkpt lat="43.50779" lon="6.91071">
        <ele>85.800003</ele>
        <time>2011-01-19T13:06:15Z</time>
      </trkpt>
      <trkpt lat="43.5077" lon="6.91071">
        <ele>85.699997</ele>
        <time>2011-01-19T13:06:22Z</time>
      </trkpt>
      <trkpt lat="43.50763" lon="6.91079">
        <ele>86.300003</ele>
        <time>2011-01-19T13:06:31Z</time>
      </trkpt>
      <trkpt lat="43.50755" lon="6.91081">
        <ele>86.5</ele>
        <time>2011-01-19T13:06:39Z</time>
      </trkpt>
      <trkpt lat="43.50746" lon="6.91083">
        <ele>87.5</ele>
        <time>2011-01-19T13:06:47Z</time>
      </trkpt>
      <trkpt lat="43.50739" lon="6.91084">
        <ele>88</ele>
        <time>2011-01-19T13:06:53Z</time>
      </trkpt>
      <trkpt lat="43.5073" lon="6.91083">
        <ele>88.599998</ele>
        <time>2011-01-19T13:07:00Z</time>
      </trkpt>
      <trkpt lat="43.50729" lon="6.91083">
        <ele>88.599998</ele>
        <time>2011-01-19T13:07:01Z</time>
      </trkpt>
      <trkpt lat="43.50713" lon="6.9109">
        <ele>90.199997</ele>
        <time>2011-01-19T13:07:17Z</time>
      </trkpt>
      <trkpt lat="43.50705" lon="6.91094">
        <ele>91.400002</ele>
        <time>2011-01-19T13:07:28Z</time>
      </trkpt>
      <trkpt lat="43.50696" lon="6.91096">
        <ele>91.800003</ele>
        <time>2011-01-19T13:07:36Z</time>
      </trkpt>
      <trkpt lat="43.50688" lon="6.91097">
        <ele>92.300003</ele>
        <time>2011-01-19T13:07:43Z</time>
      </trkpt>
      <trkpt lat="43.5068" lon="6.91102">
        <ele>93.300003</ele>
        <time>2011-01-19T13:07:52Z</time>
      </trkpt>
      <trkpt lat="43.50673" lon="6.91105">
        <ele>94</ele>
        <time>2011-01-19T13:07:59Z</time>
      </trkpt>
      <trkpt lat="43.50665" lon="6.91108">
        <ele>95.099998</ele>
        <time>2011-01-19T13:08:05Z</time>
      </trkpt>
      <trkpt lat="43.50664" lon="6.91108">
        <ele>95.099998</ele>
        <time>2011-01-19T13:08:06Z</time>
      </trkpt>
      <trkpt lat="43.50648" lon="6.91103">
        <ele>96.800003</ele>
        <time>2011-01-19T13:08:20Z</time>
      </trkpt>
      <trkpt lat="43.5064" lon="6.91101">
        <ele>98.199997</ele>
        <time>2011-01-19T13:08:27Z</time>
      </trkpt>
      <trkpt lat="43.50632" lon="6.911">
        <ele>98.599998</ele>
        <time>2011-01-19T13:08:33Z</time>
      </trkpt>
      <trkpt lat="43.50624" lon="6.91098">
        <ele>98.800003</ele>
        <time>2011-01-19T13:08:38Z</time>
      </trkpt>
      <trkpt lat="43.50616" lon="6.91098">
        <ele>98.800003</ele>
        <time>2011-01-19T13:08:44Z</time>
      </trkpt>
      <trkpt lat="43.50607" lon="6.911">
        <ele>99.5</ele>
        <time>2011-01-19T13:08:53Z</time>
      </trkpt>
      <trkpt lat="43.50599" lon="6.91102">
        <ele>100.400002</ele>
        <time>2011-01-19T13:09:01Z</time>
      </trkpt>
      <trkpt lat="43.50591" lon="6.91101">
        <ele>101.400002</ele>
        <time>2011-01-19T13:09:10Z</time>
      </trkpt>
      <trkpt lat="43.5059" lon="6.91102">
        <ele>101.599998</ele>
        <time>2011-01-19T13:09:11Z</time>
      </trkpt>
      <trkpt lat="43.50575" lon="6.91101">
        <ele>102.900002</ele>
        <time>2011-01-19T13:09:23Z</time>
      </trkpt>
      <trkpt lat="43.50567" lon="6.91102">
        <ele>103.900002</ele>
        <time>2011-01-19T13:09:30Z</time>
      </trkpt>
      <trkpt lat="43.50559" lon="6.91101">
        <ele>104.5</ele>
        <time>2011-01-19T13:09:38Z</time>
      </trkpt>
      <trkpt lat="43.5055" lon="6.911">
        <ele>105.300003</ele>
        <time>2011-01-19T13:09:46Z</time>
      </trkpt>
      <trkpt lat="43.50542" lon="6.91098">
        <ele>106.199997</ele>
        <time>2011-01-19T13:09:57Z</time>
      </trkpt>
      <trkpt lat="43.50534" lon="6.91099">
        <ele>106.300003</ele>
        <time>2011-01-19T13:10:05Z</time>
      </trkpt>
      <trkpt lat="43.50525" lon="6.91103">
        <ele>106.5</ele>
        <time>2011-01-19T13:10:11Z</time>
      </trkpt>
      <trkpt lat="43.50524" lon="6.91104">
        <ele>106.800003</ele>
        <time>2011-01-19T13:10:12Z</time>
      </trkpt>
      <trkpt lat="43.50512" lon="6.91116">
        <ele>108.300003</ele>
        <time>2011-01-19T13:10:26Z</time>
      </trkpt>
      <trkpt lat="43.50504" lon="6.91119">
        <ele>109.099998</ele>
        <time>2011-01-19T13:10:37Z</time>
      </trkpt>
      <trkpt lat="43.50495" lon="6.91116">
        <ele>111.400002</ele>
        <time>2011-01-19T13:11:02Z</time>
      </trkpt>
      <trkpt lat="43.50487" lon="6.91117">
        <ele>111.800003</ele>
        <time>2011-01-19T13:11:11Z</time>
      </trkpt>
      <trkpt lat="43.50478" lon="6.91115">
        <ele>113.5</ele>
        <time>2011-01-19T13:11:23Z</time>
      </trkpt>
      <trkpt lat="43.50477" lon="6.91114">
        <ele>113.5</ele>
        <time>2011-01-19T13:11:24Z</time>
      </trkpt>
      <trkpt lat="43.50463" lon="6.91104">
        <ele>115.5</ele>
        <time>2011-01-19T13:11:45Z</time>
      </trkpt>
      <trkpt lat="43.50457" lon="6.91098">
        <ele>116.099998</ele>
        <time>2011-01-19T13:11:55Z</time>
      </trkpt>
      <trkpt lat="43.50448" lon="6.91093">
        <ele>116.599998</ele>
        <time>2011-01-19T13:12:03Z</time>
      </trkpt>
      <trkpt lat="43.50442" lon="6.91087">
        <ele>116.599998</ele>
        <time>2011-01-19T13:12:10Z</time>
      </trkpt>
      <trkpt lat="43.50435" lon="6.91081">
        <ele>117.5</ele>
        <time>2011-01-19T13:12:17Z</time>
      </trkpt>
      <trkpt lat="43.50426" lon="6.91078">
        <ele>118</ele>
        <time>2011-01-19T13:12:25Z</time>
      </trkpt>
      <trkpt lat="43.50425" lon="6.91077">
        <ele>118.099998</ele>
        <time>2011-01-19T13:12:26Z</time>
      </trkpt>
      <trkpt lat="43.50411" lon="6.91071">
        <ele>119.199997</ele>
        <time>2011-01-19T13:12:41Z</time>
      </trkpt>
      <trkpt lat="43.50403" lon="6.9107">
        <ele>119.900002</ele>
        <time>2011-01-19T13:12:49Z</time>
      </trkpt>
      <trkpt lat="43.50395" lon="6.91069">
        <ele>120.199997</ele>
        <time>2011-01-19T13:12:57Z</time>
      </trkpt>
      <trkpt lat="43.50387" lon="6.91065">
        <ele>120.599998</ele>
        <time>2011-01-19T13:13:05Z</time>
      </trkpt>
      <trkpt lat="43.50378" lon="6.91067">
        <ele>121.699997</ele>
        <time>2011-01-19T13:13:17Z</time>
      </trkpt>
      <trkpt lat="43.5037" lon="6.91065">
        <ele>121.900002</ele>
        <time>2011-01-19T13:13:24Z</time>
      </trkpt>
      <trkpt lat="43.50362" lon="6.91064">
        <ele>114.099998</ele>
        <time>2011-01-19T13:13:31Z</time>
      </trkpt>
      <trkpt lat="43.5036" lon="6.91063">
        <ele>112.800003</ele>
        <time>2011-01-19T13:13:32Z</time>
      </trkpt>
      <trkpt lat="43.50345" lon="6.91063">
        <ele>109</ele>
        <time>2011-01-19T13:13:48Z</time>
      </trkpt>
      <trkpt lat="43.50337" lon="6.91063">
        <ele>109</ele>
        <time>2011-01-19T13:13:55Z</time>
      </trkpt>
      <trkpt lat="43.50328" lon="6.91062">
        <ele>110.199997</ele>
        <time>2011-01-19T13:14:04Z</time>
      </trkpt>
      <trkpt lat="43.5032" lon="6.91065">
        <ele>110.5</ele>
        <time>2011-01-19T13:14:13Z</time>
      </trkpt>
      <trkpt lat="43.50312" lon="6.91064">
        <ele>111.400002</ele>
        <time>2011-01-19T13:14:23Z</time>
      </trkpt>
      <trkpt lat="43.50303" lon="6.91065">
        <ele>111.699997</ele>
        <time>2011-01-19T13:14:33Z</time>
      </trkpt>
      <trkpt lat="43.50302" lon="6.91064">
        <ele>111.699997</ele>
        <time>2011-01-19T13:14:34Z</time>
      </trkpt>
      <trkpt lat="43.50286" lon="6.91064">
        <ele>113.300003</ele>
        <time>2011-01-19T13:14:50Z</time>
      </trkpt>
      <trkpt lat="43.50278" lon="6.91061">
        <ele>113.300003</ele>
        <time>2011-01-19T13:14:59Z</time>
      </trkpt>
      <trkpt lat="43.50269" lon="6.9106">
        <ele>113.800003</ele>
        <time>2011-01-19T13:15:08Z</time>
      </trkpt>
      <trkpt lat="43.50262" lon="6.91057">
        <ele>114.699997</ele>
        <time>2011-01-19T13:15:15Z</time>
      </trkpt>
      <trkpt lat="43.50254" lon="6.91055">
        <ele>114.5</ele>
        <time>2011-01-19T13:15:20Z</time>
      </trkpt>
      <trkpt lat="43.50246" lon="6.91056">
        <ele>115.199997</ele>
        <time>2011-01-19T13:15:27Z</time>
      </trkpt>
      <trkpt lat="43.50238" lon="6.91057">
        <ele>115.5</ele>
        <time>2011-01-19T13:15:33Z</time>
      </trkpt>
      <trkpt lat="43.50229" lon="6.9106">
        <ele>115.699997</ele>
        <time>2011-01-19T13:15:41Z</time>
      </trkpt>
      <trkpt lat="43.50228" lon="6.9106">
        <ele>115.599998</ele>
        <time>2011-01-19T13:15:42Z</time>
      </trkpt>
      <trkpt lat="43.50214" lon="6.91071">
        <ele>117.099998</ele>
        <time>2011-01-19T13:15:57Z</time>
      </trkpt>
      <trkpt lat="43.50206" lon="6.91077">
        <ele>117.300003</ele>
        <time>2011-01-19T13:16:05Z</time>
      </trkpt>
      <trkpt lat="43.50198" lon="6.91082">
        <ele>117.300003</ele>
        <time>2011-01-19T13:16:14Z</time>
      </trkpt>
      <trkpt lat="43.5019" lon="6.91084">
        <ele>117.599998</ele>
        <time>2011-01-19T13:16:22Z</time>
      </trkpt>
      <trkpt lat="43.50181" lon="6.91088">
        <ele>118.199997</ele>
        <time>2011-01-19T13:16:31Z</time>
      </trkpt>
      <trkpt lat="43.50173" lon="6.91091">
        <ele>118.699997</ele>
        <time>2011-01-19T13:16:39Z</time>
      </trkpt>
      <trkpt lat="43.50166" lon="6.91097">
        <ele>119</ele>
        <time>2011-01-19T13:16:47Z</time>
      </trkpt>
      <trkpt lat="43.50165" lon="6.91097">
        <ele>119.099998</ele>
        <time>2011-01-19T13:16:48Z</time>
      </trkpt>
      <trkpt lat="43.5015" lon="6.91108">
        <ele>120.300003</ele>
        <time>2011-01-19T13:17:05Z</time>
      </trkpt>
      <trkpt lat="43.50143" lon="6.91115">
        <ele>120.5</ele>
        <time>2011-01-19T13:17:13Z</time>
      </trkpt>
      <trkpt lat="43.50137" lon="6.91123">
        <ele>121.699997</ele>
        <time>2011-01-19T13:17:22Z</time>
      </trkpt>
      <trkpt lat="43.50131" lon="6.91131">
        <ele>122.199997</ele>
        <time>2011-01-19T13:17:30Z</time>
      </trkpt>
      <trkpt lat="43.50125" lon="6.9114">
        <ele>122.800003</ele>
        <time>2011-01-19T13:17:38Z</time>
      </trkpt>
      <trkpt lat="43.50123" lon="6.91152">
        <ele>122.900002</ele>
        <time>2011-01-19T13:17:46Z</time>
      </trkpt>
      <trkpt lat="43.5012" lon="6.91163">
        <ele>123.199997</ele>
        <time>2011-01-19T13:17:52Z</time>
      </trkpt>
      <trkpt lat="43.5012" lon="6.91165">
        <ele>123.099998</ele>
        <time>2011-01-19T13:17:53Z</time>
      </trkpt>
      <trkpt lat="43.50116" lon="6.91186">
        <ele>124.400002</ele>
        <time>2011-01-19T13:18:08Z</time>
      </trkpt>
      <trkpt lat="43.50112" lon="6.91195">
        <ele>125</ele>
        <time>2011-01-19T13:18:15Z</time>
      </trkpt>
      <trkpt lat="43.5011" lon="6.91207">
        <ele>125.400002</ele>
        <time>2011-01-19T13:18:24Z</time>
      </trkpt>
      <trkpt lat="43.50105" lon="6.91216">
        <ele>126.300003</ele>
        <time>2011-01-19T13:18:35Z</time>
      </trkpt>
      <trkpt lat="43.50098" lon="6.91222">
        <ele>128.100006</ele>
        <time>2011-01-19T13:18:52Z</time>
      </trkpt>
      <trkpt lat="43.50089" lon="6.91225">
        <ele>129.100006</ele>
        <time>2011-01-19T13:19:03Z</time>
      </trkpt>
      <trkpt lat="43.50089" lon="6.91225">
        <ele>129.100006</ele>
        <time>2011-01-19T13:19:04Z</time>
      </trkpt>
      <trkpt lat="43.50094" lon="6.91206">
        <ele>133.5</ele>
        <time>2011-01-19T13:19:45Z</time>
      </trkpt>
      <trkpt lat="43.50096" lon="6.91194">
        <ele>133.800003</ele>
        <time>2011-01-19T13:19:54Z</time>
      </trkpt>
      <trkpt lat="43.50096" lon="6.91182">
        <ele>135.100006</ele>
        <time>2011-01-19T13:20:04Z</time>
      </trkpt>
      <trkpt lat="43.50096" lon="6.91181">
        <ele>135.199997</ele>
        <time>2011-01-19T13:20:05Z</time>
      </trkpt>
      <trkpt lat="43.50084" lon="6.91168">
        <ele>135.800003</ele>
        <time>2011-01-19T13:21:06Z</time>
      </trkpt>
      <trkpt lat="43.50083" lon="6.91166">
        <ele>136</ele>
        <time>2011-01-19T13:21:07Z</time>
      </trkpt>
      <trkpt lat="43.5008" lon="6.91144">
        <ele>138</ele>
        <time>2011-01-19T13:21:25Z</time>
      </trkpt>
      <trkpt lat="43.50078" lon="6.91133">
        <ele>139.100006</ele>
        <time>2011-01-19T13:21:33Z</time>
      </trkpt>
      <trkpt lat="43.50077" lon="6.91121">
        <ele>140</ele>
        <time>2011-01-19T13:21:43Z</time>
      </trkpt>
      <trkpt lat="43.50073" lon="6.91111">
        <ele>140</ele>
        <time>2011-01-19T13:21:54Z</time>
      </trkpt>
      <trkpt lat="43.50065" lon="6.91106">
        <ele>141.5</ele>
        <time>2011-01-19T13:22:28Z</time>
      </trkpt>
      <trkpt lat="43.50064" lon="6.91105">
        <ele>141.399994</ele>
        <time>2011-01-19T13:22:29Z</time>
      </trkpt>
      <trkpt lat="43.50057" lon="6.91085">
        <ele>144.399994</ele>
        <time>2011-01-19T13:22:53Z</time>
      </trkpt>
      <trkpt lat="43.50056" lon="6.91074">
        <ele>144.899994</ele>
        <time>2011-01-19T13:23:02Z</time>
      </trkpt>
      <trkpt lat="43.5006" lon="6.91064">
        <ele>145.300003</ele>
        <time>2011-01-19T13:23:10Z</time>
      </trkpt>
      <trkpt lat="43.50064" lon="6.91053">
        <ele>146.399994</ele>
        <time>2011-01-19T13:23:20Z</time>
      </trkpt>
      <trkpt lat="43.50063" lon="6.91041">
        <ele>147.300003</ele>
        <time>2011-01-19T13:23:29Z</time>
      </trkpt>
      <trkpt lat="43.50064" lon="6.91039">
        <ele>147.300003</ele>
        <time>2011-01-19T13:23:30Z</time>
      </trkpt>
      <trkpt lat="43.50066" lon="6.91018">
        <ele>148.699997</ele>
        <time>2011-01-19T13:23:46Z</time>
      </trkpt>
      <trkpt lat="43.50066" lon="6.91006">
        <ele>149.600006</ele>
        <time>2011-01-19T13:23:55Z</time>
      </trkpt>
      <trkpt lat="43.50065" lon="6.90995">
        <ele>151</ele>
        <time>2011-01-19T13:24:03Z</time>
      </trkpt>
      <trkpt lat="43.50061" lon="6.90984">
        <ele>151.800003</ele>
        <time>2011-01-19T13:24:11Z</time>
      </trkpt>
      <trkpt lat="43.50055" lon="6.90976">
        <ele>152.800003</ele>
        <time>2011-01-19T13:24:19Z</time>
      </trkpt>
      <trkpt lat="43.50048" lon="6.90968">
        <ele>153.199997</ele>
        <time>2011-01-19T13:24:27Z</time>
      </trkpt>
      <trkpt lat="43.5004" lon="6.90966">
        <ele>153.800003</ele>
        <time>2011-01-19T13:24:35Z</time>
      </trkpt>
      <trkpt lat="43.50039" lon="6.90966">
        <ele>153.699997</ele>
        <time>2011-01-19T13:24:36Z</time>
      </trkpt>
      <trkpt lat="43.50023" lon="6.9097">
        <ele>155.100006</ele>
        <time>2011-01-19T13:24:52Z</time>
      </trkpt>
      <trkpt lat="43.50015" lon="6.90971">
        <ele>156</ele>
        <time>2011-01-19T13:25:00Z</time>
      </trkpt>
      <trkpt lat="43.50007" lon="6.90973">
        <ele>157</ele>
        <time>2011-01-19T13:25:08Z</time>
      </trkpt>
      <trkpt lat="43.49998" lon="6.90976">
        <ele>158</ele>
        <time>2011-01-19T13:25:16Z</time>
      </trkpt>
      <trkpt lat="43.49992" lon="6.90984">
        <ele>158.800003</ele>
        <time>2011-01-19T13:25:26Z</time>
      </trkpt>
      <trkpt lat="43.49986" lon="6.90993">
        <ele>159.600006</ele>
        <time>2011-01-19T13:25:35Z</time>
      </trkpt>
      <trkpt lat="43.4998" lon="6.91001">
        <ele>160.300003</ele>
        <time>2011-01-19T13:25:43Z</time>
      </trkpt>
      <trkpt lat="43.49979" lon="6.91003">
        <ele>160.5</ele>
        <time>2011-01-19T13:25:44Z</time>
      </trkpt>
      <trkpt lat="43.49967" lon="6.91015">
        <ele>161.800003</ele>
        <time>2011-01-19T13:25:58Z</time>
      </trkpt>
      <trkpt lat="43.49959" lon="6.9102">
        <ele>162.5</ele>
        <time>2011-01-19T13:26:06Z</time>
      </trkpt>
      <trkpt lat="43.49951" lon="6.91022">
        <ele>163.300003</ele>
        <time>2011-01-19T13:26:13Z</time>
      </trkpt>
      <trkpt lat="43.49944" lon="6.91028">
        <ele>163.899994</ele>
        <time>2011-01-19T13:26:21Z</time>
      </trkpt>
      <trkpt lat="43.49938" lon="6.91035">
        <ele>164.600006</ele>
        <time>2011-01-19T13:26:30Z</time>
      </trkpt>
      <trkpt lat="43.4993" lon="6.91041">
        <ele>165.100006</ele>
        <time>2011-01-19T13:26:38Z</time>
      </trkpt>
      <trkpt lat="43.49924" lon="6.91049">
        <ele>165.600006</ele>
        <time>2011-01-19T13:26:46Z</time>
      </trkpt>
      <trkpt lat="43.49923" lon="6.9105">
        <ele>165.800003</ele>
        <time>2011-01-19T13:26:47Z</time>
      </trkpt>
      <trkpt lat="43.49911" lon="6.91065">
        <ele>168.300003</ele>
        <time>2011-01-19T13:27:05Z</time>
      </trkpt>
      <trkpt lat="43.49904" lon="6.91072">
        <ele>169.600006</ele>
        <time>2011-01-19T13:27:16Z</time>
      </trkpt>
      <trkpt lat="43.49896" lon="6.91076">
        <ele>171.300003</ele>
        <time>2011-01-19T13:27:28Z</time>
      </trkpt>
      <trkpt lat="43.49888" lon="6.91077">
        <ele>172.699997</ele>
        <time>2011-01-19T13:27:38Z</time>
      </trkpt>
      <trkpt lat="43.4988" lon="6.91077">
        <ele>173.899994</ele>
        <time>2011-01-19T13:27:47Z</time>
      </trkpt>
      <trkpt lat="43.49878" lon="6.91078">
        <ele>173.899994</ele>
        <time>2011-01-19T13:27:48Z</time>
      </trkpt>
      <trkpt lat="43.49862" lon="6.91076">
        <ele>176.199997</ele>
        <time>2011-01-19T13:28:06Z</time>
      </trkpt>
      <trkpt lat="43.49854" lon="6.91077">
        <ele>176.899994</ele>
        <time>2011-01-19T13:28:15Z</time>
      </trkpt>
      <trkpt lat="43.49846" lon="6.91081">
        <ele>178.5</ele>
        <time>2011-01-19T13:28:25Z</time>
      </trkpt>
      <trkpt lat="43.49838" lon="6.91076">
        <ele>179.699997</ele>
        <time>2011-01-19T13:28:34Z</time>
      </trkpt>
      <trkpt lat="43.49835" lon="6.91066">
        <ele>180.399994</ele>
        <time>2011-01-19T13:28:45Z</time>
      </trkpt>
      <trkpt lat="43.49839" lon="6.91056">
        <ele>181.699997</ele>
        <time>2011-01-19T13:28:57Z</time>
      </trkpt>
      <trkpt lat="43.49839" lon="6.91055">
        <ele>181.899994</ele>
        <time>2011-01-19T13:28:58Z</time>
      </trkpt>
      <trkpt lat="43.49831" lon="6.91035">
        <ele>184.800003</ele>
        <time>2011-01-19T13:29:27Z</time>
      </trkpt>
      <trkpt lat="43.49827" lon="6.91024">
        <ele>185.5</ele>
        <time>2011-01-19T13:29:37Z</time>
      </trkpt>
      <trkpt lat="43.49826" lon="6.91012">
        <ele>186</ele>
        <time>2011-01-19T13:29:48Z</time>
      </trkpt>
      <trkpt lat="43.49831" lon="6.91002">
        <ele>186.5</ele>
        <time>2011-01-19T13:29:58Z</time>
      </trkpt>
      <trkpt lat="43.49831" lon="6.91001">
        <ele>186.600006</ele>
        <time>2011-01-19T13:29:59Z</time>
      </trkpt>
      <trkpt lat="43.49838" lon="6.90981">
        <ele>187.899994</ele>
        <time>2011-01-19T13:30:19Z</time>
      </trkpt>
      <trkpt lat="43.49839" lon="6.90969">
        <ele>189.399994</ele>
        <time>2011-01-19T13:30:34Z</time>
      </trkpt>
      <trkpt lat="43.49842" lon="6.90957">
        <ele>191.600006</ele>
        <time>2011-01-19T13:30:47Z</time>
      </trkpt>
      <trkpt lat="43.49841" lon="6.90945">
        <ele>192.800003</ele>
        <time>2011-01-19T13:30:57Z</time>
      </trkpt>
      <trkpt lat="43.49843" lon="6.90934">
        <ele>194.399994</ele>
        <time>2011-01-19T13:31:09Z</time>
      </trkpt>
      <trkpt lat="43.49844" lon="6.90933">
        <ele>194.699997</ele>
        <time>2011-01-19T13:31:10Z</time>
      </trkpt>
      <trkpt lat="43.49841" lon="6.90913">
        <ele>196.699997</ele>
        <time>2011-01-19T13:31:47Z</time>
      </trkpt>
      <trkpt lat="43.49833" lon="6.90907">
        <ele>197.800003</ele>
        <time>2011-01-19T13:33:45Z</time>
      </trkpt>
      <trkpt lat="43.49832" lon="6.90906">
        <ele>198</ele>
        <time>2011-01-19T13:33:46Z</time>
      </trkpt>
      <trkpt lat="43.49819" lon="6.90895">
        <ele>199.300003</ele>
        <time>2011-01-19T13:34:02Z</time>
      </trkpt>
      <trkpt lat="43.49812" lon="6.90891">
        <ele>200.100006</ele>
        <time>2011-01-19T13:34:10Z</time>
      </trkpt>
      <trkpt lat="43.49804" lon="6.90888">
        <ele>200.5</ele>
        <time>2011-01-19T13:34:17Z</time>
      </trkpt>
      <trkpt lat="43.49796" lon="6.90884">
        <ele>200.5</ele>
        <time>2011-01-19T13:34:24Z</time>
      </trkpt>
      <trkpt lat="43.49789" lon="6.9088">
        <ele>200.600006</ele>
        <time>2011-01-19T13:34:30Z</time>
      </trkpt>
      <trkpt lat="43.49786" lon="6.90869">
        <ele>202.199997</ele>
        <time>2011-01-19T13:34:47Z</time>
      </trkpt>
      <trkpt lat="43.49786" lon="6.90868">
        <ele>202.5</ele>
        <time>2011-01-19T13:34:48Z</time>
      </trkpt>
      <trkpt lat="43.49779" lon="6.90849">
        <ele>203.899994</ele>
        <time>2011-01-19T13:35:03Z</time>
      </trkpt>
      <trkpt lat="43.49776" lon="6.90838">
        <ele>204.5</ele>
        <time>2011-01-19T13:35:11Z</time>
      </trkpt>
      <trkpt lat="43.49776" lon="6.90826">
        <ele>205.899994</ele>
        <time>2011-01-19T13:35:24Z</time>
      </trkpt>
      <trkpt lat="43.49772" lon="6.90816">
        <ele>206.300003</ele>
        <time>2011-01-19T13:35:33Z</time>
      </trkpt>
      <trkpt lat="43.49769" lon="6.90805">
        <ele>207.699997</ele>
        <time>2011-01-19T13:35:43Z</time>
      </trkpt>
      <trkpt lat="43.49765" lon="6.90794">
        <ele>208.100006</ele>
        <time>2011-01-19T13:35:51Z</time>
      </trkpt>
      <trkpt lat="43.49765" lon="6.90793">
        <ele>208.300003</ele>
        <time>2011-01-19T13:35:52Z</time>
      </trkpt>
      <trkpt lat="43.49755" lon="6.90777">
        <ele>209.399994</ele>
        <time>2011-01-19T13:36:06Z</time>
      </trkpt>
      <trkpt lat="43.4975" lon="6.90768">
        <ele>210.5</ele>
        <time>2011-01-19T13:36:15Z</time>
      </trkpt>
      <trkpt lat="43.49745" lon="6.90759">
        <ele>211.5</ele>
        <time>2011-01-19T13:36:24Z</time>
      </trkpt>
      <trkpt lat="43.49739" lon="6.9075">
        <ele>212.699997</ele>
        <time>2011-01-19T13:36:33Z</time>
      </trkpt>
      <trkpt lat="43.49735" lon="6.9074">
        <ele>213.199997</ele>
        <time>2011-01-19T13:36:42Z</time>
      </trkpt>
      <trkpt lat="43.49729" lon="6.90731">
        <ele>214.100006</ele>
        <time>2011-01-19T13:36:51Z</time>
      </trkpt>
      <trkpt lat="43.49724" lon="6.90721">
        <ele>215.100006</ele>
        <time>2011-01-19T13:37:03Z</time>
      </trkpt>
      <trkpt lat="43.49724" lon="6.9072">
        <ele>215.100006</ele>
        <time>2011-01-19T13:37:04Z</time>
      </trkpt>
      <trkpt lat="43.49715" lon="6.90703">
        <ele>216.899994</ele>
        <time>2011-01-19T13:37:22Z</time>
      </trkpt>
      <trkpt lat="43.49708" lon="6.90697">
        <ele>217.399994</ele>
        <time>2011-01-19T13:37:28Z</time>
      </trkpt>
      <trkpt lat="43.49701" lon="6.90691">
        <ele>218.199997</ele>
        <time>2011-01-19T13:37:36Z</time>
      </trkpt>
      <trkpt lat="43.49695" lon="6.90684">
        <ele>219</ele>
        <time>2011-01-19T13:37:45Z</time>
      </trkpt>
      <trkpt lat="43.49689" lon="6.90676">
        <ele>219.899994</ele>
        <time>2011-01-19T13:37:55Z</time>
      </trkpt>
      <trkpt lat="43.49684" lon="6.90668">
        <ele>220.600006</ele>
        <time>2011-01-19T13:38:04Z</time>
      </trkpt>
      <trkpt lat="43.49683" lon="6.90667">
        <ele>220.699997</ele>
        <time>2011-01-19T13:38:05Z</time>
      </trkpt>
      <trkpt lat="43.49671" lon="6.90655">
        <ele>221.699997</ele>
        <time>2011-01-19T13:38:15Z</time>
      </trkpt>
      <trkpt lat="43.49664" lon="6.9065">
        <ele>222.699997</ele>
        <time>2011-01-19T13:38:24Z</time>
      </trkpt>
      <trkpt lat="43.49657" lon="6.90645">
        <ele>223.699997</ele>
        <time>2011-01-19T13:38:32Z</time>
      </trkpt>
      <trkpt lat="43.49649" lon="6.90639">
        <ele>225.199997</ele>
        <time>2011-01-19T13:38:44Z</time>
      </trkpt>
      <trkpt lat="43.49644" lon="6.9063">
        <ele>226</ele>
        <time>2011-01-19T13:38:54Z</time>
      </trkpt>
      <trkpt lat="43.49639" lon="6.90621">
        <ele>226.800003</ele>
        <time>2011-01-19T13:39:03Z</time>
      </trkpt>
      <trkpt lat="43.49632" lon="6.90616">
        <ele>227.5</ele>
        <time>2011-01-19T13:39:10Z</time>
      </trkpt>
      <trkpt lat="43.49631" lon="6.90615">
        <ele>227.600006</ele>
        <time>2011-01-19T13:39:11Z</time>
      </trkpt>
      <trkpt lat="43.49619" lon="6.90599">
        <ele>229.399994</ele>
        <time>2011-01-19T13:39:34Z</time>
      </trkpt>
      <trkpt lat="43.49612" lon="6.90592">
        <ele>229.600006</ele>
        <time>2011-01-19T13:39:42Z</time>
      </trkpt>
      <trkpt lat="43.49606" lon="6.90584">
        <ele>229.800003</ele>
        <time>2011-01-19T13:39:49Z</time>
      </trkpt>
      <trkpt lat="43.49599" lon="6.90577">
        <ele>229.600006</ele>
        <time>2011-01-19T13:39:56Z</time>
      </trkpt>
      <trkpt lat="43.49591" lon="6.90572">
        <ele>230.399994</ele>
        <time>2011-01-19T13:40:03Z</time>
      </trkpt>
      <trkpt lat="43.49582" lon="6.90569">
        <ele>230.800003</ele>
        <time>2011-01-19T13:40:10Z</time>
      </trkpt>
      <trkpt lat="43.49574" lon="6.90568">
        <ele>230.800003</ele>
        <time>2011-01-19T13:40:15Z</time>
      </trkpt>
      <trkpt lat="43.49573" lon="6.90568">
        <ele>230.899994</ele>
        <time>2011-01-19T13:40:16Z</time>
      </trkpt>
      <trkpt lat="43.49558" lon="6.90562">
        <ele>232.300003</ele>
        <time>2011-01-19T13:40:32Z</time>
      </trkpt>
      <trkpt lat="43.49551" lon="6.90555">
        <ele>234.100006</ele>
        <time>2011-01-19T13:40:45Z</time>
      </trkpt>
      <trkpt lat="43.49543" lon="6.90551">
        <ele>235.699997</ele>
        <time>2011-01-19T13:40:55Z</time>
      </trkpt>
      <trkpt lat="43.49537" lon="6.90542">
        <ele>237.600006</ele>
        <time>2011-01-19T13:41:13Z</time>
      </trkpt>
      <trkpt lat="43.49542" lon="6.90533">
        <ele>239.399994</ele>
        <time>2011-01-19T13:41:25Z</time>
      </trkpt>
      <trkpt lat="43.49542" lon="6.90532">
        <ele>239.5</ele>
        <time>2011-01-19T13:41:26Z</time>
      </trkpt>
      <trkpt lat="43.4954" lon="6.90509">
        <ele>241.800003</ele>
        <time>2011-01-19T13:41:50Z</time>
      </trkpt>
      <trkpt lat="43.49537" lon="6.90498">
        <ele>243</ele>
        <time>2011-01-19T13:42:02Z</time>
      </trkpt>
      <trkpt lat="43.49533" lon="6.90488">
        <ele>243.699997</ele>
        <time>2011-01-19T13:42:12Z</time>
      </trkpt>
      <trkpt lat="43.49534" lon="6.90477">
        <ele>244.300003</ele>
        <time>2011-01-19T13:42:20Z</time>
      </trkpt>
      <trkpt lat="43.49533" lon="6.90465">
        <ele>245.899994</ele>
        <time>2011-01-19T13:42:32Z</time>
      </trkpt>
      <trkpt lat="43.49532" lon="6.90464">
        <ele>245.899994</ele>
        <time>2011-01-19T13:42:33Z</time>
      </trkpt>
      <trkpt lat="43.49528" lon="6.90442">
        <ele>247.600006</ele>
        <time>2011-01-19T13:42:54Z</time>
      </trkpt>
      <trkpt lat="43.49525" lon="6.90431">
        <ele>248.699997</ele>
        <time>2011-01-19T13:43:02Z</time>
      </trkpt>
      <trkpt lat="43.49523" lon="6.9042">
        <ele>249.300003</ele>
        <time>2011-01-19T13:43:11Z</time>
      </trkpt>
      <trkpt lat="43.49518" lon="6.9041">
        <ele>250.399994</ele>
        <time>2011-01-19T13:43:20Z</time>
      </trkpt>
      <trkpt lat="43.49513" lon="6.90401">
        <ele>251.399994</ele>
        <time>2011-01-19T13:43:31Z</time>
      </trkpt>
      <trkpt lat="43.49504" lon="6.90397">
        <ele>252.199997</ele>
        <time>2011-01-19T13:44:39Z</time>
      </trkpt>
      <trkpt lat="43.49504" lon="6.90398">
        <ele>252.199997</ele>
        <time>2011-01-19T13:44:40Z</time>
      </trkpt>
      <trkpt lat="43.49495" lon="6.90398">
        <ele>251.399994</ele>
        <time>2011-01-19T13:46:41Z</time>
      </trkpt>
      <trkpt lat="43.49499" lon="6.90412">
        <ele>251.699997</ele>
        <time>2011-01-19T13:49:36Z</time>
      </trkpt>
      <trkpt lat="43.49505" lon="6.90432">
        <ele>251.699997</ele>
        <time>2011-01-19T13:49:51Z</time>
      </trkpt>
      <trkpt lat="43.49506" lon="6.90443">
        <ele>251.5</ele>
        <time>2011-01-19T13:49:58Z</time>
      </trkpt>
      <trkpt lat="43.49507" lon="6.90454">
        <ele>251.899994</ele>
        <time>2011-01-19T13:50:06Z</time>
      </trkpt>
      <trkpt lat="43.49505" lon="6.90466">
        <ele>252.300003</ele>
        <time>2011-01-19T13:50:15Z</time>
      </trkpt>
      <trkpt lat="43.49504" lon="6.90477">
        <ele>251.800003</ele>
        <time>2011-01-19T13:50:23Z</time>
      </trkpt>
      <trkpt lat="43.49503" lon="6.9049">
        <ele>251.699997</ele>
        <time>2011-01-19T13:50:31Z</time>
      </trkpt>
      <trkpt lat="43.49505" lon="6.90501">
        <ele>252</ele>
        <time>2011-01-19T13:50:38Z</time>
      </trkpt>
      <trkpt lat="43.49505" lon="6.90502">
        <ele>252</ele>
        <time>2011-01-19T13:50:39Z</time>
      </trkpt>
      <trkpt lat="43.49502" lon="6.90524">
        <ele>252.5</ele>
        <time>2011-01-19T13:50:52Z</time>
      </trkpt>
      <trkpt lat="43.49499" lon="6.90534">
        <ele>252.399994</ele>
        <time>2011-01-19T13:50:59Z</time>
      </trkpt>
      <trkpt lat="43.495" lon="6.90546">
        <ele>252.5</ele>
        <time>2011-01-19T13:51:06Z</time>
      </trkpt>
      <trkpt lat="43.49502" lon="6.90557">
        <ele>252.600006</ele>
        <time>2011-01-19T13:51:13Z</time>
      </trkpt>
      <trkpt lat="43.49505" lon="6.90568">
        <ele>253</ele>
        <time>2011-01-19T13:51:21Z</time>
      </trkpt>
      <trkpt lat="43.49507" lon="6.9058">
        <ele>253</ele>
        <time>2011-01-19T13:51:28Z</time>
      </trkpt>
      <trkpt lat="43.49513" lon="6.90589">
        <ele>252.5</ele>
        <time>2011-01-19T13:51:36Z</time>
      </trkpt>
      <trkpt lat="43.4952" lon="6.90595">
        <ele>252.899994</ele>
        <time>2011-01-19T13:51:43Z</time>
      </trkpt>
      <trkpt lat="43.49521" lon="6.90597">
        <ele>252.800003</ele>
        <time>2011-01-19T13:51:44Z</time>
      </trkpt>
      <trkpt lat="43.49527" lon="6.90615">
        <ele>252.800003</ele>
        <time>2011-01-19T13:52:00Z</time>
      </trkpt>
      <trkpt lat="43.49534" lon="6.9062">
        <ele>252.699997</ele>
        <time>2011-01-19T13:52:06Z</time>
      </trkpt>
      <trkpt lat="43.49542" lon="6.90619">
        <ele>252.5</ele>
        <time>2011-01-19T13:52:12Z</time>
      </trkpt>
      <trkpt lat="43.49551" lon="6.9062">
        <ele>252.899994</ele>
        <time>2011-01-19T13:52:19Z</time>
      </trkpt>
      <trkpt lat="43.49558" lon="6.90627">
        <ele>253.100006</ele>
        <time>2011-01-19T13:52:25Z</time>
      </trkpt>
      <trkpt lat="43.49563" lon="6.90636">
        <ele>253</ele>
        <time>2011-01-19T13:52:31Z</time>
      </trkpt>
      <trkpt lat="43.49568" lon="6.90645">
        <ele>252.600006</ele>
        <time>2011-01-19T13:52:37Z</time>
      </trkpt>
      <trkpt lat="43.49574" lon="6.90653">
        <ele>252.899994</ele>
        <time>2011-01-19T13:52:44Z</time>
      </trkpt>
      <trkpt lat="43.49575" lon="6.90654">
        <ele>253.100006</ele>
        <time>2011-01-19T13:52:45Z</time>
      </trkpt>
      <trkpt lat="43.49587" lon="6.90665">
        <ele>253</ele>
        <time>2011-01-19T13:52:57Z</time>
      </trkpt>
      <trkpt lat="43.49594" lon="6.90672">
        <ele>253.100006</ele>
        <time>2011-01-19T13:53:03Z</time>
      </trkpt>
      <trkpt lat="43.49599" lon="6.90681">
        <ele>253.199997</ele>
        <time>2011-01-19T13:53:10Z</time>
      </trkpt>
      <trkpt lat="43.49606" lon="6.90689">
        <ele>253.199997</ele>
        <time>2011-01-19T13:53:17Z</time>
      </trkpt>
      <trkpt lat="43.49612" lon="6.90697">
        <ele>253.5</ele>
        <time>2011-01-19T13:53:24Z</time>
      </trkpt>
      <trkpt lat="43.49618" lon="6.90705">
        <ele>253.600006</ele>
        <time>2011-01-19T13:53:31Z</time>
      </trkpt>
      <trkpt lat="43.49624" lon="6.90714">
        <ele>253.800003</ele>
        <time>2011-01-19T13:53:38Z</time>
      </trkpt>
      <trkpt lat="43.49631" lon="6.90721">
        <ele>254.199997</ele>
        <time>2011-01-19T13:53:45Z</time>
      </trkpt>
      <trkpt lat="43.49638" lon="6.90728">
        <ele>253.699997</ele>
        <time>2011-01-19T13:53:52Z</time>
      </trkpt>
      <trkpt lat="43.49639" lon="6.90729">
        <ele>253.800003</ele>
        <time>2011-01-19T13:53:53Z</time>
      </trkpt>
      <trkpt lat="43.4965" lon="6.90743">
        <ele>254</ele>
        <time>2011-01-19T13:54:06Z</time>
      </trkpt>
      <trkpt lat="43.49655" lon="6.90752">
        <ele>254.5</ele>
        <time>2011-01-19T13:54:13Z</time>
      </trkpt>
      <trkpt lat="43.49661" lon="6.90761">
        <ele>254.199997</ele>
        <time>2011-01-19T13:54:20Z</time>
      </trkpt>
      <trkpt lat="43.49666" lon="6.9077">
        <ele>254.199997</ele>
        <time>2011-01-19T13:54:26Z</time>
      </trkpt>
      <trkpt lat="43.4967" lon="6.9078">
        <ele>253.899994</ele>
        <time>2011-01-19T13:54:33Z</time>
      </trkpt>
      <trkpt lat="43.49673" lon="6.9079">
        <ele>253.800003</ele>
        <time>2011-01-19T13:54:41Z</time>
      </trkpt>
      <trkpt lat="43.49678" lon="6.908">
        <ele>254.5</ele>
        <time>2011-01-19T13:54:49Z</time>
      </trkpt>
      <trkpt lat="43.49681" lon="6.90811">
        <ele>254.399994</ele>
        <time>2011-01-19T13:54:56Z</time>
      </trkpt>
      <trkpt lat="43.49682" lon="6.90813">
        <ele>254.399994</ele>
        <time>2011-01-19T13:54:57Z</time>
      </trkpt>
      <trkpt lat="43.49687" lon="6.90832">
        <ele>254.600006</ele>
        <time>2011-01-19T13:55:08Z</time>
      </trkpt>
      <trkpt lat="43.49688" lon="6.90843">
        <ele>254.100006</ele>
        <time>2011-01-19T13:55:15Z</time>
      </trkpt>
      <trkpt lat="43.49689" lon="6.90855">
        <ele>253.899994</ele>
        <time>2011-01-19T13:55:22Z</time>
      </trkpt>
      <trkpt lat="43.49693" lon="6.90866">
        <ele>254.199997</ele>
        <time>2011-01-19T13:55:30Z</time>
      </trkpt>
      <trkpt lat="43.49695" lon="6.90878">
        <ele>253.699997</ele>
        <time>2011-01-19T13:55:37Z</time>
      </trkpt>
      <trkpt lat="43.49696" lon="6.9089">
        <ele>254.399994</ele>
        <time>2011-01-19T13:55:45Z</time>
      </trkpt>
      <trkpt lat="43.49696" lon="6.90901">
        <ele>254.800003</ele>
        <time>2011-01-19T13:55:52Z</time>
      </trkpt>
      <trkpt lat="43.49699" lon="6.90912">
        <ele>254.699997</ele>
        <time>2011-01-19T13:55:59Z</time>
      </trkpt>
      <trkpt lat="43.49699" lon="6.90913">
        <ele>254.800003</ele>
        <time>2011-01-19T13:56:00Z</time>
      </trkpt>
      <trkpt lat="43.49703" lon="6.90935">
        <ele>255</ele>
        <time>2011-01-19T13:56:14Z</time>
      </trkpt>
      <trkpt lat="43.49705" lon="6.90947">
        <ele>254.699997</ele>
        <time>2011-01-19T13:56:21Z</time>
      </trkpt>
      <trkpt lat="43.49702" lon="6.90959">
        <ele>255</ele>
        <time>2011-01-19T13:56:28Z</time>
      </trkpt>
      <trkpt lat="43.49697" lon="6.90968">
        <ele>255.100006</ele>
        <time>2011-01-19T13:56:35Z</time>
      </trkpt>
      <trkpt lat="43.49691" lon="6.90976">
        <ele>255.199997</ele>
        <time>2011-01-19T13:56:41Z</time>
      </trkpt>
      <trkpt lat="43.49685" lon="6.90984">
        <ele>255.100006</ele>
        <time>2011-01-19T13:56:48Z</time>
      </trkpt>
      <trkpt lat="43.49679" lon="6.90993">
        <ele>255.199997</ele>
        <time>2011-01-19T13:56:55Z</time>
      </trkpt>
      <trkpt lat="43.49673" lon="6.91002">
        <ele>255.100006</ele>
        <time>2011-01-19T13:57:03Z</time>
      </trkpt>
      <trkpt lat="43.49673" lon="6.91003">
        <ele>255.199997</ele>
        <time>2011-01-19T13:57:04Z</time>
      </trkpt>
      <trkpt lat="43.49675" lon="6.91024">
        <ele>255.100006</ele>
        <time>2011-01-19T13:57:16Z</time>
      </trkpt>
      <trkpt lat="43.49678" lon="6.91036">
        <ele>254.899994</ele>
        <time>2011-01-19T13:57:23Z</time>
      </trkpt>
      <trkpt lat="43.49683" lon="6.91045">
        <ele>254.899994</ele>
        <time>2011-01-19T13:57:32Z</time>
      </trkpt>
      <trkpt lat="43.4969" lon="6.91051">
        <ele>254.300003</ele>
        <time>2011-01-19T13:58:56Z</time>
      </trkpt>
      <trkpt lat="43.4969" lon="6.91052">
        <ele>254.199997</ele>
        <time>2011-01-19T13:58:57Z</time>
      </trkpt>
      <trkpt lat="43.49695" lon="6.91073">
        <ele>254.5</ele>
        <time>2011-01-19T13:59:13Z</time>
      </trkpt>
      <trkpt lat="43.49696" lon="6.91085">
        <ele>254.600006</ele>
        <time>2011-01-19T13:59:22Z</time>
      </trkpt>
      <trkpt lat="43.49698" lon="6.91097">
        <ele>254</ele>
        <time>2011-01-19T13:59:29Z</time>
      </trkpt>
      <trkpt lat="43.49699" lon="6.91108">
        <ele>254.399994</ele>
        <time>2011-01-19T13:59:37Z</time>
      </trkpt>
      <trkpt lat="43.49701" lon="6.91119">
        <ele>254</ele>
        <time>2011-01-19T13:59:44Z</time>
      </trkpt>
      <trkpt lat="43.49703" lon="6.91131">
        <ele>253.899994</ele>
        <time>2011-01-19T13:59:51Z</time>
      </trkpt>
      <trkpt lat="43.49706" lon="6.91141">
        <ele>254</ele>
        <time>2011-01-19T13:59:57Z</time>
      </trkpt>
      <trkpt lat="43.49707" lon="6.91151">
        <ele>254.100006</ele>
        <time>2011-01-19T14:00:03Z</time>
      </trkpt>
      <trkpt lat="43.49707" lon="6.91153">
        <ele>254.100006</ele>
        <time>2011-01-19T14:00:04Z</time>
      </trkpt>
      <trkpt lat="43.4971" lon="6.91175">
        <ele>253.5</ele>
        <time>2011-01-19T14:00:20Z</time>
      </trkpt>
      <trkpt lat="43.49713" lon="6.91186">
        <ele>253.300003</ele>
        <time>2011-01-19T14:00:29Z</time>
      </trkpt>
      <trkpt lat="43.49714" lon="6.91198">
        <ele>253.5</ele>
        <time>2011-01-19T14:00:38Z</time>
      </trkpt>
      <trkpt lat="43.49714" lon="6.9121">
        <ele>253.199997</ele>
        <time>2011-01-19T14:00:44Z</time>
      </trkpt>
      <trkpt lat="43.49717" lon="6.91221">
        <ele>252.600006</ele>
        <time>2011-01-19T14:00:51Z</time>
      </trkpt>
      <trkpt lat="43.4972" lon="6.91232">
        <ele>252.699997</ele>
        <time>2011-01-19T14:00:58Z</time>
      </trkpt>
      <trkpt lat="43.49725" lon="6.91241">
        <ele>252.699997</ele>
        <time>2011-01-19T14:01:06Z</time>
      </trkpt>
      <trkpt lat="43.49726" lon="6.91242">
        <ele>252.699997</ele>
        <time>2011-01-19T14:01:07Z</time>
      </trkpt>
      <trkpt lat="43.49735" lon="6.91259">
        <ele>252.899994</ele>
        <time>2011-01-19T14:01:22Z</time>
      </trkpt>
      <trkpt lat="43.49741" lon="6.91268">
        <ele>252.699997</ele>
        <time>2011-01-19T14:01:30Z</time>
      </trkpt>
      <trkpt lat="43.49746" lon="6.91277">
        <ele>252.800003</ele>
        <time>2011-01-19T14:01:36Z</time>
      </trkpt>
      <trkpt lat="43.49752" lon="6.91284">
        <ele>252.600006</ele>
        <time>2011-01-19T14:01:42Z</time>
      </trkpt>
      <trkpt lat="43.49759" lon="6.91291">
        <ele>252.5</ele>
        <time>2011-01-19T14:01:50Z</time>
      </trkpt>
      <trkpt lat="43.49768" lon="6.91293">
        <ele>252.699997</ele>
        <time>2011-01-19T14:01:58Z</time>
      </trkpt>
      <trkpt lat="43.49776" lon="6.91295">
        <ele>252.699997</ele>
        <time>2011-01-19T14:02:06Z</time>
      </trkpt>
      <trkpt lat="43.49784" lon="6.91298">
        <ele>253.399994</ele>
        <time>2011-01-19T14:02:13Z</time>
      </trkpt>
      <trkpt lat="43.49785" lon="6.91298">
        <ele>253.300003</ele>
        <time>2011-01-19T14:02:14Z</time>
      </trkpt>
      <trkpt lat="43.49799" lon="6.91309">
        <ele>253.800003</ele>
        <time>2011-01-19T14:02:27Z</time>
      </trkpt>
      <trkpt lat="43.49804" lon="6.91317">
        <ele>253.899994</ele>
        <time>2011-01-19T14:02:33Z</time>
      </trkpt>
      <trkpt lat="43.49807" lon="6.91328">
        <ele>254</ele>
        <time>2011-01-19T14:02:40Z</time>
      </trkpt>
      <trkpt lat="43.49809" lon="6.91339">
        <ele>253.800003</ele>
        <time>2011-01-19T14:02:46Z</time>
      </trkpt>
      <trkpt lat="43.49812" lon="6.91349">
        <ele>254.100006</ele>
        <time>2011-01-19T14:02:52Z</time>
      </trkpt>
      <trkpt lat="43.49818" lon="6.91358">
        <ele>254.199997</ele>
        <time>2011-01-19T14:02:59Z</time>
      </trkpt>
      <trkpt lat="43.49823" lon="6.91367">
        <ele>254.100006</ele>
        <time>2011-01-19T14:03:06Z</time>
      </trkpt>
      <trkpt lat="43.49829" lon="6.91375">
        <ele>254.199997</ele>
        <time>2011-01-19T14:03:13Z</time>
      </trkpt>
      <trkpt lat="43.49834" lon="6.91385">
        <ele>253.699997</ele>
        <time>2011-01-19T14:03:21Z</time>
      </trkpt>
      <trkpt lat="43.49835" lon="6.91386">
        <ele>253.600006</ele>
        <time>2011-01-19T14:03:22Z</time>
      </trkpt>
      <trkpt lat="43.49847" lon="6.914">
        <ele>254.199997</ele>
        <time>2011-01-19T14:03:36Z</time>
      </trkpt>
      <trkpt lat="43.49852" lon="6.91409">
        <ele>254.300003</ele>
        <time>2011-01-19T14:03:43Z</time>
      </trkpt>
      <trkpt lat="43.49859" lon="6.91416">
        <ele>254.399994</ele>
        <time>2011-01-19T14:03:50Z</time>
      </trkpt>
      <trkpt lat="43.49866" lon="6.91421">
        <ele>254.399994</ele>
        <time>2011-01-19T14:03:57Z</time>
      </trkpt>
      <trkpt lat="43.49874" lon="6.91426">
        <ele>254.300003</ele>
        <time>2011-01-19T14:04:03Z</time>
      </trkpt>
      <trkpt lat="43.49881" lon="6.91432">
        <ele>254.300003</ele>
        <time>2011-01-19T14:04:10Z</time>
      </trkpt>
      <trkpt lat="43.49886" lon="6.9144">
        <ele>254.399994</ele>
        <time>2011-01-19T14:04:16Z</time>
      </trkpt>
      <trkpt lat="43.49892" lon="6.91447">
        <ele>254.199997</ele>
        <time>2011-01-19T14:04:23Z</time>
      </trkpt>
      <trkpt lat="43.49894" lon="6.91448">
        <ele>253.899994</ele>
        <time>2011-01-19T14:04:24Z</time>
      </trkpt>
      <trkpt lat="43.49903" lon="6.91464">
        <ele>254.300003</ele>
        <time>2011-01-19T14:04:37Z</time>
      </trkpt>
      <trkpt lat="43.49906" lon="6.91475">
        <ele>254.199997</ele>
        <time>2011-01-19T14:04:44Z</time>
      </trkpt>
      <trkpt lat="43.49906" lon="6.91485">
        <ele>254.5</ele>
        <time>2011-01-19T14:04:51Z</time>
      </trkpt>
      <trkpt lat="43.49905" lon="6.91497">
        <ele>254.100006</ele>
        <time>2011-01-19T14:04:57Z</time>
      </trkpt>
      <trkpt lat="43.49904" lon="6.91508">
        <ele>254.399994</ele>
        <time>2011-01-19T14:05:04Z</time>
      </trkpt>
      <trkpt lat="43.49902" lon="6.91519">
        <ele>254.100006</ele>
        <time>2011-01-19T14:05:12Z</time>
      </trkpt>
      <trkpt lat="43.49899" lon="6.91531">
        <ele>254.199997</ele>
        <time>2011-01-19T14:05:19Z</time>
      </trkpt>
      <trkpt lat="43.49895" lon="6.91541">
        <ele>254.300003</ele>
        <time>2011-01-19T14:05:26Z</time>
      </trkpt>
      <trkpt lat="43.49895" lon="6.91543">
        <ele>254.300003</ele>
        <time>2011-01-19T14:05:27Z</time>
      </trkpt>
      <trkpt lat="43.49888" lon="6.91564">
        <ele>254.199997</ele>
        <time>2011-01-19T14:05:40Z</time>
      </trkpt>
      <trkpt lat="43.49881" lon="6.91572">
        <ele>253.699997</ele>
        <time>2011-01-19T14:05:48Z</time>
      </trkpt>
      <trkpt lat="43.49875" lon="6.91578">
        <ele>253.800003</ele>
        <time>2011-01-19T14:05:55Z</time>
      </trkpt>
      <trkpt lat="43.49867" lon="6.91583">
        <ele>253.699997</ele>
        <time>2011-01-19T14:06:02Z</time>
      </trkpt>
      <trkpt lat="43.4986" lon="6.91586">
        <ele>253.600006</ele>
        <time>2011-01-19T14:06:09Z</time>
      </trkpt>
      <trkpt lat="43.49852" lon="6.91586">
        <ele>254</ele>
        <time>2011-01-19T14:06:16Z</time>
      </trkpt>
      <trkpt lat="43.49843" lon="6.91584">
        <ele>253.899994</ele>
        <time>2011-01-19T14:06:23Z</time>
      </trkpt>
      <trkpt lat="43.49836" lon="6.9158">
        <ele>254.300003</ele>
        <time>2011-01-19T14:06:30Z</time>
      </trkpt>
      <trkpt lat="43.49835" lon="6.91579">
        <ele>254.199997</ele>
        <time>2011-01-19T14:06:31Z</time>
      </trkpt>
      <trkpt lat="43.49821" lon="6.91571">
        <ele>254.199997</ele>
        <time>2011-01-19T14:06:44Z</time>
      </trkpt>
      <trkpt lat="43.49814" lon="6.91565">
        <ele>254.800003</ele>
        <time>2011-01-19T14:06:52Z</time>
      </trkpt>
      <trkpt lat="43.49807" lon="6.9156">
        <ele>254.800003</ele>
        <time>2011-01-19T14:06:59Z</time>
      </trkpt>
      <trkpt lat="43.49799" lon="6.91556">
        <ele>254.600006</ele>
        <time>2011-01-19T14:07:06Z</time>
      </trkpt>
      <trkpt lat="43.49791" lon="6.91552">
        <ele>255</ele>
        <time>2011-01-19T14:07:13Z</time>
      </trkpt>
      <trkpt lat="43.49783" lon="6.91549">
        <ele>255.199997</ele>
        <time>2011-01-19T14:07:20Z</time>
      </trkpt>
      <trkpt lat="43.49776" lon="6.91543">
        <ele>255.600006</ele>
        <time>2011-01-19T14:07:27Z</time>
      </trkpt>
      <trkpt lat="43.49768" lon="6.9154">
        <ele>255.899994</ele>
        <time>2011-01-19T14:07:34Z</time>
      </trkpt>
      <trkpt lat="43.49767" lon="6.9154">
        <ele>256.100006</ele>
        <time>2011-01-19T14:07:35Z</time>
      </trkpt>
      <trkpt lat="43.49752" lon="6.91536">
        <ele>256.100006</ele>
        <time>2011-01-19T14:07:48Z</time>
      </trkpt>
      <trkpt lat="43.49743" lon="6.91536">
        <ele>255.899994</ele>
        <time>2011-01-19T14:07:55Z</time>
      </trkpt>
      <trkpt lat="43.49735" lon="6.91537">
        <ele>256.200012</ele>
        <time>2011-01-19T14:08:03Z</time>
      </trkpt>
      <trkpt lat="43.49727" lon="6.91538">
        <ele>256</ele>
        <time>2011-01-19T14:08:09Z</time>
      </trkpt>
      <trkpt lat="43.49719" lon="6.91542">
        <ele>256.200012</ele>
        <time>2011-01-19T14:08:15Z</time>
      </trkpt>
      <trkpt lat="43.49711" lon="6.91549">
        <ele>256.100006</ele>
        <time>2011-01-19T14:08:23Z</time>
      </trkpt>
      <trkpt lat="43.49707" lon="6.91559">
        <ele>256.200012</ele>
        <time>2011-01-19T14:08:31Z</time>
      </trkpt>
      <trkpt lat="43.49703" lon="6.91569">
        <ele>256</ele>
        <time>2011-01-19T14:08:38Z</time>
      </trkpt>
      <trkpt lat="43.49702" lon="6.9157">
        <ele>256.200012</ele>
        <time>2011-01-19T14:08:39Z</time>
      </trkpt>
      <trkpt lat="43.49691" lon="6.91588">
        <ele>256.5</ele>
        <time>2011-01-19T14:08:52Z</time>
      </trkpt>
      <trkpt lat="43.49686" lon="6.91596">
        <ele>256.299988</ele>
        <time>2011-01-19T14:08:58Z</time>
      </trkpt>
      <trkpt lat="43.49681" lon="6.91605">
        <ele>255.899994</ele>
        <time>2011-01-19T14:09:04Z</time>
      </trkpt>
      <trkpt lat="43.49675" lon="6.91613">
        <ele>255.800003</ele>
        <time>2011-01-19T14:09:11Z</time>
      </trkpt>
      <trkpt lat="43.49671" lon="6.91622">
        <ele>256.200012</ele>
        <time>2011-01-19T14:09:18Z</time>
      </trkpt>
      <trkpt lat="43.49667" lon="6.91632">
        <ele>256.200012</ele>
        <time>2011-01-19T14:09:25Z</time>
      </trkpt>
      <trkpt lat="43.49663" lon="6.91643">
        <ele>256.100006</ele>
        <time>2011-01-19T14:09:33Z</time>
      </trkpt>
      <trkpt lat="43.49659" lon="6.91652">
        <ele>256.200012</ele>
        <time>2011-01-19T14:09:40Z</time>
      </trkpt>
      <trkpt lat="43.49658" lon="6.91654">
        <ele>256.200012</ele>
        <time>2011-01-19T14:09:41Z</time>
      </trkpt>
      <trkpt lat="43.49654" lon="6.91674">
        <ele>256.100006</ele>
        <time>2011-01-19T14:09:52Z</time>
      </trkpt>
      <trkpt lat="43.49652" lon="6.91685">
        <ele>256.200012</ele>
        <time>2011-01-19T14:09:59Z</time>
      </trkpt>
      <trkpt lat="43.4965" lon="6.91697">
        <ele>256.100006</ele>
        <time>2011-01-19T14:10:06Z</time>
      </trkpt>
      <trkpt lat="43.49648" lon="6.91708">
        <ele>256.100006</ele>
        <time>2011-01-19T14:10:13Z</time>
      </trkpt>
      <trkpt lat="43.49647" lon="6.91719">
        <ele>255.800003</ele>
        <time>2011-01-19T14:10:20Z</time>
      </trkpt>
      <trkpt lat="43.49646" lon="6.9173">
        <ele>256</ele>
        <time>2011-01-19T14:10:27Z</time>
      </trkpt>
      <trkpt lat="43.49646" lon="6.91742">
        <ele>255.800003</ele>
        <time>2011-01-19T14:10:34Z</time>
      </trkpt>
      <trkpt lat="43.49643" lon="6.91753">
        <ele>255.5</ele>
        <time>2011-01-19T14:15:31Z</time>
      </trkpt>
      <trkpt lat="43.49643" lon="6.91754">
        <ele>255.600006</ele>
        <time>2011-01-19T14:15:32Z</time>
      </trkpt>
      <trkpt lat="43.49627" lon="6.91751">
        <ele>252.899994</ele>
        <time>2011-01-19T14:15:52Z</time>
      </trkpt>
      <trkpt lat="43.49619" lon="6.91746">
        <ele>251.699997</ele>
        <time>2011-01-19T14:16:03Z</time>
      </trkpt>
      <trkpt lat="43.49611" lon="6.91745">
        <ele>250.5</ele>
        <time>2011-01-19T14:16:11Z</time>
      </trkpt>
      <trkpt lat="43.49604" lon="6.91745">
        <ele>249.699997</ele>
        <time>2011-01-19T14:16:18Z</time>
      </trkpt>
      <trkpt lat="43.49596" lon="6.91745">
        <ele>248.5</ele>
        <time>2011-01-19T14:16:25Z</time>
      </trkpt>
      <trkpt lat="43.49587" lon="6.91747">
        <ele>248</ele>
        <time>2011-01-19T14:16:32Z</time>
      </trkpt>
      <trkpt lat="43.49586" lon="6.91747">
        <ele>248</ele>
        <time>2011-01-19T14:16:33Z</time>
      </trkpt>
      <trkpt lat="43.49571" lon="6.91753">
        <ele>246.800003</ele>
        <time>2011-01-19T14:16:45Z</time>
      </trkpt>
      <trkpt lat="43.49563" lon="6.91755">
        <ele>247.399994</ele>
        <time>2011-01-19T14:16:53Z</time>
      </trkpt>
      <trkpt lat="43.49554" lon="6.91758">
        <ele>247.300003</ele>
        <time>2011-01-19T14:17:00Z</time>
      </trkpt>
      <trkpt lat="43.49546" lon="6.91762">
        <ele>247.899994</ele>
        <time>2011-01-19T14:17:08Z</time>
      </trkpt>
      <trkpt lat="43.49538" lon="6.91767">
        <ele>247.800003</ele>
        <time>2011-01-19T14:17:16Z</time>
      </trkpt>
      <trkpt lat="43.49533" lon="6.91776">
        <ele>247.600006</ele>
        <time>2011-01-19T14:17:23Z</time>
      </trkpt>
      <trkpt lat="43.49528" lon="6.91786">
        <ele>247.199997</ele>
        <time>2011-01-19T14:17:30Z</time>
      </trkpt>
      <trkpt lat="43.49522" lon="6.91795">
        <ele>246.5</ele>
        <time>2011-01-19T14:17:36Z</time>
      </trkpt>
      <trkpt lat="43.49521" lon="6.91796">
        <ele>246.399994</ele>
        <time>2011-01-19T14:17:37Z</time>
      </trkpt>
      <trkpt lat="43.4951" lon="6.91809">
        <ele>245.199997</ele>
        <time>2011-01-19T14:17:49Z</time>
      </trkpt>
      <trkpt lat="43.49502" lon="6.91813">
        <ele>244.300003</ele>
        <time>2011-01-19T14:17:58Z</time>
      </trkpt>
      <trkpt lat="43.49494" lon="6.91814">
        <ele>243.600006</ele>
        <time>2011-01-19T14:18:06Z</time>
      </trkpt>
      <trkpt lat="43.49486" lon="6.91818">
        <ele>242.899994</ele>
        <time>2011-01-19T14:18:16Z</time>
      </trkpt>
      <trkpt lat="43.49478" lon="6.91819">
        <ele>242.100006</ele>
        <time>2011-01-19T14:18:24Z</time>
      </trkpt>
      <trkpt lat="43.49471" lon="6.91823">
        <ele>241.399994</ele>
        <time>2011-01-19T14:18:32Z</time>
      </trkpt>
      <trkpt lat="43.49462" lon="6.91827">
        <ele>240.600006</ele>
        <time>2011-01-19T14:18:40Z</time>
      </trkpt>
      <trkpt lat="43.49461" lon="6.91827">
        <ele>240.5</ele>
        <time>2011-01-19T14:18:41Z</time>
      </trkpt>
      <trkpt lat="43.49446" lon="6.91832">
        <ele>240</ele>
        <time>2011-01-19T14:18:57Z</time>
      </trkpt>
      <trkpt lat="43.49437" lon="6.91835">
        <ele>240.199997</ele>
        <time>2011-01-19T14:19:04Z</time>
      </trkpt>
      <trkpt lat="43.49429" lon="6.91833">
        <ele>241.300003</ele>
        <time>2011-01-19T14:19:14Z</time>
      </trkpt>
      <trkpt lat="43.4942" lon="6.91831">
        <ele>241.699997</ele>
        <time>2011-01-19T14:19:22Z</time>
      </trkpt>
      <trkpt lat="43.49414" lon="6.91823">
        <ele>242.600006</ele>
        <time>2011-01-19T14:19:31Z</time>
      </trkpt>
      <trkpt lat="43.49407" lon="6.91816">
        <ele>243.300003</ele>
        <time>2011-01-19T14:19:41Z</time>
      </trkpt>
      <trkpt lat="43.49407" lon="6.91815">
        <ele>243.300003</ele>
        <time>2011-01-19T14:19:42Z</time>
      </trkpt>
      <trkpt lat="43.49392" lon="6.91807">
        <ele>244.800003</ele>
        <time>2011-01-19T14:19:57Z</time>
      </trkpt>
      <trkpt lat="43.49384" lon="6.91803">
        <ele>245.300003</ele>
        <time>2011-01-19T14:20:04Z</time>
      </trkpt>
      <trkpt lat="43.49377" lon="6.91798">
        <ele>246.199997</ele>
        <time>2011-01-19T14:20:12Z</time>
      </trkpt>
      <trkpt lat="43.49369" lon="6.91795">
        <ele>246.899994</ele>
        <time>2011-01-19T14:20:22Z</time>
      </trkpt>
      <trkpt lat="43.4936" lon="6.9179">
        <ele>247.899994</ele>
        <time>2011-01-19T14:20:32Z</time>
      </trkpt>
      <trkpt lat="43.49352" lon="6.91785">
        <ele>248.5</ele>
        <time>2011-01-19T14:20:41Z</time>
      </trkpt>
      <trkpt lat="43.49345" lon="6.91782">
        <ele>248.899994</ele>
        <time>2011-01-19T14:20:51Z</time>
      </trkpt>
      <trkpt lat="43.49344" lon="6.91782">
        <ele>248.899994</ele>
        <time>2011-01-19T14:20:52Z</time>
      </trkpt>
      <trkpt lat="43.49329" lon="6.91777">
        <ele>250.199997</ele>
        <time>2011-01-19T14:21:08Z</time>
      </trkpt>
      <trkpt lat="43.4932" lon="6.91774">
        <ele>251</ele>
        <time>2011-01-19T14:21:16Z</time>
      </trkpt>
      <trkpt lat="43.49312" lon="6.91777">
        <ele>250.800003</ele>
        <time>2011-01-19T14:21:24Z</time>
      </trkpt>
      <trkpt lat="43.49306" lon="6.9177">
        <ele>251.199997</ele>
        <time>2011-01-19T14:21:35Z</time>
      </trkpt>
      <trkpt lat="43.49298" lon="6.91767">
        <ele>251.699997</ele>
        <time>2011-01-19T14:21:42Z</time>
      </trkpt>
      <trkpt lat="43.4929" lon="6.91763">
        <ele>251.699997</ele>
        <time>2011-01-19T14:21:50Z</time>
      </trkpt>
      <trkpt lat="43.49283" lon="6.91759">
        <ele>252.300003</ele>
        <time>2011-01-19T14:21:56Z</time>
      </trkpt>
      <trkpt lat="43.49282" lon="6.91758">
        <ele>252.399994</ele>
        <time>2011-01-19T14:21:57Z</time>
      </trkpt>
      <trkpt lat="43.49268" lon="6.91752">
        <ele>252.800003</ele>
        <time>2011-01-19T14:22:10Z</time>
      </trkpt>
      <trkpt lat="43.4926" lon="6.91746">
        <ele>252.600006</ele>
        <time>2011-01-19T14:22:17Z</time>
      </trkpt>
      <trkpt lat="43.49252" lon="6.91742">
        <ele>252.600006</ele>
        <time>2011-01-19T14:22:23Z</time>
      </trkpt>
      <trkpt lat="43.49245" lon="6.91737">
        <ele>252.699997</ele>
        <time>2011-01-19T14:22:29Z</time>
      </trkpt>
      <trkpt lat="43.49239" lon="6.91728">
        <ele>252.5</ele>
        <time>2011-01-19T14:22:36Z</time>
      </trkpt>
      <trkpt lat="43.49233" lon="6.9172">
        <ele>252.5</ele>
        <time>2011-01-19T14:22:44Z</time>
      </trkpt>
      <trkpt lat="43.49228" lon="6.9171">
        <ele>252.399994</ele>
        <time>2011-01-19T14:22:52Z</time>
      </trkpt>
      <trkpt lat="43.49223" lon="6.917">
        <ele>252.600006</ele>
        <time>2011-01-19T14:23:00Z</time>
      </trkpt>
      <trkpt lat="43.49223" lon="6.91698">
        <ele>252.5</ele>
        <time>2011-01-19T14:23:01Z</time>
      </trkpt>
      <trkpt lat="43.49219" lon="6.91677">
        <ele>253.300003</ele>
        <time>2011-01-19T14:23:17Z</time>
      </trkpt>
      <trkpt lat="43.49215" lon="6.91666">
        <ele>253.100006</ele>
        <time>2011-01-19T14:23:25Z</time>
      </trkpt>
      <trkpt lat="43.49211" lon="6.91656">
        <ele>253.199997</ele>
        <time>2011-01-19T14:23:32Z</time>
      </trkpt>
      <trkpt lat="43.49208" lon="6.91645">
        <ele>252.899994</ele>
        <time>2011-01-19T14:23:39Z</time>
      </trkpt>
      <trkpt lat="43.49206" lon="6.91634">
        <ele>252.399994</ele>
        <time>2011-01-19T14:23:46Z</time>
      </trkpt>
      <trkpt lat="43.49202" lon="6.91623">
        <ele>252.100006</ele>
        <time>2011-01-19T14:23:54Z</time>
      </trkpt>
      <trkpt lat="43.49198" lon="6.91613">
        <ele>252.699997</ele>
        <time>2011-01-19T14:24:02Z</time>
      </trkpt>
      <trkpt lat="43.49197" lon="6.91612">
        <ele>252.699997</ele>
        <time>2011-01-19T14:24:03Z</time>
      </trkpt>
      <trkpt lat="43.49189" lon="6.91592">
        <ele>252.100006</ele>
        <time>2011-01-19T14:24:17Z</time>
      </trkpt>
      <trkpt lat="43.49184" lon="6.91584">
        <ele>253</ele>
        <time>2011-01-19T14:24:23Z</time>
      </trkpt>
      <trkpt lat="43.4918" lon="6.91574">
        <ele>252.699997</ele>
        <time>2011-01-19T14:24:29Z</time>
      </trkpt>
      <trkpt lat="43.49177" lon="6.91563">
        <ele>252.800003</ele>
        <time>2011-01-19T14:24:36Z</time>
      </trkpt>
      <trkpt lat="43.49172" lon="6.91554">
        <ele>252.699997</ele>
        <time>2011-01-19T14:24:43Z</time>
      </trkpt>
      <trkpt lat="43.49168" lon="6.91544">
        <ele>253.199997</ele>
        <time>2011-01-19T14:24:50Z</time>
      </trkpt>
      <trkpt lat="43.49164" lon="6.91534">
        <ele>253.300003</ele>
        <time>2011-01-19T14:24:57Z</time>
      </trkpt>
      <trkpt lat="43.49163" lon="6.91523">
        <ele>253.600006</ele>
        <time>2011-01-19T14:25:04Z</time>
      </trkpt>
      <trkpt lat="43.49163" lon="6.91521">
        <ele>253.600006</ele>
        <time>2011-01-19T14:25:05Z</time>
      </trkpt>
      <trkpt lat="43.49162" lon="6.915">
        <ele>255.199997</ele>
        <time>2011-01-19T14:25:19Z</time>
      </trkpt>
      <trkpt lat="43.49159" lon="6.91489">
        <ele>254.899994</ele>
        <time>2011-01-19T14:25:26Z</time>
      </trkpt>
      <trkpt lat="43.49155" lon="6.91479">
        <ele>254.899994</ele>
        <time>2011-01-19T14:25:34Z</time>
      </trkpt>
      <trkpt lat="43.49148" lon="6.91472">
        <ele>254.199997</ele>
        <time>2011-01-19T14:25:42Z</time>
      </trkpt>
      <trkpt lat="43.4914" lon="6.91468">
        <ele>253.699997</ele>
        <time>2011-01-19T14:25:50Z</time>
      </trkpt>
      <trkpt lat="43.49132" lon="6.91464">
        <ele>252.899994</ele>
        <time>2011-01-19T14:25:59Z</time>
      </trkpt>
      <trkpt lat="43.49124" lon="6.91459">
        <ele>251.800003</ele>
        <time>2011-01-19T14:26:07Z</time>
      </trkpt>
      <trkpt lat="43.49123" lon="6.91458">
        <ele>251.699997</ele>
        <time>2011-01-19T14:26:08Z</time>
      </trkpt>
      <trkpt lat="43.49109" lon="6.91449">
        <ele>249.699997</ele>
        <time>2011-01-19T14:26:23Z</time>
      </trkpt>
      <trkpt lat="43.49101" lon="6.91444">
        <ele>249.100006</ele>
        <time>2011-01-19T14:26:32Z</time>
      </trkpt>
      <trkpt lat="43.49094" lon="6.91437">
        <ele>248</ele>
        <time>2011-01-19T14:26:40Z</time>
      </trkpt>
      <trkpt lat="43.49086" lon="6.91434">
        <ele>246.600006</ele>
        <time>2011-01-19T14:26:47Z</time>
      </trkpt>
      <trkpt lat="43.4908" lon="6.91428">
        <ele>245.699997</ele>
        <time>2011-01-19T14:26:55Z</time>
      </trkpt>
      <trkpt lat="43.49073" lon="6.91421">
        <ele>245.399994</ele>
        <time>2011-01-19T14:27:02Z</time>
      </trkpt>
      <trkpt lat="43.49066" lon="6.91414">
        <ele>244.100006</ele>
        <time>2011-01-19T14:27:11Z</time>
      </trkpt>
      <trkpt lat="43.49065" lon="6.91414">
        <ele>243.899994</ele>
        <time>2011-01-19T14:27:12Z</time>
      </trkpt>
      <trkpt lat="43.4905" lon="6.91417">
        <ele>243</ele>
        <time>2011-01-19T14:27:25Z</time>
      </trkpt>
      <trkpt lat="43.49044" lon="6.91425">
        <ele>242.199997</ele>
        <time>2011-01-19T14:27:33Z</time>
      </trkpt>
      <trkpt lat="43.49037" lon="6.91432">
        <ele>241.699997</ele>
        <time>2011-01-19T14:27:40Z</time>
      </trkpt>
      <trkpt lat="43.49029" lon="6.91432">
        <ele>240.600006</ele>
        <time>2011-01-19T14:27:50Z</time>
      </trkpt>
      <trkpt lat="43.49021" lon="6.91435">
        <ele>239.699997</ele>
        <time>2011-01-19T14:27:58Z</time>
      </trkpt>
      <trkpt lat="43.49012" lon="6.91436">
        <ele>238.100006</ele>
        <time>2011-01-19T14:28:06Z</time>
      </trkpt>
      <trkpt lat="43.49004" lon="6.91437">
        <ele>236.899994</ele>
        <time>2011-01-19T14:28:17Z</time>
      </trkpt>
      <trkpt lat="43.49003" lon="6.91437">
        <ele>236.800003</ele>
        <time>2011-01-19T14:28:18Z</time>
      </trkpt>
      <trkpt lat="43.48993" lon="6.91449">
        <ele>235</ele>
        <time>2011-01-19T14:28:40Z</time>
      </trkpt>
      <trkpt lat="43.48991" lon="6.9146">
        <ele>234.100006</ele>
        <time>2011-01-19T14:28:48Z</time>
      </trkpt>
      <trkpt lat="43.48986" lon="6.9147">
        <ele>233.5</ele>
        <time>2011-01-19T14:28:54Z</time>
      </trkpt>
      <trkpt lat="43.48982" lon="6.9148">
        <ele>232.5</ele>
        <time>2011-01-19T14:29:05Z</time>
      </trkpt>
      <trkpt lat="43.48985" lon="6.91491">
        <ele>232</ele>
        <time>2011-01-19T14:29:14Z</time>
      </trkpt>
      <trkpt lat="43.48984" lon="6.91502">
        <ele>231.600006</ele>
        <time>2011-01-19T14:29:21Z</time>
      </trkpt>
      <trkpt lat="43.48984" lon="6.91503">
        <ele>231.5</ele>
        <time>2011-01-19T14:29:22Z</time>
      </trkpt>
      <trkpt lat="43.48979" lon="6.91525">
        <ele>230</ele>
        <time>2011-01-19T14:29:35Z</time>
      </trkpt>
      <trkpt lat="43.48976" lon="6.91536">
        <ele>229.600006</ele>
        <time>2011-01-19T14:29:42Z</time>
      </trkpt>
      <trkpt lat="43.48973" lon="6.91547">
        <ele>229.399994</ele>
        <time>2011-01-19T14:29:50Z</time>
      </trkpt>
      <trkpt lat="43.4897" lon="6.91558">
        <ele>229.100006</ele>
        <time>2011-01-19T14:29:57Z</time>
      </trkpt>
      <trkpt lat="43.48966" lon="6.91568">
        <ele>229.300003</ele>
        <time>2011-01-19T14:30:03Z</time>
      </trkpt>
      <trkpt lat="43.48964" lon="6.91579">
        <ele>229</ele>
        <time>2011-01-19T14:30:09Z</time>
      </trkpt>
      <trkpt lat="43.48961" lon="6.91589">
        <ele>228.5</ele>
        <time>2011-01-19T14:30:15Z</time>
      </trkpt>
      <trkpt lat="43.48957" lon="6.916">
        <ele>228</ele>
        <time>2011-01-19T14:30:22Z</time>
      </trkpt>
      <trkpt lat="43.48956" lon="6.91601">
        <ele>228.100006</ele>
        <time>2011-01-19T14:30:23Z</time>
      </trkpt>
      <trkpt lat="43.4895" lon="6.9162">
        <ele>228.100006</ele>
        <time>2011-01-19T14:30:35Z</time>
      </trkpt>
      <trkpt lat="43.48947" lon="6.9163">
        <ele>228</ele>
        <time>2011-01-19T14:30:42Z</time>
      </trkpt>
      <trkpt lat="43.48942" lon="6.91641">
        <ele>228.399994</ele>
        <time>2011-01-19T14:30:50Z</time>
      </trkpt>
      <trkpt lat="43.48938" lon="6.91649">
        <ele>227.699997</ele>
        <time>2011-01-19T14:30:58Z</time>
      </trkpt>
      <trkpt lat="43.48931" lon="6.91657">
        <ele>227.399994</ele>
        <time>2011-01-19T14:31:06Z</time>
      </trkpt>
      <trkpt lat="43.48926" lon="6.91667">
        <ele>226.199997</ele>
        <time>2011-01-19T14:31:15Z</time>
      </trkpt>
      <trkpt lat="43.48921" lon="6.91676">
        <ele>225.699997</ele>
        <time>2011-01-19T14:31:23Z</time>
      </trkpt>
      <trkpt lat="43.48921" lon="6.91678">
        <ele>225.800003</ele>
        <time>2011-01-19T14:31:24Z</time>
      </trkpt>
      <trkpt lat="43.48915" lon="6.91699">
        <ele>224.300003</ele>
        <time>2011-01-19T14:31:39Z</time>
      </trkpt>
      <trkpt lat="43.48913" lon="6.9171">
        <ele>223.699997</ele>
        <time>2011-01-19T14:31:46Z</time>
      </trkpt>
      <trkpt lat="43.48911" lon="6.9172">
        <ele>222.800003</ele>
        <time>2011-01-19T14:31:52Z</time>
      </trkpt>
      <trkpt lat="43.48909" lon="6.9173">
        <ele>222.600006</ele>
        <time>2011-01-19T14:31:57Z</time>
      </trkpt>
      <trkpt lat="43.48906" lon="6.91741">
        <ele>222</ele>
        <time>2011-01-19T14:32:03Z</time>
      </trkpt>
      <trkpt lat="43.48903" lon="6.91751">
        <ele>221.699997</ele>
        <time>2011-01-19T14:32:09Z</time>
      </trkpt>
      <trkpt lat="43.489" lon="6.91762">
        <ele>221</ele>
        <time>2011-01-19T14:32:18Z</time>
      </trkpt>
      <trkpt lat="43.48897" lon="6.91773">
        <ele>220.399994</ele>
        <time>2011-01-19T14:32:27Z</time>
      </trkpt>
      <trkpt lat="43.48896" lon="6.91775">
        <ele>220</ele>
        <time>2011-01-19T14:32:28Z</time>
      </trkpt>
      <trkpt lat="43.48889" lon="6.91793">
        <ele>219.100006</ele>
        <time>2011-01-19T14:32:41Z</time>
      </trkpt>
      <trkpt lat="43.48887" lon="6.91803">
        <ele>218.800003</ele>
        <time>2011-01-19T14:32:47Z</time>
      </trkpt>
      <trkpt lat="43.48884" lon="6.91814">
        <ele>217.699997</ele>
        <time>2011-01-19T14:32:54Z</time>
      </trkpt>
      <trkpt lat="43.4888" lon="6.91824">
        <ele>217</ele>
        <time>2011-01-19T14:33:01Z</time>
      </trkpt>
      <trkpt lat="43.48876" lon="6.91834">
        <ele>216.300003</ele>
        <time>2011-01-19T14:33:08Z</time>
      </trkpt>
      <trkpt lat="43.48869" lon="6.91842">
        <ele>215.699997</ele>
        <time>2011-01-19T14:33:15Z</time>
      </trkpt>
      <trkpt lat="43.48862" lon="6.91847">
        <ele>215</ele>
        <time>2011-01-19T14:33:22Z</time>
      </trkpt>
      <trkpt lat="43.48853" lon="6.91848">
        <ele>215.699997</ele>
        <time>2011-01-19T14:33:31Z</time>
      </trkpt>
      <trkpt lat="43.48852" lon="6.91848">
        <ele>215.699997</ele>
        <time>2011-01-19T14:33:32Z</time>
      </trkpt>
      <trkpt lat="43.48837" lon="6.91841">
        <ele>216.100006</ele>
        <time>2011-01-19T14:33:48Z</time>
      </trkpt>
      <trkpt lat="43.48831" lon="6.91833">
        <ele>216.199997</ele>
        <time>2011-01-19T14:33:55Z</time>
      </trkpt>
      <trkpt lat="43.48825" lon="6.91825">
        <ele>217.300003</ele>
        <time>2011-01-19T14:34:04Z</time>
      </trkpt>
      <trkpt lat="43.48818" lon="6.91819">
        <ele>217.300003</ele>
        <time>2011-01-19T14:34:11Z</time>
      </trkpt>
      <trkpt lat="43.48812" lon="6.9181">
        <ele>217.300003</ele>
        <time>2011-01-19T14:34:19Z</time>
      </trkpt>
      <trkpt lat="43.48805" lon="6.91804">
        <ele>217.5</ele>
        <time>2011-01-19T14:34:27Z</time>
      </trkpt>
      <trkpt lat="43.48799" lon="6.91797">
        <ele>217.899994</ele>
        <time>2011-01-19T14:34:34Z</time>
      </trkpt>
      <trkpt lat="43.48798" lon="6.91796">
        <ele>217.899994</ele>
        <time>2011-01-19T14:34:35Z</time>
      </trkpt>
      <trkpt lat="43.48786" lon="6.91782">
        <ele>218</ele>
        <time>2011-01-19T14:34:48Z</time>
      </trkpt>
      <trkpt lat="43.4878" lon="6.91774">
        <ele>218.399994</ele>
        <time>2011-01-19T14:34:56Z</time>
      </trkpt>
      <trkpt lat="43.48772" lon="6.9177">
        <ele>218.800003</ele>
        <time>2011-01-19T14:35:03Z</time>
      </trkpt>
      <trkpt lat="43.48764" lon="6.91766">
        <ele>219.899994</ele>
        <time>2011-01-19T14:35:12Z</time>
      </trkpt>
      <trkpt lat="43.48756" lon="6.91762">
        <ele>220.399994</ele>
        <time>2011-01-19T14:35:20Z</time>
      </trkpt>
      <trkpt lat="43.48748" lon="6.91757">
        <ele>221.399994</ele>
        <time>2011-01-19T14:35:30Z</time>
      </trkpt>
      <trkpt lat="43.4874" lon="6.91751">
        <ele>222.5</ele>
        <time>2011-01-19T14:35:39Z</time>
      </trkpt>
      <trkpt lat="43.48739" lon="6.9175">
        <ele>222.600006</ele>
        <time>2011-01-19T14:35:40Z</time>
      </trkpt>
      <trkpt lat="43.48724" lon="6.91743">
        <ele>224.899994</ele>
        <time>2011-01-19T14:35:57Z</time>
      </trkpt>
      <trkpt lat="43.48716" lon="6.91738">
        <ele>226</ele>
        <time>2011-01-19T14:36:07Z</time>
      </trkpt>
      <trkpt lat="43.4871" lon="6.9173">
        <ele>227.5</ele>
        <time>2011-01-19T14:36:18Z</time>
      </trkpt>
      <trkpt lat="43.48701" lon="6.91726">
        <ele>228.300003</ele>
        <time>2011-01-19T14:36:27Z</time>
      </trkpt>
      <trkpt lat="43.48695" lon="6.91719">
        <ele>228.600006</ele>
        <time>2011-01-19T14:36:35Z</time>
      </trkpt>
      <trkpt lat="43.48689" lon="6.91712">
        <ele>229.399994</ele>
        <time>2011-01-19T14:36:43Z</time>
      </trkpt>
      <trkpt lat="43.48688" lon="6.91711">
        <ele>229.5</ele>
        <time>2011-01-19T14:36:44Z</time>
      </trkpt>
      <trkpt lat="43.48676" lon="6.91697">
        <ele>230.699997</ele>
        <time>2011-01-19T14:37:01Z</time>
      </trkpt>
      <trkpt lat="43.48669" lon="6.9169">
        <ele>230.699997</ele>
        <time>2011-01-19T14:37:09Z</time>
      </trkpt>
      <trkpt lat="43.48662" lon="6.91683">
        <ele>232</ele>
        <time>2011-01-19T14:37:17Z</time>
      </trkpt>
      <trkpt lat="43.48656" lon="6.91674">
        <ele>232.699997</ele>
        <time>2011-01-19T14:37:26Z</time>
      </trkpt>
      <trkpt lat="43.4865" lon="6.91666">
        <ele>233.699997</ele>
        <time>2011-01-19T14:37:35Z</time>
      </trkpt>
      <trkpt lat="43.48644" lon="6.91656">
        <ele>234.800003</ele>
        <time>2011-01-19T14:37:44Z</time>
      </trkpt>
      <trkpt lat="43.48644" lon="6.91656">
        <ele>234.800003</ele>
        <time>2011-01-19T14:37:45Z</time>
      </trkpt>
      <trkpt lat="43.48633" lon="6.9164">
        <ele>234.800003</ele>
        <time>2011-01-19T14:38:01Z</time>
      </trkpt>
      <trkpt lat="43.48627" lon="6.91632">
        <ele>235.399994</ele>
        <time>2011-01-19T14:38:10Z</time>
      </trkpt>
      <trkpt lat="43.48622" lon="6.91621">
        <ele>236.100006</ele>
        <time>2011-01-19T14:38:19Z</time>
      </trkpt>
      <trkpt lat="43.48616" lon="6.91612">
        <ele>237.100006</ele>
        <time>2011-01-19T14:38:29Z</time>
      </trkpt>
      <trkpt lat="43.48612" lon="6.91602">
        <ele>238.300003</ele>
        <time>2011-01-19T14:38:38Z</time>
      </trkpt>
      <trkpt lat="43.48607" lon="6.91592">
        <ele>238.899994</ele>
        <time>2011-01-19T14:38:47Z</time>
      </trkpt>
      <trkpt lat="43.48606" lon="6.91591">
        <ele>239.100006</ele>
        <time>2011-01-19T14:38:48Z</time>
      </trkpt>
      <trkpt lat="43.48601" lon="6.91571">
        <ele>240.699997</ele>
        <time>2011-01-19T14:39:04Z</time>
      </trkpt>
      <trkpt lat="43.48597" lon="6.9156">
        <ele>240.600006</ele>
        <time>2011-01-19T14:39:12Z</time>
      </trkpt>
      <trkpt lat="43.48591" lon="6.91553">
        <ele>240.699997</ele>
        <time>2011-01-19T14:39:22Z</time>
      </trkpt>
      <trkpt lat="43.48582" lon="6.91551">
        <ele>240.899994</ele>
        <time>2011-01-19T14:39:30Z</time>
      </trkpt>
      <trkpt lat="43.48573" lon="6.91551">
        <ele>241.100006</ele>
        <time>2011-01-19T14:39:37Z</time>
      </trkpt>
      <trkpt lat="43.48566" lon="6.91546">
        <ele>241.600006</ele>
        <time>2011-01-19T14:39:45Z</time>
      </trkpt>
      <trkpt lat="43.48558" lon="6.91544">
        <ele>242.5</ele>
        <time>2011-01-19T14:39:54Z</time>
      </trkpt>
      <trkpt lat="43.48557" lon="6.91544">
        <ele>242.5</ele>
        <time>2011-01-19T14:39:55Z</time>
      </trkpt>
      <trkpt lat="43.48541" lon="6.91545">
        <ele>244.100006</ele>
        <time>2011-01-19T14:40:11Z</time>
      </trkpt>
      <trkpt lat="43.48533" lon="6.91541">
        <ele>245</ele>
        <time>2011-01-19T14:40:19Z</time>
      </trkpt>
      <trkpt lat="43.48525" lon="6.91545">
        <ele>245.5</ele>
        <time>2011-01-19T14:40:26Z</time>
      </trkpt>
      <trkpt lat="43.48517" lon="6.91548">
        <ele>246.100006</ele>
        <time>2011-01-19T14:40:33Z</time>
      </trkpt>
      <trkpt lat="43.48509" lon="6.9155">
        <ele>247.300003</ele>
        <time>2011-01-19T14:40:44Z</time>
      </trkpt>
      <trkpt lat="43.485" lon="6.91552">
        <ele>248.5</ele>
        <time>2011-01-19T14:40:55Z</time>
      </trkpt>
      <trkpt lat="43.48499" lon="6.91552">
        <ele>248.600006</ele>
        <time>2011-01-19T14:40:56Z</time>
      </trkpt>
      <trkpt lat="43.48483" lon="6.91557">
        <ele>250.399994</ele>
        <time>2011-01-19T14:41:16Z</time>
      </trkpt>
      <trkpt lat="43.48475" lon="6.91562">
        <ele>251.399994</ele>
        <time>2011-01-19T14:41:25Z</time>
      </trkpt>
      <trkpt lat="43.48467" lon="6.91563">
        <ele>252.199997</ele>
        <time>2011-01-19T14:41:37Z</time>
      </trkpt>
      <trkpt lat="43.48458" lon="6.91565">
        <ele>253.399994</ele>
        <time>2011-01-19T14:41:49Z</time>
      </trkpt>
      <trkpt lat="43.48449" lon="6.91568">
        <ele>254.300003</ele>
        <time>2011-01-19T14:41:59Z</time>
      </trkpt>
      <trkpt lat="43.48448" lon="6.91568">
        <ele>254.699997</ele>
        <time>2011-01-19T14:42:00Z</time>
      </trkpt>
      <trkpt lat="43.48433" lon="6.91572">
        <ele>256.200012</ele>
        <time>2011-01-19T14:42:19Z</time>
      </trkpt>
      <trkpt lat="43.48424" lon="6.91574">
        <ele>256.899994</ele>
        <time>2011-01-19T14:42:30Z</time>
      </trkpt>
      <trkpt lat="43.48416" lon="6.91575">
        <ele>257.899994</ele>
        <time>2011-01-19T14:42:41Z</time>
      </trkpt>
      <trkpt lat="43.48407" lon="6.91578">
        <ele>258.700012</ele>
        <time>2011-01-19T14:42:52Z</time>
      </trkpt>
      <trkpt lat="43.48399" lon="6.91576">
        <ele>259.299988</ele>
        <time>2011-01-19T14:43:03Z</time>
      </trkpt>
      <trkpt lat="43.48398" lon="6.91576">
        <ele>259.299988</ele>
        <time>2011-01-19T14:43:04Z</time>
      </trkpt>
      <trkpt lat="43.48382" lon="6.91568">
        <ele>260.600006</ele>
        <time>2011-01-19T14:43:23Z</time>
      </trkpt>
      <trkpt lat="43.48375" lon="6.91563">
        <ele>262.600006</ele>
        <time>2011-01-19T14:43:32Z</time>
      </trkpt>
      <trkpt lat="43.48367" lon="6.91559">
        <ele>262.700012</ele>
        <time>2011-01-19T14:43:41Z</time>
      </trkpt>
      <trkpt lat="43.48359" lon="6.91557">
        <ele>264.5</ele>
        <time>2011-01-19T14:43:49Z</time>
      </trkpt>
      <trkpt lat="43.4835" lon="6.91555">
        <ele>264.299988</ele>
        <time>2011-01-19T14:43:58Z</time>
      </trkpt>
      <trkpt lat="43.48342" lon="6.91555">
        <ele>265.600006</ele>
        <time>2011-01-19T14:44:07Z</time>
      </trkpt>
      <trkpt lat="43.48341" lon="6.91555">
        <ele>265.700012</ele>
        <time>2011-01-19T14:44:08Z</time>
      </trkpt>
      <trkpt lat="43.48324" lon="6.91555">
        <ele>266.399994</ele>
        <time>2011-01-19T14:44:27Z</time>
      </trkpt>
      <trkpt lat="43.48316" lon="6.91556">
        <ele>267.100006</ele>
        <time>2011-01-19T14:44:37Z</time>
      </trkpt>
      <trkpt lat="43.48307" lon="6.9156">
        <ele>268</ele>
        <time>2011-01-19T14:44:48Z</time>
      </trkpt>
      <trkpt lat="43.48299" lon="6.91564">
        <ele>269.399994</ele>
        <time>2011-01-19T14:44:59Z</time>
      </trkpt>
      <trkpt lat="43.48292" lon="6.91569">
        <ele>270.299988</ele>
        <time>2011-01-19T14:45:09Z</time>
      </trkpt>
      <trkpt lat="43.4829" lon="6.9157">
        <ele>270.399994</ele>
        <time>2011-01-19T14:45:10Z</time>
      </trkpt>
      <trkpt lat="43.48279" lon="6.91584">
        <ele>271.600006</ele>
        <time>2011-01-19T14:45:25Z</time>
      </trkpt>
      <trkpt lat="43.48273" lon="6.91592">
        <ele>272.799988</ele>
        <time>2011-01-19T14:45:35Z</time>
      </trkpt>
      <trkpt lat="43.48266" lon="6.916">
        <ele>273.700012</ele>
        <time>2011-01-19T14:45:43Z</time>
      </trkpt>
      <trkpt lat="43.48259" lon="6.91608">
        <ele>274.399994</ele>
        <time>2011-01-19T14:45:51Z</time>
      </trkpt>
      <trkpt lat="43.48253" lon="6.91617">
        <ele>274.899994</ele>
        <time>2011-01-19T14:46:00Z</time>
      </trkpt>
      <trkpt lat="43.48248" lon="6.91626">
        <ele>276</ele>
        <time>2011-01-19T14:46:09Z</time>
      </trkpt>
      <trkpt lat="43.48241" lon="6.91634">
        <ele>276.899994</ele>
        <time>2011-01-19T14:46:18Z</time>
      </trkpt>
      <trkpt lat="43.48241" lon="6.91634">
        <ele>276.899994</ele>
        <time>2011-01-19T14:46:19Z</time>
      </trkpt>
      <trkpt lat="43.48231" lon="6.91618">
        <ele>280.100006</ele>
        <time>2011-01-19T14:46:56Z</time>
      </trkpt>
      <trkpt lat="43.48229" lon="6.91606">
        <ele>279.5</ele>
        <time>2011-01-19T14:47:06Z</time>
      </trkpt>
      <trkpt lat="43.48228" lon="6.91595">
        <ele>280.399994</ele>
        <time>2011-01-19T14:47:17Z</time>
      </trkpt>
      <trkpt lat="43.48227" lon="6.91583">
        <ele>281.299988</ele>
        <time>2011-01-19T14:47:28Z</time>
      </trkpt>
      <trkpt lat="43.48227" lon="6.91582">
        <ele>281.5</ele>
        <time>2011-01-19T14:47:29Z</time>
      </trkpt>
      <trkpt lat="43.48228" lon="6.91559">
        <ele>284.200012</ele>
        <time>2011-01-19T14:47:51Z</time>
      </trkpt>
      <trkpt lat="43.48227" lon="6.91548">
        <ele>285.700012</ele>
        <time>2011-01-19T14:48:06Z</time>
      </trkpt>
      <trkpt lat="43.48228" lon="6.91536">
        <ele>287.200012</ele>
        <time>2011-01-19T14:48:19Z</time>
      </trkpt>
      <trkpt lat="43.48226" lon="6.91525">
        <ele>289.299988</ele>
        <time>2011-01-19T14:48:31Z</time>
      </trkpt>
      <trkpt lat="43.48226" lon="6.91524">
        <ele>289.600006</ele>
        <time>2011-01-19T14:48:32Z</time>
      </trkpt>
      <trkpt lat="43.48224" lon="6.91502">
        <ele>292.200012</ele>
        <time>2011-01-19T14:48:57Z</time>
      </trkpt>
      <trkpt lat="43.48222" lon="6.9149">
        <ele>293.200012</ele>
        <time>2011-01-19T14:49:09Z</time>
      </trkpt>
      <trkpt lat="43.48221" lon="6.91479">
        <ele>294.399994</ele>
        <time>2011-01-19T14:49:19Z</time>
      </trkpt>
      <trkpt lat="43.48218" lon="6.91468">
        <ele>295.600006</ele>
        <time>2011-01-19T14:49:29Z</time>
      </trkpt>
      <trkpt lat="43.48214" lon="6.91457">
        <ele>297</ele>
        <time>2011-01-19T14:49:39Z</time>
      </trkpt>
      <trkpt lat="43.48214" lon="6.91456">
        <ele>297</ele>
        <time>2011-01-19T14:49:40Z</time>
      </trkpt>
      <trkpt lat="43.48203" lon="6.91439">
        <ele>299.100006</ele>
        <time>2011-01-19T14:49:59Z</time>
      </trkpt>
      <trkpt lat="43.48196" lon="6.91432">
        <ele>299.899994</ele>
        <time>2011-01-19T14:50:08Z</time>
      </trkpt>
      <trkpt lat="43.4819" lon="6.91424">
        <ele>301.299988</ele>
        <time>2011-01-19T14:50:18Z</time>
      </trkpt>
      <trkpt lat="43.48183" lon="6.91417">
        <ele>302.700012</ele>
        <time>2011-01-19T14:50:30Z</time>
      </trkpt>
      <trkpt lat="43.48176" lon="6.9141">
        <ele>304</ele>
        <time>2011-01-19T14:50:41Z</time>
      </trkpt>
      <trkpt lat="43.48175" lon="6.9141">
        <ele>304.100006</ele>
        <time>2011-01-19T14:50:42Z</time>
      </trkpt>
      <trkpt lat="43.48161" lon="6.914">
        <ele>306</ele>
        <time>2011-01-19T14:51:01Z</time>
      </trkpt>
      <trkpt lat="43.48153" lon="6.91395">
        <ele>307.299988</ele>
        <time>2011-01-19T14:51:11Z</time>
      </trkpt>
      <trkpt lat="43.48145" lon="6.9139">
        <ele>308.5</ele>
        <time>2011-01-19T14:51:21Z</time>
      </trkpt>
      <trkpt lat="43.48137" lon="6.91384">
        <ele>309.399994</ele>
        <time>2011-01-19T14:51:31Z</time>
      </trkpt>
      <trkpt lat="43.48131" lon="6.91377">
        <ele>309.899994</ele>
        <time>2011-01-19T14:51:41Z</time>
      </trkpt>
      <trkpt lat="43.48126" lon="6.91367">
        <ele>311</ele>
        <time>2011-01-19T14:51:51Z</time>
      </trkpt>
      <trkpt lat="43.48125" lon="6.91366">
        <ele>311.100006</ele>
        <time>2011-01-19T14:51:52Z</time>
      </trkpt>
      <trkpt lat="43.48119" lon="6.91346">
        <ele>313.200012</ele>
        <time>2011-01-19T14:52:11Z</time>
      </trkpt>
      <trkpt lat="43.48117" lon="6.91335">
        <ele>314</ele>
        <time>2011-01-19T14:52:21Z</time>
      </trkpt>
      <trkpt lat="43.48114" lon="6.91324">
        <ele>315.600006</ele>
        <time>2011-01-19T14:52:34Z</time>
      </trkpt>
      <trkpt lat="43.48111" lon="6.91313">
        <ele>316.600006</ele>
        <time>2011-01-19T14:52:45Z</time>
      </trkpt>
      <trkpt lat="43.48108" lon="6.91301">
        <ele>318.399994</ele>
        <time>2011-01-19T14:52:56Z</time>
      </trkpt>
      <trkpt lat="43.48108" lon="6.91301">
        <ele>318.399994</ele>
        <time>2011-01-19T14:52:57Z</time>
      </trkpt>
      <trkpt lat="43.48102" lon="6.91279">
        <ele>320.5</ele>
        <time>2011-01-19T14:53:17Z</time>
      </trkpt>
      <trkpt lat="43.48099" lon="6.91268">
        <ele>321.799988</ele>
        <time>2011-01-19T14:53:27Z</time>
      </trkpt>
      <trkpt lat="43.48096" lon="6.91257">
        <ele>322.5</ele>
        <time>2011-01-19T14:53:37Z</time>
      </trkpt>
      <trkpt lat="43.48092" lon="6.91246">
        <ele>323.700012</ele>
        <time>2011-01-19T14:53:47Z</time>
      </trkpt>
      <trkpt lat="43.48088" lon="6.91236">
        <ele>325.100006</ele>
        <time>2011-01-19T14:53:57Z</time>
      </trkpt>
      <trkpt lat="43.48088" lon="6.91235">
        <ele>325.100006</ele>
        <time>2011-01-19T14:53:58Z</time>
      </trkpt>
    </trkseg>
  </trk>
</gpx>